Time,TemperatureF,DewpointF,PressureIn,WindDirection,WindDirectionDegrees,WindSpeedMPH,WindSpeedGustMPH,Humidity,HourlyPrecipIn,Conditions,Clouds,dailyrainin,SolarRadiationWatts/m^2,SoftwareType,DateUTC
2013-06-24 00:00:00,71.6,65.5,28.73,ENE,68,0.0,0.0,81,0.00,,,0.00,0.00,VWS V14.01,2013-06-24 05:00:00,
2013-06-24 00:01:00,71.4,65.3,28.73,ENE,68,0.0,0.0,81,0.00,,,0.00,0.00,VWS V14.01,2013-06-24 05:01:00,
2013-06-24 00:02:00,71.6,65.5,28.73,ENE,68,0.0,0.0,81,0.00,,,0.00,0.00,VWS V14.01,2013-06-24 05:02:00,
2013-06-24 00:03:00,71.6,65.5,28.73,ENE,68,0.0,0.0,81,0.00,,,0.00,0.00,VWS V14.01,2013-06-24 05:03:00,
2013-06-24 00:04:00,71.4,65.3,28.73,ENE,68,0.9,0.9,81,0.00,,,0.00,0.00,VWS V14.01,2013-06-24 05:04:00,
2013-06-24 00:05:00,71.4,65.3,28.73,ENE,68,0.0,0.0,81,0.00,,,0.00,0.00,VWS V14.01,2013-06-24 05:05:00,
2013-06-24 00:06:00,71.4,65.6,28.70,ENE,68,0.0,0.0,82,0.00,,,0.00,0.00,VWS V14.01,2013-06-24 05:06:00,
2013-06-24 00:07:00,71.4,65.6,28.70,ENE,68,0.0,0.0,82,0.00,,,0.00,0.00,VWS V14.01,2013-06-24 05:07:00,
2013-06-24 00:08:00,71.4,65.6,28.70,ENE,68,0.0,0.0,82,0.00,,,0.00,0.00,VWS V14.01,2013-06-24 05:08:00,
2013-06-24 00:09:00,71.4,65.6,28.70,ENE,68,0.0,0.0,82,0.00,,,0.00,0.00,VWS V14.01,2013-06-24 05:09:00,
2013-06-24 00:10:00,71.4,65.6,28.70,ENE,68,0.0,0.0,82,0.00,,,0.00,0.00,VWS V14.01,2013-06-24 05:10:00,
2013-06-24 00:11:00,71.4,65.6,28.70,NE,45,0.9,0.9,82,0.00,,,0.00,0.00,VWS V14.01,2013-06-24 05:11:00,
2013-06-24 00:12:00,71.4,65.6,28.70,ENE,68,0.0,0.0,82,0.00,,,0.00,0.00,VWS V14.01,2013-06-24 05:12:00,
2013-06-24 00:13:00,71.4,65.6,28.70,NE,45,1.3,1.3,82,0.00,,,0.00,0.00,VWS V14.01,2013-06-24 05:13:00,
2013-06-24 00:14:00,71.4,65.6,28.70,NE,45,0.0,0.0,82,0.00,,,0.00,0.00,VWS V14.01,2013-06-24 05:14:00,
2013-06-24 00:15:00,71.4,65.6,28.70,NE,45,0.0,0.0,82,0.00,,,0.00,0.00,VWS V14.01,2013-06-24 05:15:00,
2013-06-24 00:16:00,71.2,65.5,28.70,NE,45,0.0,0.0,82,0.00,,,0.00,0.00,VWS V14.01,2013-06-24 05:16:00,
2013-06-24 00:17:00,71.2,65.5,28.70,NE,45,0.0,0.0,82,0.00,,,0.00,0.00,VWS V14.01,2013-06-24 05:17:00,
2013-06-24 00:18:00,71.2,65.5,28.70,NE,45,0.0,0.0,82,0.00,,,0.00,0.00,VWS V14.01,2013-06-24 05:18:00,
2013-06-24 00:19:00,71.2,65.5,28.70,NE,45,0.0,0.0,82,0.00,,,0.00,0.00,VWS V14.01,2013-06-24 05:19:00,
2013-06-24 00:20:00,71.2,65.5,28.70,NE,45,0.0,0.0,82,0.00,,,0.00,0.00,VWS V14.01,2013-06-24 05:20:00,
2013-06-24 00:21:00,71.2,65.5,28.73,NE,45,0.0,0.0,82,0.00,,,0.00,0.00,VWS V14.01,2013-06-24 05:21:00,
2013-06-24 00:22:00,71.2,65.5,28.73,NE,45,0.0,0.0,82,0.00,,,0.00,0.00,VWS V14.01,2013-06-24 05:22:00,
2013-06-24 00:23:00,71.2,65.5,28.73,NE,45,0.0,0.0,82,0.00,,,0.00,0.00,VWS V14.01,2013-06-24 05:23:00,
2013-06-24 00:24:00,71.2,65.5,28.73,NE,45,0.9,0.9,82,0.00,,,0.00,0.00,VWS V14.01,2013-06-24 05:24:00,
2013-06-24 00:25:00,71.2,65.8,28.73,NE,45,0.0,0.0,83,0.00,,,0.00,0.00,VWS V14.01,2013-06-24 05:25:00,
2013-06-24 00:26:00,71.1,65.6,28.73,NE,45,0.0,0.0,83,0.00,,,0.00,0.00,VWS V14.01,2013-06-24 05:26:00,
2013-06-24 00:27:00,71.2,65.8,28.73,NE,45,0.0,0.0,83,0.00,,,0.00,0.00,VWS V14.01,2013-06-24 05:27:00,
2013-06-24 00:28:00,71.1,65.6,28.73,NE,45,0.0,0.0,83,0.00,,,0.00,0.00,VWS V14.01,2013-06-24 05:28:00,
2013-06-24 00:29:00,71.1,65.6,28.73,NE,45,0.0,0.0,83,0.00,,,0.00,0.00,VWS V14.01,2013-06-24 05:29:00,
2013-06-24 00:30:00,71.1,65.6,28.73,NE,45,0.0,0.0,83,0.00,,,0.00,0.00,VWS V14.01,2013-06-24 05:30:00,
2013-06-24 00:31:00,71.1,65.6,28.73,NNE,22,1.6,1.6,83,0.00,,,0.00,0.00,VWS V14.01,2013-06-24 05:31:00,
2013-06-24 00:32:00,71.1,65.6,28.73,NE,45,0.0,0.0,83,0.00,,,0.00,0.00,VWS V14.01,2013-06-24 05:32:00,
2013-06-24 00:33:00,71.1,65.6,28.73,NE,45,0.0,0.0,83,0.00,,,0.00,0.00,VWS V14.01,2013-06-24 05:33:00,
2013-06-24 00:34:00,71.1,65.6,28.73,NNE,22,1.1,1.1,83,0.00,,,0.00,0.00,VWS V14.01,2013-06-24 05:34:00,
2013-06-24 00:35:00,71.1,65.6,28.73,NNE,22,0.0,0.0,83,0.00,,,0.00,0.00,VWS V14.01,2013-06-24 05:35:00,
2013-06-24 00:36:00,70.9,65.5,28.73,NNE,22,0.0,0.0,83,0.00,,,0.00,0.00,VWS V14.01,2013-06-24 05:36:00,
2013-06-24 00:37:00,70.9,65.5,28.73,NNE,22,0.0,0.0,83,0.00,,,0.00,0.00,VWS V14.01,2013-06-24 05:37:00,
2013-06-24 00:38:00,70.9,65.5,28.73,NNE,22,0.0,0.0,83,0.00,,,0.00,0.00,VWS V14.01,2013-06-24 05:38:00,
2013-06-24 00:39:00,70.9,65.5,28.73,NNE,22,0.0,0.0,83,0.00,,,0.00,0.00,VWS V14.01,2013-06-24 05:39:00,
2013-06-24 00:40:00,70.9,65.5,28.73,NNE,22,0.0,0.0,83,0.00,,,0.00,0.00,VWS V14.01,2013-06-24 05:40:00,
2013-06-24 00:41:00,70.7,65.6,28.73,NNE,22,0.0,0.0,84,0.00,,,0.00,0.00,VWS V14.01,2013-06-24 05:41:00,
2013-06-24 00:42:00,70.9,65.5,28.73,NNE,22,0.0,0.0,83,0.00,,,0.00,0.00,VWS V14.01,2013-06-24 05:42:00,
2013-06-24 00:43:00,70.9,65.8,28.73,NNE,22,0.0,0.0,84,0.00,,,0.00,0.00,VWS V14.01,2013-06-24 05:43:00,
2013-06-24 00:44:00,70.7,65.6,28.73,NNE,22,0.0,0.0,84,0.00,,,0.00,0.00,VWS V14.01,2013-06-24 05:44:00,
2013-06-24 00:45:00,70.7,65.6,28.73,NNE,22,0.0,0.0,84,0.00,,,0.00,0.00,VWS V14.01,2013-06-24 05:45:00,
2013-06-24 00:46:00,70.7,65.6,28.73,NNE,22,0.0,0.0,84,0.00,,,0.00,0.00,VWS V14.01,2013-06-24 05:46:00,
2013-06-24 00:47:00,70.7,65.6,28.73,NNE,22,0.0,0.0,84,0.00,,,0.00,0.00,VWS V14.01,2013-06-24 05:47:00,
2013-06-24 00:48:00,70.7,65.6,28.73,NNE,22,0.0,0.0,84,0.00,,,0.00,0.00,VWS V14.01,2013-06-24 05:48:00,
2013-06-24 00:49:00,70.7,65.6,28.73,NNE,22,0.0,0.0,84,0.00,,,0.00,0.00,VWS V14.01,2013-06-24 05:49:00,
2013-06-24 00:50:00,70.5,65.5,28.73,NNE,22,0.0,0.0,84,0.00,,,0.00,0.00,VWS V14.01,2013-06-24 05:50:00,
2013-06-24 00:51:00,70.5,65.5,28.73,North,0,1.1,1.1,84,0.00,,,0.00,0.00,VWS V14.01,2013-06-24 05:51:00,
2013-06-24 00:52:00,70.5,65.5,28.73,NNE,22,0.0,0.0,84,0.00,,,0.00,0.00,VWS V14.01,2013-06-24 05:52:00,
2013-06-24 00:53:00,70.5,65.5,28.73,North,0,0.9,0.9,84,0.00,,,0.00,0.00,VWS V14.01,2013-06-24 05:53:00,
2013-06-24 00:54:00,70.5,65.5,28.73,North,0,1.1,1.1,84,0.00,,,0.00,0.00,VWS V14.01,2013-06-24 05:54:00,
2013-06-24 00:55:00,70.5,65.5,28.73,North,0,0.0,0.0,84,0.00,,,0.00,0.00,VWS V14.01,2013-06-24 05:55:00,
2013-06-24 00:56:00,70.5,65.5,28.73,North,0,0.0,0.0,84,0.00,,,0.00,0.00,VWS V14.01,2013-06-24 05:56:00,
2013-06-24 00:57:00,70.5,65.5,28.73,North,0,0.0,0.0,84,0.00,,,0.00,0.00,VWS V14.01,2013-06-24 05:57:00,
2013-06-24 00:58:00,70.5,65.5,28.73,North,0,0.0,0.0,84,0.00,,,0.00,0.00,VWS V14.01,2013-06-24 05:58:00,
2013-06-24 00:59:00,70.5,65.5,28.73,North,0,0.0,0.0,84,0.00,,,0.00,0.00,VWS V14.01,2013-06-24 05:59:00,
2013-06-24 01:00:00,70.5,65.8,28.73,North,0,0.0,0.0,85,0.00,,,0.00,0.00,VWS V14.01,2013-06-24 06:00:00,
2013-06-24 01:01:00,70.5,65.8,28.73,North,0,0.0,0.0,85,0.00,,,0.00,0.00,VWS V14.01,2013-06-24 06:01:00,
2013-06-24 01:02:00,70.5,65.8,28.73,North,0,0.0,0.0,85,0.00,,,0.00,0.00,VWS V14.01,2013-06-24 06:02:00,
2013-06-24 01:03:00,70.5,65.8,28.73,North,0,0.0,0.0,85,0.00,,,0.00,0.00,VWS V14.01,2013-06-24 06:03:00,
2013-06-24 01:04:00,70.5,65.8,28.73,North,0,0.0,0.0,85,0.00,,,0.00,0.00,VWS V14.01,2013-06-24 06:04:00,
2013-06-24 01:05:00,70.5,65.8,28.73,North,0,0.0,0.0,85,0.00,,,0.00,0.00,VWS V14.01,2013-06-24 06:05:00,
2013-06-24 01:06:00,70.3,65.6,28.73,North,0,0.0,0.0,85,0.00,,,0.00,0.00,VWS V14.01,2013-06-24 06:06:00,
2013-06-24 01:07:00,70.3,65.6,28.73,North,0,0.0,0.0,85,0.00,,,0.00,0.00,VWS V14.01,2013-06-24 06:07:00,
2013-06-24 01:08:00,70.3,65.6,28.73,North,0,0.0,0.0,85,0.00,,,0.00,0.00,VWS V14.01,2013-06-24 06:08:00,
2013-06-24 01:09:00,70.3,65.6,28.73,North,0,0.0,0.0,85,0.00,,,0.00,0.00,VWS V14.01,2013-06-24 06:09:00,
2013-06-24 01:10:00,70.3,65.6,28.73,North,0,0.0,0.0,85,0.00,,,0.00,0.00,VWS V14.01,2013-06-24 06:10:00,
2013-06-24 01:11:00,70.2,65.8,28.73,North,0,0.0,0.0,86,0.00,,,0.00,0.00,VWS V14.01,2013-06-24 06:11:00,
2013-06-24 01:12:00,70.3,66.0,28.73,North,0,0.0,0.0,86,0.00,,,0.00,0.00,VWS V14.01,2013-06-24 06:12:00,
2013-06-24 01:13:00,70.2,65.8,28.73,North,0,0.0,0.0,86,0.00,,,0.00,0.00,VWS V14.01,2013-06-24 06:13:00,
2013-06-24 01:14:00,70.2,65.8,28.73,North,0,0.0,0.0,86,0.00,,,0.00,0.00,VWS V14.01,2013-06-24 06:14:00,
2013-06-24 01:15:00,70.2,65.8,28.73,North,0,0.0,0.0,86,0.00,,,0.00,0.00,VWS V14.01,2013-06-24 06:15:00,
2013-06-24 01:16:00,70.2,65.8,28.73,North,0,0.0,0.0,86,0.00,,,0.00,0.00,VWS V14.01,2013-06-24 06:16:00,
2013-06-24 01:17:00,70.2,65.8,28.73,North,0,0.0,0.0,86,0.00,,,0.00,0.00,VWS V14.01,2013-06-24 06:17:00,
2013-06-24 01:18:00,70.2,65.8,28.73,North,0,0.0,0.0,86,0.00,,,0.00,0.00,VWS V14.01,2013-06-24 06:18:00,
2013-06-24 01:19:00,70.2,65.8,28.73,North,0,0.0,0.0,86,0.00,,,0.00,0.00,VWS V14.01,2013-06-24 06:19:00,
2013-06-24 01:20:00,70.2,65.8,28.73,North,0,0.0,0.0,86,0.00,,,0.00,0.00,VWS V14.01,2013-06-24 06:20:00,
2013-06-24 01:21:00,70.0,65.6,28.70,North,0,0.0,0.0,86,0.00,,,0.00,0.00,VWS V14.01,2013-06-24 06:21:00,
2013-06-24 01:22:00,70.0,65.6,28.70,North,0,0.0,0.0,86,0.00,,,0.00,0.00,VWS V14.01,2013-06-24 06:22:00,
2013-06-24 01:23:00,70.0,65.6,28.70,North,0,0.0,0.0,86,0.00,,,0.00,0.00,VWS V14.01,2013-06-24 06:23:00,
2013-06-24 01:24:00,70.0,65.6,28.70,North,0,0.0,0.0,86,0.00,,,0.00,0.00,VWS V14.01,2013-06-24 06:24:00,
2013-06-24 01:25:00,70.0,65.6,28.70,North,0,0.0,0.0,86,0.00,,,0.00,0.00,VWS V14.01,2013-06-24 06:25:00,
2013-06-24 01:26:00,69.8,65.4,28.70,North,0,0.0,0.0,86,0.00,,,0.00,0.00,VWS V14.01,2013-06-24 06:26:00,
2013-06-24 01:27:00,70.0,65.6,28.70,North,0,0.0,0.0,86,0.00,,,0.00,0.00,VWS V14.01,2013-06-24 06:27:00,
2013-06-24 01:28:00,70.0,65.6,28.70,North,0,0.0,0.0,86,0.00,,,0.00,0.00,VWS V14.01,2013-06-24 06:28:00,
2013-06-24 01:29:00,69.8,65.4,28.70,North,0,0.0,0.0,86,0.00,,,0.00,0.00,VWS V14.01,2013-06-24 06:29:00,
2013-06-24 01:30:00,69.8,65.4,28.70,North,0,0.0,0.0,86,0.00,,,0.00,0.00,VWS V14.01,2013-06-24 06:30:00,
2013-06-24 01:31:00,69.8,65.8,28.70,North,0,0.0,0.0,87,0.00,,,0.00,0.00,VWS V14.01,2013-06-24 06:31:00,
2013-06-24 01:32:00,69.8,65.4,28.70,North,0,0.0,0.0,86,0.00,,,0.00,0.00,VWS V14.01,2013-06-24 06:32:00,
2013-06-24 01:33:00,69.8,65.8,28.70,North,0,0.0,0.0,87,0.00,,,0.00,0.00,VWS V14.01,2013-06-24 06:33:00,
2013-06-24 01:34:00,69.8,65.8,28.70,North,0,0.0,0.0,87,0.00,,,0.00,0.00,VWS V14.01,2013-06-24 06:34:00,
2013-06-24 01:35:00,69.8,65.8,28.70,North,0,0.0,0.0,87,0.00,,,0.00,0.00,VWS V14.01,2013-06-24 06:35:00,
2013-06-24 01:36:00,69.6,65.6,28.70,North,0,0.0,0.0,87,0.00,,,0.00,0.00,VWS V14.01,2013-06-24 06:36:00,
2013-06-24 01:37:00,69.6,65.6,28.70,North,0,0.0,0.0,87,0.00,,,0.00,0.00,VWS V14.01,2013-06-24 06:37:00,
2013-06-24 01:38:00,69.6,65.6,28.70,North,0,0.0,0.0,87,0.00,,,0.00,0.00,VWS V14.01,2013-06-24 06:38:00,
2013-06-24 01:39:00,69.6,65.6,28.70,North,0,0.0,0.0,87,0.00,,,0.00,0.00,VWS V14.01,2013-06-24 06:39:00,
2013-06-24 01:40:00,69.6,65.6,28.70,North,0,0.0,0.0,87,0.00,,,0.00,0.00,VWS V14.01,2013-06-24 06:40:00,
2013-06-24 01:41:00,69.4,65.7,28.70,North,0,0.0,0.0,88,0.00,,,0.00,0.00,VWS V14.01,2013-06-24 06:41:00,
2013-06-24 01:42:00,69.6,65.6,28.70,North,0,0.0,0.0,87,0.00,,,0.00,0.00,VWS V14.01,2013-06-24 06:42:00,
2013-06-24 01:43:00,69.4,65.4,28.70,North,0,0.0,0.0,87,0.00,,,0.00,0.00,VWS V14.01,2013-06-24 06:43:00,
2013-06-24 01:44:00,69.4,65.7,28.70,North,0,0.0,0.0,88,0.00,,,0.00,0.00,VWS V14.01,2013-06-24 06:44:00,
2013-06-24 01:45:00,69.4,65.7,28.70,North,0,0.0,0.0,88,0.00,,,0.00,0.00,VWS V14.01,2013-06-24 06:45:00,
2013-06-24 01:46:00,69.3,65.6,28.70,North,0,0.0,0.0,88,0.00,,,0.00,0.00,VWS V14.01,2013-06-24 06:46:00,
2013-06-24 01:47:00,69.4,65.7,28.70,North,0,0.0,0.0,88,0.00,,,0.00,0.00,VWS V14.01,2013-06-24 06:47:00,
2013-06-24 01:48:00,69.4,65.7,28.70,North,0,0.0,0.0,88,0.00,,,0.00,0.00,VWS V14.01,2013-06-24 06:48:00,
2013-06-24 01:49:00,69.3,65.6,28.70,North,0,0.0,0.0,88,0.00,,,0.00,0.00,VWS V14.01,2013-06-24 06:49:00,
2013-06-24 01:50:00,69.3,65.6,28.70,North,0,0.0,0.0,88,0.00,,,0.00,0.00,VWS V14.01,2013-06-24 06:50:00,
2013-06-24 01:51:00,69.1,65.4,28.70,North,0,0.0,0.0,88,0.00,,,0.00,0.00,VWS V14.01,2013-06-24 06:51:00,
2013-06-24 01:52:00,69.3,65.6,28.70,North,0,0.0,0.0,88,0.00,,,0.00,0.00,VWS V14.01,2013-06-24 06:52:00,
2013-06-24 01:53:00,69.3,65.6,28.70,North,0,0.0,0.0,88,0.00,,,0.00,0.00,VWS V14.01,2013-06-24 06:53:00,
2013-06-24 01:54:00,69.1,65.4,28.70,North,0,0.0,0.0,88,0.00,,,0.00,0.00,VWS V14.01,2013-06-24 06:54:00,
2013-06-24 01:55:00,69.1,65.4,28.70,North,0,0.0,0.0,88,0.00,,,0.00,0.00,VWS V14.01,2013-06-24 06:55:00,
2013-06-24 01:56:00,69.1,65.4,28.70,North,0,0.0,0.0,88,0.00,,,0.00,0.00,VWS V14.01,2013-06-24 06:56:00,
2013-06-24 01:57:00,69.1,65.4,28.70,North,0,0.0,0.0,88,0.00,,,0.00,0.00,VWS V14.01,2013-06-24 06:57:00,
2013-06-24 01:58:00,69.1,65.4,28.70,North,0,0.0,0.0,88,0.00,,,0.00,0.00,VWS V14.01,2013-06-24 06:58:00,
2013-06-24 01:59:00,69.1,65.4,28.70,North,0,0.0,0.0,88,0.00,,,0.00,0.00,VWS V14.01,2013-06-24 06:59:00,
2013-06-24 02:00:00,69.1,65.4,28.70,North,0,0.0,0.0,88,0.00,,,0.00,0.00,VWS V14.01,2013-06-24 07:00:00,
2013-06-24 02:01:00,68.9,65.2,28.70,North,0,0.0,0.0,88,0.00,,,0.00,0.00,VWS V14.01,2013-06-24 07:01:00,
2013-06-24 02:02:00,69.1,65.4,28.70,North,0,0.0,0.0,88,0.00,,,0.00,0.00,VWS V14.01,2013-06-24 07:02:00,
2013-06-24 02:03:00,68.9,65.2,28.70,North,0,0.0,0.0,88,0.00,,,0.00,0.00,VWS V14.01,2013-06-24 07:03:00,
2013-06-24 02:04:00,68.9,65.2,28.70,North,0,0.0,0.0,88,0.00,,,0.00,0.00,VWS V14.01,2013-06-24 07:04:00,
2013-06-24 02:05:00,68.9,65.2,28.70,North,0,0.0,0.0,88,0.00,,,0.00,0.00,VWS V14.01,2013-06-24 07:05:00,
2013-06-24 02:06:00,68.9,65.5,28.67,North,0,0.0,0.0,89,0.00,,,0.00,0.00,VWS V14.01,2013-06-24 07:06:00,
2013-06-24 02:07:00,68.9,65.5,28.67,North,0,0.0,0.0,89,0.00,,,0.00,0.00,VWS V14.01,2013-06-24 07:07:00,
2013-06-24 02:08:00,68.9,65.5,28.67,North,0,0.0,0.0,89,0.00,,,0.00,0.00,VWS V14.01,2013-06-24 07:08:00,
2013-06-24 02:09:00,68.9,65.5,28.67,North,0,0.0,0.0,89,0.00,,,0.00,0.00,VWS V14.01,2013-06-24 07:09:00,
2013-06-24 02:10:00,68.9,65.5,28.67,North,0,0.0,0.0,89,0.00,,,0.00,0.00,VWS V14.01,2013-06-24 07:10:00,
2013-06-24 02:11:00,68.9,65.5,28.67,North,0,0.0,0.0,89,0.00,,,0.00,0.00,VWS V14.01,2013-06-24 07:11:00,
2013-06-24 02:12:00,68.9,65.5,28.67,North,0,0.0,0.0,89,0.00,,,0.00,0.00,VWS V14.01,2013-06-24 07:12:00,
2013-06-24 02:13:00,68.9,65.5,28.67,North,0,0.0,0.0,89,0.00,,,0.00,0.00,VWS V14.01,2013-06-24 07:13:00,
2013-06-24 02:14:00,68.9,65.5,28.67,North,0,0.0,0.0,89,0.00,,,0.00,0.00,VWS V14.01,2013-06-24 07:14:00,
2013-06-24 02:15:00,68.9,65.5,28.67,North,0,0.0,0.0,89,0.00,,,0.00,0.00,VWS V14.01,2013-06-24 07:15:00,
2013-06-24 02:16:00,68.7,65.3,28.67,North,0,0.0,0.0,89,0.00,,,0.00,0.00,VWS V14.01,2013-06-24 07:16:00,
2013-06-24 02:17:00,68.7,65.3,28.67,North,0,0.0,0.0,89,0.00,,,0.00,0.00,VWS V14.01,2013-06-24 07:17:00,
2013-06-24 02:18:00,68.7,65.3,28.67,North,0,0.0,0.0,89,0.00,,,0.00,0.00,VWS V14.01,2013-06-24 07:18:00,
2013-06-24 02:19:00,68.7,65.3,28.67,North,0,0.0,0.0,89,0.00,,,0.00,0.00,VWS V14.01,2013-06-24 07:19:00,
2013-06-24 02:20:00,68.7,65.3,28.67,North,0,0.0,0.0,89,0.00,,,0.00,0.00,VWS V14.01,2013-06-24 07:20:00,
2013-06-24 02:21:00,68.7,65.3,28.67,North,0,0.0,0.0,89,0.00,,,0.00,0.00,VWS V14.01,2013-06-24 07:21:00,
2013-06-24 02:22:00,68.7,65.3,28.70,North,0,0.0,0.0,89,0.00,,,0.00,0.00,VWS V14.01,2013-06-24 07:22:00,
2013-06-24 02:23:00,68.7,65.3,28.70,North,0,0.0,0.0,89,0.00,,,0.00,0.00,VWS V14.01,2013-06-24 07:23:00,
2013-06-24 02:24:00,68.7,65.3,28.70,North,0,0.0,0.0,89,0.00,,,0.00,0.00,VWS V14.01,2013-06-24 07:24:00,
2013-06-24 02:25:00,68.7,65.3,28.70,North,0,0.0,0.0,89,0.00,,,0.00,0.00,VWS V14.01,2013-06-24 07:25:00,
2013-06-24 02:26:00,68.7,65.3,28.70,North,0,0.0,0.0,89,0.00,,,0.00,0.00,VWS V14.01,2013-06-24 07:26:00,
2013-06-24 02:27:00,68.5,65.2,28.70,North,0,0.0,0.0,89,0.00,,,0.00,0.00,VWS V14.01,2013-06-24 07:27:00,
2013-06-24 02:28:00,68.5,65.2,28.70,North,0,0.0,0.0,89,0.00,,,0.00,0.00,VWS V14.01,2013-06-24 07:28:00,
2013-06-24 02:29:00,68.5,65.2,28.70,North,0,0.0,0.0,89,0.00,,,0.00,0.00,VWS V14.01,2013-06-24 07:29:00,
2013-06-24 02:30:00,68.5,65.2,28.70,North,0,0.0,0.0,89,0.00,,,0.00,0.00,VWS V14.01,2013-06-24 07:30:00,
2013-06-24 02:31:00,68.5,65.2,28.70,North,0,0.0,0.0,89,0.00,,,0.00,0.00,VWS V14.01,2013-06-24 07:31:00,
2013-06-24 02:32:00,68.5,65.2,28.70,North,0,0.0,0.0,89,0.00,,,0.00,0.00,VWS V14.01,2013-06-24 07:32:00,
2013-06-24 02:33:00,68.5,65.2,28.70,North,0,0.0,0.0,89,0.00,,,0.00,0.00,VWS V14.01,2013-06-24 07:33:00,
2013-06-24 02:34:00,68.5,65.2,28.70,North,0,0.0,0.0,89,0.00,,,0.00,0.00,VWS V14.01,2013-06-24 07:34:00,
2013-06-24 02:35:00,68.5,65.2,28.70,North,0,0.0,0.0,89,0.00,,,0.00,0.00,VWS V14.01,2013-06-24 07:35:00,
2013-06-24 02:36:00,68.5,65.2,28.70,North,0,0.0,0.0,89,0.00,,,0.00,0.00,VWS V14.01,2013-06-24 07:36:00,
2013-06-24 02:37:00,68.5,65.2,28.70,North,0,0.0,0.0,89,0.00,,,0.00,0.00,VWS V14.01,2013-06-24 07:37:00,
2013-06-24 02:38:00,68.5,65.2,28.70,North,0,0.0,0.0,89,0.00,,,0.00,0.00,VWS V14.01,2013-06-24 07:38:00,
2013-06-24 02:39:00,68.5,65.2,28.70,North,0,0.0,0.0,89,0.00,,,0.00,0.00,VWS V14.01,2013-06-24 07:39:00,
2013-06-24 02:40:00,68.5,65.2,28.70,North,0,0.0,0.0,89,0.00,,,0.00,0.00,VWS V14.01,2013-06-24 07:40:00,
2013-06-24 02:41:00,68.5,65.2,28.70,North,0,0.0,0.0,89,0.00,,,0.00,0.00,VWS V14.01,2013-06-24 07:41:00,
2013-06-24 02:42:00,68.5,65.2,28.70,North,0,0.0,0.0,89,0.00,,,0.00,0.00,VWS V14.01,2013-06-24 07:42:00,
2013-06-24 02:43:00,68.5,65.2,28.70,North,0,0.0,0.0,89,0.00,,,0.00,0.00,VWS V14.01,2013-06-24 07:43:00,
2013-06-24 02:44:00,68.5,65.2,28.70,North,0,0.0,0.0,89,0.00,,,0.00,0.00,VWS V14.01,2013-06-24 07:44:00,
2013-06-24 02:45:00,68.5,65.2,28.70,North,0,0.0,0.0,89,0.00,,,0.00,0.00,VWS V14.01,2013-06-24 07:45:00,
2013-06-24 02:46:00,68.5,65.5,28.70,North,0,0.0,0.0,90,0.00,,,0.00,0.00,VWS V14.01,2013-06-24 07:46:00,
2013-06-24 02:47:00,68.5,65.5,28.70,North,0,0.0,0.0,90,0.00,,,0.00,0.00,VWS V14.01,2013-06-24 07:47:00,
2013-06-24 02:48:00,68.5,65.5,28.70,North,0,0.0,0.0,90,0.00,,,0.00,0.00,VWS V14.01,2013-06-24 07:48:00,
2013-06-24 02:49:00,68.5,65.5,28.70,North,0,0.0,0.0,90,0.00,,,0.00,0.00,VWS V14.01,2013-06-24 07:49:00,
2013-06-24 02:50:00,68.5,65.5,28.70,North,0,0.0,0.0,90,0.00,,,0.00,0.00,VWS V14.01,2013-06-24 07:50:00,
2013-06-24 02:51:00,68.5,65.5,28.70,North,0,0.0,0.0,90,0.00,,,0.00,0.00,VWS V14.01,2013-06-24 07:51:00,
2013-06-24 02:52:00,68.5,65.5,28.70,North,0,0.0,0.0,90,0.00,,,0.00,0.00,VWS V14.01,2013-06-24 07:52:00,
2013-06-24 02:53:00,68.5,65.5,28.70,North,0,0.0,0.0,90,0.00,,,0.00,0.00,VWS V14.01,2013-06-24 07:53:00,
2013-06-24 02:54:00,68.5,65.5,28.70,North,0,0.0,0.0,90,0.00,,,0.00,0.00,VWS V14.01,2013-06-24 07:54:00,
2013-06-24 02:55:00,68.5,65.5,28.70,North,0,0.0,0.0,90,0.00,,,0.00,0.00,VWS V14.01,2013-06-24 07:55:00,
2013-06-24 02:56:00,68.5,65.5,28.70,North,0,0.0,0.0,90,0.00,,,0.00,0.00,VWS V14.01,2013-06-24 07:56:00,
2013-06-24 02:57:00,68.7,65.7,28.70,NE,45,0.0,0.0,90,0.00,,,0.00,0.00,VWS V14.01,2013-06-24 07:57:00,
2013-06-24 02:58:00,68.5,65.5,28.70,NE,45,0.9,0.9,90,0.00,,,0.00,0.00,VWS V14.01,2013-06-24 07:58:00,
2013-06-24 02:59:00,68.7,65.7,28.70,NE,45,0.0,0.0,90,0.00,,,0.00,0.00,VWS V14.01,2013-06-24 07:59:00,
2013-06-24 03:00:00,68.7,65.7,28.70,NE,45,0.0,0.0,90,0.00,,,0.00,0.00,VWS V14.01,2013-06-24 08:00:00,
2013-06-24 03:01:00,68.9,65.8,28.70,NE,45,0.0,0.0,90,0.00,,,0.00,0.00,VWS V14.01,2013-06-24 08:01:00,
2013-06-24 03:02:00,69.1,66.0,28.70,NE,45,0.0,0.0,90,0.00,,,0.00,0.00,VWS V14.01,2013-06-24 08:02:00,
2013-06-24 03:03:00,68.9,65.8,28.70,NE,45,0.0,0.0,90,0.00,,,0.00,0.00,VWS V14.01,2013-06-24 08:03:00,
2013-06-24 03:04:00,69.1,66.0,28.70,NE,45,0.0,0.0,90,0.00,,,0.00,0.00,VWS V14.01,2013-06-24 08:04:00,
2013-06-24 03:05:00,69.1,66.0,28.70,NE,45,0.0,0.0,90,0.00,,,0.00,0.00,VWS V14.01,2013-06-24 08:05:00,
2013-06-24 03:06:00,68.9,65.8,28.70,NE,45,0.0,0.0,90,0.00,,,0.00,0.00,VWS V14.01,2013-06-24 08:06:00,
2013-06-24 03:07:00,69.1,66.3,28.70,ENE,68,0.0,0.0,91,0.00,,,0.00,0.00,VWS V14.01,2013-06-24 08:07:00,
2013-06-24 03:08:00,68.9,65.8,28.70,ENE,68,1.3,1.3,90,0.00,,,0.00,0.00,VWS V14.01,2013-06-24 08:08:00,
2013-06-24 03:09:00,69.1,66.0,28.70,ENE,68,0.0,0.0,90,0.00,,,0.00,0.00,VWS V14.01,2013-06-24 08:09:00,
2013-06-24 03:10:00,69.1,66.3,28.70,ENE,68,0.0,0.0,91,0.00,,,0.00,0.00,VWS V14.01,2013-06-24 08:10:00,
2013-06-24 03:11:00,69.1,66.3,28.70,ENE,68,1.6,1.6,91,0.00,,,0.00,0.00,VWS V14.01,2013-06-24 08:11:00,
2013-06-24 03:12:00,69.3,66.5,28.70,ENE,68,1.6,1.6,91,0.00,,,0.00,0.00,VWS V14.01,2013-06-24 08:12:00,
2013-06-24 03:13:00,69.1,66.3,28.70,ENE,68,0.0,0.0,91,0.00,,,0.00,0.00,VWS V14.01,2013-06-24 08:13:00,
2013-06-24 03:14:00,69.3,66.5,28.70,ENE,68,0.9,0.9,91,0.00,,,0.00,0.00,VWS V14.01,2013-06-24 08:14:00,
2013-06-24 03:15:00,69.3,66.5,28.70,ENE,68,1.6,1.6,91,0.00,,,0.00,0.00,VWS V14.01,2013-06-24 08:15:00,
2013-06-24 03:16:00,69.3,66.5,28.70,ENE,68,0.9,0.9,91,0.00,,,0.00,0.00,VWS V14.01,2013-06-24 08:16:00,
2013-06-24 03:17:00,69.3,66.2,28.70,NNE,22,0.0,0.0,90,0.00,,,0.00,0.00,VWS V14.01,2013-06-24 08:17:00,
2013-06-24 03:18:00,69.3,66.5,28.70,West,270,1.1,1.1,91,0.00,,,0.00,0.00,VWS V14.01,2013-06-24 08:18:00,
2013-06-24 03:19:00,69.3,66.5,28.70,North,0,0.9,0.9,91,0.00,,,0.00,0.00,VWS V14.01,2013-06-24 08:19:00,
2013-06-24 03:20:00,69.3,66.2,28.70,NNE,22,0.0,0.0,90,0.00,,,0.00,0.00,VWS V14.01,2013-06-24 08:20:00,
2013-06-24 03:21:00,69.3,66.5,28.70,NNE,22,0.0,0.0,91,0.00,,,0.00,0.00,VWS V14.01,2013-06-24 08:21:00,
2013-06-24 03:22:00,69.3,66.5,28.70,NE,45,0.0,0.0,91,0.00,,,0.00,0.00,VWS V14.01,2013-06-24 08:22:00,
2013-06-24 03:23:00,69.3,66.5,28.70,NNE,22,0.0,0.0,91,0.00,,,0.00,0.00,VWS V14.01,2013-06-24 08:23:00,
2013-06-24 03:24:00,69.3,66.5,28.70,NNE,22,0.0,0.0,91,0.00,,,0.00,0.00,VWS V14.01,2013-06-24 08:24:00,
2013-06-24 03:25:00,69.3,66.5,28.70,NE,45,0.0,0.0,91,0.00,,,0.00,0.00,VWS V14.01,2013-06-24 08:25:00,
2013-06-24 03:26:00,69.4,66.7,28.70,NE,45,0.0,0.0,91,0.00,,,0.00,0.00,VWS V14.01,2013-06-24 08:26:00,
2013-06-24 03:27:00,69.4,66.7,28.70,NE,45,0.0,0.0,91,0.00,,,0.00,0.00,VWS V14.01,2013-06-24 08:27:00,
2013-06-24 03:28:00,69.4,66.7,28.70,NE,45,0.0,0.0,91,0.00,,,0.00,0.00,VWS V14.01,2013-06-24 08:28:00,
2013-06-24 03:29:00,69.4,66.7,28.70,NE,45,0.0,0.0,91,0.00,,,0.00,0.00,VWS V14.01,2013-06-24 08:29:00,
2013-06-24 03:30:00,69.4,66.7,28.70,NE,45,0.0,0.0,91,0.00,,,0.00,0.00,VWS V14.01,2013-06-24 08:30:00,
2013-06-24 03:31:00,69.4,66.7,28.70,NE,45,0.0,0.0,91,0.00,,,0.00,0.00,VWS V14.01,2013-06-24 08:31:00,
2013-06-24 03:32:00,69.4,66.7,28.70,NE,45,0.0,0.0,91,0.00,,,0.00,0.00,VWS V14.01,2013-06-24 08:32:00,
2013-06-24 03:33:00,69.6,66.9,28.70,ESE,112,1.1,1.1,91,0.00,,,0.00,0.00,VWS V14.01,2013-06-24 08:33:00,
2013-06-24 03:34:00,69.6,66.9,28.70,ESE,112,0.0,0.0,91,0.00,,,0.00,0.00,VWS V14.01,2013-06-24 08:34:00,
2013-06-24 03:35:00,69.6,66.9,28.70,ESE,112,0.0,0.0,91,0.00,,,0.00,0.00,VWS V14.01,2013-06-24 08:35:00,
2013-06-24 03:36:00,69.6,66.9,28.70,ESE,112,0.0,0.0,91,0.00,,,0.00,0.00,VWS V14.01,2013-06-24 08:36:00,
2013-06-24 03:37:00,69.6,66.9,28.70,ESE,112,0.0,0.0,91,0.00,,,0.00,0.00,VWS V14.01,2013-06-24 08:37:00,
2013-06-24 03:38:00,69.6,66.9,28.70,ESE,112,0.0,0.0,91,0.00,,,0.00,0.00,VWS V14.01,2013-06-24 08:38:00,
2013-06-24 03:39:00,69.8,67.1,28.70,East,90,0.0,0.0,91,0.00,,,0.00,0.00,VWS V14.01,2013-06-24 08:39:00,
2013-06-24 03:40:00,69.8,67.1,28.70,East,90,2.2,2.2,91,0.00,,,0.00,0.00,VWS V14.01,2013-06-24 08:40:00,
2013-06-24 03:41:00,69.8,67.1,28.70,East,90,1.3,1.3,91,0.00,,,0.00,0.00,VWS V14.01,2013-06-24 08:41:00,
2013-06-24 03:42:00,69.8,67.1,28.70,ESE,112,2.0,2.0,91,0.00,,,0.00,0.00,VWS V14.01,2013-06-24 08:42:00,
2013-06-24 03:43:00,69.8,67.1,28.70,ESE,112,1.1,1.1,91,0.00,,,0.00,0.00,VWS V14.01,2013-06-24 08:43:00,
2013-06-24 03:44:00,70.0,67.2,28.70,ESE,112,0.0,0.0,91,0.00,,,0.00,0.00,VWS V14.01,2013-06-24 08:44:00,
2013-06-24 03:45:00,70.0,67.2,28.70,ESE,112,0.0,0.0,91,0.00,,,0.00,0.00,VWS V14.01,2013-06-24 08:45:00,
2013-06-24 03:46:00,70.0,67.2,28.70,ESE,112,0.0,0.0,91,0.00,,,0.00,0.00,VWS V14.01,2013-06-24 08:46:00,
2013-06-24 03:47:00,70.0,67.2,28.70,ESE,112,0.0,0.0,91,0.00,,,0.00,0.00,VWS V14.01,2013-06-24 08:47:00,
2013-06-24 03:48:00,70.0,67.2,28.70,NE,45,0.0,0.0,91,0.00,,,0.00,0.00,VWS V14.01,2013-06-24 08:48:00,
2013-06-24 03:49:00,70.0,67.2,28.67,NNE,22,0.0,0.0,91,0.00,,,0.00,0.00,VWS V14.01,2013-06-24 08:49:00,
2013-06-24 03:50:00,70.0,67.2,28.70,ENE,68,1.1,1.1,91,0.00,,,0.00,0.00,VWS V14.01,2013-06-24 08:50:00,
2013-06-24 03:51:00,70.0,67.2,28.70,North,0,1.1,1.1,91,0.00,,,0.00,0.00,VWS V14.01,2013-06-24 08:51:00,
2013-06-24 03:52:00,70.0,67.2,28.67,NNE,22,1.1,1.1,91,0.00,,,0.00,0.00,VWS V14.01,2013-06-24 08:52:00,
2013-06-24 03:53:00,70.0,67.2,28.67,North,0,2.2,2.2,91,0.00,,,0.00,0.00,VWS V14.01,2013-06-24 08:53:00,
2013-06-24 03:54:00,70.0,67.6,28.67,East,90,1.3,1.3,92,0.00,,,0.00,0.00,VWS V14.01,2013-06-24 08:54:00,
2013-06-24 03:55:00,70.0,67.6,28.67,NNW,338,0.0,0.0,92,0.00,,,0.00,0.00,VWS V14.01,2013-06-24 08:55:00,
2013-06-24 03:56:00,70.0,67.6,28.67,NNW,338,0.0,0.0,92,0.00,,,0.00,0.00,VWS V14.01,2013-06-24 08:56:00,
2013-06-24 03:57:00,70.0,67.6,28.67,East,90,1.3,1.3,92,0.00,,,0.00,0.00,VWS V14.01,2013-06-24 08:57:00,
2013-06-24 03:58:00,70.0,67.6,28.67,East,90,0.0,0.0,92,0.00,,,0.00,0.00,VWS V14.01,2013-06-24 08:58:00,
2013-06-24 03:59:00,70.2,67.7,28.67,East,90,0.0,0.0,92,0.00,,,0.00,0.00,VWS V14.01,2013-06-24 08:59:00,
2013-06-24 04:00:00,70.2,67.7,28.67,East,90,0.0,0.0,92,0.00,,,0.00,0.00,VWS V14.01,2013-06-24 09:00:00,
2013-06-24 04:01:00,70.2,67.7,28.67,East,90,0.0,0.0,92,0.00,,,0.00,0.00,VWS V14.01,2013-06-24 09:01:00,
2013-06-24 04:02:00,70.2,67.7,28.67,East,90,0.0,0.0,92,0.00,,,0.00,0.00,VWS V14.01,2013-06-24 09:02:00,
2013-06-24 04:03:00,70.2,67.7,28.67,NE,45,0.0,0.0,92,0.00,,,0.00,0.00,VWS V14.01,2013-06-24 09:03:00,
2013-06-24 04:04:00,70.2,67.7,28.70,NE,45,0.0,0.0,92,0.00,,,0.00,0.00,VWS V14.01,2013-06-24 09:04:00,
2013-06-24 04:05:00,70.2,67.7,28.67,ENE,68,1.1,1.1,92,0.00,,,0.00,0.00,VWS V14.01,2013-06-24 09:05:00,
2013-06-24 04:06:00,70.2,67.7,28.67,ENE,68,0.0,0.0,92,0.00,,,0.00,0.00,VWS V14.01,2013-06-24 09:06:00,
2013-06-24 04:07:00,70.2,67.7,28.70,NE,45,0.0,0.0,92,0.00,,,0.00,0.00,VWS V14.01,2013-06-24 09:07:00,
2013-06-24 04:08:00,70.2,67.7,28.70,NE,45,1.1,1.1,92,0.00,,,0.00,0.00,VWS V14.01,2013-06-24 09:08:00,
2013-06-24 04:09:00,70.3,67.9,28.70,East,90,1.1,1.1,92,0.00,,,0.00,0.00,VWS V14.01,2013-06-24 09:09:00,
2013-06-24 04:10:00,70.2,67.7,28.70,East,90,2.7,2.7,92,0.00,,,0.00,0.00,VWS V14.01,2013-06-24 09:10:00,
2013-06-24 04:11:00,70.3,67.9,28.70,East,90,2.0,2.0,92,0.00,,,0.00,0.00,VWS V14.01,2013-06-24 09:11:00,
2013-06-24 04:12:00,70.3,67.9,28.70,East,90,1.1,1.1,92,0.00,,,0.00,0.00,VWS V14.01,2013-06-24 09:12:00,
2013-06-24 04:13:00,70.3,67.9,28.70,East,90,1.1,1.1,92,0.00,,,0.00,0.00,VWS V14.01,2013-06-24 09:13:00,
2013-06-24 04:14:00,70.3,67.9,28.70,NE,45,1.3,1.3,92,0.00,,,0.00,0.00,VWS V14.01,2013-06-24 09:14:00,
2013-06-24 04:15:00,70.3,67.9,28.70,East,90,2.2,2.2,92,0.00,,,0.00,0.00,VWS V14.01,2013-06-24 09:15:00,
2013-06-24 04:16:00,70.3,67.9,28.70,North,0,0.0,0.0,92,0.00,,,0.00,0.00,VWS V14.01,2013-06-24 09:16:00,
2013-06-24 04:17:00,70.3,67.9,28.70,NE,45,1.3,1.3,92,0.00,,,0.00,0.00,VWS V14.01,2013-06-24 09:17:00,
2013-06-24 04:18:00,70.3,67.9,28.70,ENE,68,1.6,1.6,92,0.00,,,0.00,0.00,VWS V14.01,2013-06-24 09:18:00,
2013-06-24 04:19:00,70.3,68.2,28.70,ENE,68,0.0,0.0,93,0.00,,,0.00,0.00,VWS V14.01,2013-06-24 09:19:00,
2013-06-24 04:20:00,70.3,68.2,28.70,ENE,68,0.0,0.0,93,0.00,,,0.00,0.00,VWS V14.01,2013-06-24 09:20:00,
2013-06-24 04:21:00,70.3,68.2,28.70,ENE,68,0.0,0.0,93,0.00,,,0.00,0.00,VWS V14.01,2013-06-24 09:21:00,
2013-06-24 04:22:00,70.3,68.2,28.70,ENE,68,0.0,0.0,93,0.00,,,0.00,0.00,VWS V14.01,2013-06-24 09:22:00,
2013-06-24 04:23:00,70.3,68.2,28.70,ENE,68,0.0,0.0,93,0.00,,,0.00,0.00,VWS V14.01,2013-06-24 09:23:00,
2013-06-24 04:24:00,70.3,68.2,28.70,NE,45,0.0,0.0,93,0.00,,,0.00,0.00,VWS V14.01,2013-06-24 09:24:00,
2013-06-24 04:25:00,70.3,68.2,28.70,ENE,68,0.0,0.0,93,0.00,,,0.00,0.00,VWS V14.01,2013-06-24 09:25:00,
2013-06-24 04:26:00,70.3,68.2,28.70,NE,45,1.1,1.1,93,0.00,,,0.00,0.00,VWS V14.01,2013-06-24 09:26:00,
2013-06-24 04:27:00,70.3,68.2,28.70,NE,45,0.0,0.0,93,0.00,,,0.00,0.00,VWS V14.01,2013-06-24 09:27:00,
2013-06-24 04:28:00,70.3,68.2,28.70,NE,45,0.0,0.0,93,0.00,,,0.00,0.00,VWS V14.01,2013-06-24 09:28:00,
2013-06-24 04:29:00,70.3,68.2,28.70,NE,45,1.1,1.1,93,0.00,,,0.00,0.00,VWS V14.01,2013-06-24 09:29:00,
2013-06-24 04:30:00,70.3,68.2,28.70,North,0,1.3,1.3,93,0.00,,,0.00,0.00,VWS V14.01,2013-06-24 09:30:00,
2013-06-24 04:31:00,70.3,68.2,28.70,NE,45,0.0,0.0,93,0.00,,,0.00,0.00,VWS V14.01,2013-06-24 09:31:00,
2013-06-24 04:32:00,70.3,68.2,28.70,NE,45,1.1,1.1,93,0.00,,,0.00,0.00,VWS V14.01,2013-06-24 09:32:00,
2013-06-24 04:33:00,70.3,68.2,28.70,NE,45,0.0,0.0,93,0.00,,,0.00,0.00,VWS V14.01,2013-06-24 09:33:00,
2013-06-24 04:34:00,70.5,68.4,28.70,East,90,0.0,0.0,93,0.00,,,0.00,0.00,VWS V14.01,2013-06-24 09:34:00,
2013-06-24 04:35:00,70.3,68.2,28.70,East,90,1.6,1.6,93,0.00,,,0.00,0.00,VWS V14.01,2013-06-24 09:35:00,
2013-06-24 04:36:00,70.5,68.4,28.70,East,90,0.0,0.0,93,0.00,,,0.00,0.00,VWS V14.01,2013-06-24 09:36:00,
2013-06-24 04:37:00,70.5,68.4,28.70,East,90,0.0,0.0,93,0.00,,,0.00,0.00,VWS V14.01,2013-06-24 09:37:00,
2013-06-24 04:38:00,70.5,68.4,28.70,East,90,0.0,0.0,93,0.00,,,0.00,0.00,VWS V14.01,2013-06-24 09:38:00,
2013-06-24 04:39:00,70.5,68.4,28.70,North,0,0.0,0.0,93,0.00,,,0.00,0.00,VWS V14.01,2013-06-24 09:39:00,
2013-06-24 04:40:00,70.5,68.4,28.70,ENE,68,1.1,1.1,93,0.00,,,0.00,0.00,VWS V14.01,2013-06-24 09:40:00,
2013-06-24 04:41:00,70.5,68.4,28.70,North,0,0.9,0.9,93,0.00,,,0.00,0.00,VWS V14.01,2013-06-24 09:41:00,
2013-06-24 04:42:00,70.5,68.4,28.70,North,0,0.0,0.0,93,0.00,,,0.00,0.00,VWS V14.01,2013-06-24 09:42:00,
2013-06-24 04:43:00,70.5,68.4,28.70,North,0,0.0,0.0,93,0.00,,,0.00,0.00,VWS V14.01,2013-06-24 09:43:00,
2013-06-24 04:44:00,70.5,68.4,28.70,NE,45,0.0,0.0,93,0.00,,,0.00,0.00,VWS V14.01,2013-06-24 09:44:00,
2013-06-24 04:45:00,70.5,68.4,28.70,North,0,0.0,0.0,93,0.00,,,0.00,0.00,VWS V14.01,2013-06-24 09:45:00,
2013-06-24 04:46:00,70.5,68.4,28.70,North,0,0.0,0.0,93,0.00,,,0.00,0.00,VWS V14.01,2013-06-24 09:46:00,
2013-06-24 04:47:00,70.5,68.4,28.70,NE,45,0.0,0.0,93,0.00,,,0.00,0.00,VWS V14.01,2013-06-24 09:47:00,
2013-06-24 04:48:00,70.5,68.4,28.70,NE,45,0.0,0.0,93,0.00,,,0.00,0.00,VWS V14.01,2013-06-24 09:48:00,
2013-06-24 04:49:00,70.5,68.4,28.73,NE,45,0.0,0.0,93,0.00,,,0.00,0.00,VWS V14.01,2013-06-24 09:49:00,
2013-06-24 04:50:00,70.5,68.4,28.70,NE,45,0.0,0.0,93,0.00,,,0.00,0.00,VWS V14.01,2013-06-24 09:50:00,
2013-06-24 04:51:00,70.5,68.4,28.70,NE,45,0.0,0.0,93,0.00,,,0.00,0.00,VWS V14.01,2013-06-24 09:51:00,
2013-06-24 04:52:00,70.5,68.4,28.73,NE,45,0.0,0.0,93,0.00,,,0.00,0.00,VWS V14.01,2013-06-24 09:52:00,
2013-06-24 04:53:00,70.5,68.4,28.73,ENE,68,1.3,1.3,93,0.00,,,0.00,0.00,VWS V14.01,2013-06-24 09:53:00,
2013-06-24 04:54:00,70.5,68.4,28.73,ENE,68,0.0,0.0,93,0.00,,,0.00,0.00,VWS V14.01,2013-06-24 09:54:00,
2013-06-24 04:55:00,70.5,68.4,28.73,NE,45,0.0,0.0,93,0.00,,,0.00,0.00,VWS V14.01,2013-06-24 09:55:00,
2013-06-24 04:56:00,70.5,68.4,28.73,NE,45,0.9,0.9,93,0.00,,,0.00,0.00,VWS V14.01,2013-06-24 09:56:00,
2013-06-24 04:57:00,70.5,68.4,28.73,NE,45,0.0,0.0,93,0.00,,,0.00,0.00,VWS V14.01,2013-06-24 09:57:00,
2013-06-24 04:58:00,70.5,68.4,28.73,NE,45,0.0,0.0,93,0.00,,,0.00,0.00,VWS V14.01,2013-06-24 09:58:00,
2013-06-24 04:59:00,70.5,68.4,28.73,NE,45,0.0,0.0,93,0.00,,,0.00,0.00,VWS V14.01,2013-06-24 09:59:00,
2013-06-24 05:00:00,70.5,68.4,28.73,NE,45,1.6,1.6,93,0.00,,,0.00,0.00,VWS V14.01,2013-06-24 10:00:00,
2013-06-24 05:01:00,70.5,68.4,28.73,ENE,68,2.5,2.5,93,0.00,,,0.00,0.00,VWS V14.01,2013-06-24 10:01:00,
2013-06-24 05:02:00,70.5,68.4,28.73,NE,45,0.0,0.0,93,0.00,,,0.00,0.00,VWS V14.01,2013-06-24 10:02:00,
2013-06-24 05:03:00,70.5,68.4,28.73,NE,45,0.0,0.0,93,0.00,,,0.00,0.00,VWS V14.01,2013-06-24 10:03:00,
2013-06-24 05:04:00,70.5,68.4,28.73,NE,45,0.0,0.0,93,0.00,,,0.00,0.00,VWS V14.01,2013-06-24 10:04:00,
2013-06-24 05:05:00,70.5,68.4,28.70,NE,45,0.0,0.0,93,0.00,,,0.00,0.00,VWS V14.01,2013-06-24 10:05:00,
2013-06-24 05:06:00,70.5,68.4,28.73,NE,45,0.0,0.0,93,0.00,,,0.00,0.00,VWS V14.01,2013-06-24 10:06:00,
2013-06-24 05:07:00,70.5,68.4,28.70,NE,45,0.0,0.0,93,0.00,,,0.00,0.00,VWS V14.01,2013-06-24 10:07:00,
2013-06-24 05:08:00,70.5,68.4,28.70,NE,45,0.0,0.0,93,0.00,,,0.00,0.00,VWS V14.01,2013-06-24 10:08:00,
2013-06-24 05:09:00,70.5,68.4,28.70,NE,45,0.0,0.0,93,0.00,,,0.00,0.00,VWS V14.01,2013-06-24 10:09:00,
2013-06-24 05:10:00,70.3,68.2,28.70,NE,45,0.0,0.0,93,0.00,,,0.00,0.00,VWS V14.01,2013-06-24 10:10:00,
2013-06-24 05:11:00,70.3,68.2,28.70,NE,45,0.0,0.0,93,0.00,,,0.00,0.00,VWS V14.01,2013-06-24 10:11:00,
2013-06-24 05:12:00,70.3,68.2,28.70,NE,45,0.0,0.0,93,0.00,,,0.00,0.00,VWS V14.01,2013-06-24 10:12:00,
2013-06-24 05:13:00,70.3,68.2,28.70,NE,45,0.0,0.0,93,0.00,,,0.00,0.00,VWS V14.01,2013-06-24 10:13:00,
2013-06-24 05:14:00,70.3,68.2,28.70,NE,45,0.0,0.0,93,0.00,,,0.00,0.00,VWS V14.01,2013-06-24 10:14:00,
2013-06-24 05:15:00,70.3,68.2,28.70,NE,45,2.0,2.0,93,0.00,,,0.00,0.00,VWS V14.01,2013-06-24 10:15:00,
2013-06-24 05:16:00,70.3,68.2,28.70,NE,45,0.0,0.0,93,0.00,,,0.00,0.00,VWS V14.01,2013-06-24 10:16:00,
2013-06-24 05:17:00,70.3,68.2,28.70,NE,45,0.0,0.0,93,0.00,,,0.00,0.00,VWS V14.01,2013-06-24 10:17:00,
2013-06-24 05:18:00,70.3,68.2,28.70,ENE,68,1.1,1.1,93,0.00,,,0.00,0.00,VWS V14.01,2013-06-24 10:18:00,
2013-06-24 05:19:00,70.3,68.2,28.70,ENE,68,1.6,1.6,93,0.00,,,0.00,0.00,VWS V14.01,2013-06-24 10:19:00,
2013-06-24 05:20:00,70.3,68.2,28.67,ENE,68,1.3,1.3,93,0.00,,,0.00,0.00,VWS V14.01,2013-06-24 10:20:00,
2013-06-24 05:21:00,70.3,68.2,28.70,NE,45,2.7,2.7,93,0.00,,,0.00,0.00,VWS V14.01,2013-06-24 10:21:00,
2013-06-24 05:22:00,70.3,68.2,28.67,East,90,0.0,0.0,93,0.00,,,0.00,0.00,VWS V14.01,2013-06-24 10:22:00,
2013-06-24 05:23:00,70.3,68.2,28.67,ENE,68,1.6,1.6,93,0.00,,,0.00,0.00,VWS V14.01,2013-06-24 10:23:00,
2013-06-24 05:24:00,70.3,68.2,28.67,ENE,68,0.0,0.0,93,0.00,,,0.00,0.00,VWS V14.01,2013-06-24 10:24:00,
2013-06-24 05:25:00,70.3,68.2,28.67,NNW,338,0.0,0.0,93,0.00,,,0.00,0.00,VWS V14.01,2013-06-24 10:25:00,
2013-06-24 05:26:00,70.3,68.2,28.67,NNW,338,0.0,0.0,93,0.00,,,0.00,0.00,VWS V14.01,2013-06-24 10:26:00,
2013-06-24 05:27:00,70.3,68.2,28.67,NNW,338,0.0,0.0,93,0.00,,,0.00,0.00,VWS V14.01,2013-06-24 10:27:00,
2013-06-24 05:28:00,70.3,68.2,28.67,North,0,0.0,0.0,93,0.00,,,0.00,0.00,VWS V14.01,2013-06-24 10:28:00,
2013-06-24 05:29:00,70.3,68.2,28.67,NNE,22,0.0,0.0,93,0.00,,,0.00,0.00,VWS V14.01,2013-06-24 10:29:00,
2013-06-24 05:30:00,70.3,68.2,28.67,North,0,1.3,1.3,93,0.00,,,0.00,0.00,VWS V14.01,2013-06-24 10:30:00,
2013-06-24 05:31:00,70.3,68.2,28.67,ENE,68,1.3,1.3,93,0.00,,,0.00,0.00,VWS V14.01,2013-06-24 10:31:00,
2013-06-24 05:32:00,70.3,68.2,28.67,ENE,68,0.0,0.0,93,0.00,,,0.00,0.00,VWS V14.01,2013-06-24 10:32:00,
2013-06-24 05:33:00,70.3,68.2,28.67,North,0,1.3,1.3,93,0.00,,,0.00,0.00,VWS V14.01,2013-06-24 10:33:00,
2013-06-24 05:34:00,70.3,68.2,28.67,NE,45,0.0,0.0,93,0.00,,,0.00,0.00,VWS V14.01,2013-06-24 10:34:00,
2013-06-24 05:35:00,70.3,68.2,28.67,ENE,68,0.0,0.0,93,0.00,,,0.00,0.00,VWS V14.01,2013-06-24 10:35:00,
2013-06-24 05:36:00,70.3,68.2,28.67,ENE,68,0.0,0.0,93,0.00,,,0.00,0.00,VWS V14.01,2013-06-24 10:36:00,
2013-06-24 05:37:00,70.3,68.2,28.67,ENE,68,0.0,0.0,93,0.00,,,0.00,0.00,VWS V14.01,2013-06-24 10:37:00,
2013-06-24 05:38:00,70.3,68.2,28.67,ENE,68,0.0,0.0,93,0.00,,,0.00,0.00,VWS V14.01,2013-06-24 10:38:00,
2013-06-24 05:39:00,70.3,68.2,28.67,East,90,0.0,0.0,93,0.00,,,0.00,0.00,VWS V14.01,2013-06-24 10:39:00,
2013-06-24 05:40:00,70.3,68.2,28.67,SE,135,0.0,0.0,93,0.00,,,0.00,0.00,VWS V14.01,2013-06-24 10:40:00,
2013-06-24 05:41:00,70.3,68.2,28.67,South,180,2.0,2.0,93,0.00,,,0.00,0.00,VWS V14.01,2013-06-24 10:41:00,
2013-06-24 05:42:00,70.3,68.2,28.67,SE,135,2.2,2.2,93,0.00,,,0.00,0.00,VWS V14.01,2013-06-24 10:42:00,
2013-06-24 05:43:00,70.3,68.2,28.67,SE,135,0.0,0.0,93,0.00,,,0.00,0.00,VWS V14.01,2013-06-24 10:43:00,
2013-06-24 05:44:00,70.3,68.5,28.67,SE,135,0.0,0.0,94,0.00,,,0.00,0.00,VWS V14.01,2013-06-24 10:44:00,
2013-06-24 05:45:00,70.3,68.5,28.67,SE,135,0.0,0.0,94,0.00,,,0.00,0.00,VWS V14.01,2013-06-24 10:45:00,
2013-06-24 05:46:00,70.3,68.5,28.67,SE,135,1.3,1.3,94,0.00,,,0.00,0.00,VWS V14.01,2013-06-24 10:46:00,
2013-06-24 05:47:00,70.3,68.5,28.67,SE,135,0.0,0.0,94,0.00,,,0.00,0.00,VWS V14.01,2013-06-24 10:47:00,
2013-06-24 05:48:00,70.3,68.5,28.67,SE,135,0.0,0.0,94,0.00,,,0.00,0.00,VWS V14.01,2013-06-24 10:48:00,
2013-06-24 05:49:00,70.3,68.5,28.67,SE,135,0.0,0.0,94,0.00,,,0.00,0.00,VWS V14.01,2013-06-24 10:49:00,
2013-06-24 05:50:00,70.2,68.4,28.67,SE,135,0.0,0.0,94,0.00,,,0.00,0.00,VWS V14.01,2013-06-24 10:50:00,
2013-06-24 05:51:00,70.3,68.5,28.67,SE,135,0.0,0.0,94,0.00,,,0.00,0.00,VWS V14.01,2013-06-24 10:51:00,
2013-06-24 05:52:00,70.3,68.5,28.67,SE,135,0.0,0.0,94,0.00,,,0.00,0.00,VWS V14.01,2013-06-24 10:52:00,
2013-06-24 05:53:00,70.2,68.4,28.67,SE,135,1.1,1.1,94,0.00,,,0.00,0.00,VWS V14.01,2013-06-24 10:53:00,
2013-06-24 05:54:00,70.2,68.4,28.67,SE,135,0.0,0.0,94,0.00,,,0.00,0.00,VWS V14.01,2013-06-24 10:54:00,
2013-06-24 05:55:00,70.2,68.4,28.67,SE,135,0.0,0.0,94,0.00,,,0.00,0.00,VWS V14.01,2013-06-24 10:55:00,
2013-06-24 05:56:00,70.2,68.4,28.67,NE,45,0.0,0.0,94,0.00,,,0.00,0.00,VWS V14.01,2013-06-24 10:56:00,
2013-06-24 05:57:00,70.2,68.4,28.67,NE,45,0.0,0.0,94,0.00,,,0.00,0.00,VWS V14.01,2013-06-24 10:57:00,
2013-06-24 05:58:00,70.2,68.4,28.67,NE,45,0.0,0.0,94,0.00,,,0.00,0.00,VWS V14.01,2013-06-24 10:58:00,
2013-06-24 05:59:00,70.2,68.4,28.67,NE,45,0.0,0.0,94,0.00,,,0.00,0.00,VWS V14.01,2013-06-24 10:59:00,
2013-06-24 06:00:00,70.2,68.4,28.67,ENE,68,1.1,1.1,94,0.00,,,0.00,0.00,VWS V14.01,2013-06-24 11:00:00,
2013-06-24 06:01:00,70.2,68.4,28.67,ENE,68,0.0,0.0,94,0.00,,,0.00,0.00,VWS V14.01,2013-06-24 11:01:00,
2013-06-24 06:02:00,70.2,68.4,28.67,ENE,68,0.0,0.0,94,0.00,,,0.00,0.00,VWS V14.01,2013-06-24 11:02:00,
2013-06-24 06:03:00,70.2,68.4,28.67,ENE,68,0.0,0.0,94,0.00,,,0.00,0.00,VWS V14.01,2013-06-24 11:03:00,
2013-06-24 06:04:00,70.2,68.4,28.67,ENE,68,0.0,0.0,94,0.00,,,0.00,0.00,VWS V14.01,2013-06-24 11:04:00,
2013-06-24 06:05:00,70.2,68.4,28.67,ENE,68,0.0,0.0,94,0.00,,,0.00,0.00,VWS V14.01,2013-06-24 11:05:00,
2013-06-24 06:06:00,70.2,68.4,28.67,ENE,68,0.0,0.0,94,0.00,,,0.00,0.00,VWS V14.01,2013-06-24 11:06:00,
2013-06-24 06:07:00,70.2,68.4,28.67,ENE,68,0.0,0.0,94,0.00,,,0.00,0.00,VWS V14.01,2013-06-24 11:07:00,
2013-06-24 06:08:00,70.2,68.4,28.67,ENE,68,0.0,0.0,94,0.00,,,0.00,0.00,VWS V14.01,2013-06-24 11:08:00,
2013-06-24 06:09:00,70.2,68.4,28.67,ENE,68,0.0,0.0,94,0.00,,,0.00,0.00,VWS V14.01,2013-06-24 11:09:00,
2013-06-24 06:10:00,70.2,68.4,28.67,ENE,68,0.0,0.0,94,0.00,,,0.00,0.00,VWS V14.01,2013-06-24 11:10:00,
2013-06-24 06:11:00,70.2,68.4,28.67,ENE,68,0.0,0.0,94,0.00,,,0.00,0.00,VWS V14.01,2013-06-24 11:11:00,
2013-06-24 06:12:00,70.2,68.4,28.67,ENE,68,0.0,0.0,94,0.00,,,0.00,0.00,VWS V14.01,2013-06-24 11:12:00,
2013-06-24 06:13:00,70.2,68.4,28.67,ENE,68,0.0,0.0,94,0.00,,,0.00,0.00,VWS V14.01,2013-06-24 11:13:00,
2013-06-24 06:14:00,70.2,68.4,28.67,ENE,68,1.6,1.6,94,0.00,,,0.00,0.00,VWS V14.01,2013-06-24 11:14:00,
2013-06-24 06:15:00,70.2,68.4,28.67,ENE,68,0.0,0.0,94,0.00,,,0.00,0.00,VWS V14.01,2013-06-24 11:15:00,
2013-06-24 06:16:00,70.2,68.4,28.67,ENE,68,0.0,0.0,94,0.00,,,0.00,0.00,VWS V14.01,2013-06-24 11:16:00,
2013-06-24 06:17:00,70.2,68.4,28.67,ENE,68,1.3,1.3,94,0.00,,,0.00,0.00,VWS V14.01,2013-06-24 11:17:00,
2013-06-24 06:18:00,70.2,68.4,28.67,ENE,68,0.0,0.0,94,0.00,,,0.00,0.00,VWS V14.01,2013-06-24 11:18:00,
2013-06-24 06:19:00,70.2,68.4,28.67,ENE,68,0.0,0.0,94,0.00,,,0.00,0.00,VWS V14.01,2013-06-24 11:19:00,
2013-06-24 06:20:00,70.2,68.4,28.67,ENE,68,0.0,0.0,94,0.00,,,0.00,0.00,VWS V14.01,2013-06-24 11:20:00,
2013-06-24 06:21:00,70.3,68.5,28.70,ENE,68,0.0,0.0,94,0.00,,,0.00,0.00,VWS V14.01,2013-06-24 11:21:00,
2013-06-24 06:22:00,70.2,68.4,28.70,ENE,68,0.0,0.0,94,0.00,,,0.00,0.00,VWS V14.01,2013-06-24 11:22:00,
2013-06-24 06:23:00,70.3,68.5,28.70,ENE,68,0.0,0.0,94,0.00,,,0.00,0.00,VWS V14.01,2013-06-24 11:23:00,
2013-06-24 06:24:00,70.3,68.5,28.70,ENE,68,0.0,0.0,94,0.00,,,0.00,0.00,VWS V14.01,2013-06-24 11:24:00,
2013-06-24 06:25:00,70.2,68.4,28.70,ENE,68,0.0,0.0,94,0.00,,,0.00,0.00,VWS V14.01,2013-06-24 11:25:00,
2013-06-24 06:26:00,70.2,68.4,28.70,West,270,0.0,0.0,94,0.00,,,0.00,0.00,VWS V14.01,2013-06-24 11:26:00,
2013-06-24 06:27:00,70.2,68.4,28.70,West,270,1.3,1.3,94,0.00,,,0.00,0.00,VWS V14.01,2013-06-24 11:27:00,
2013-06-24 06:28:00,70.3,68.5,28.70,West,270,1.1,1.1,94,0.00,,,0.00,0.00,VWS V14.01,2013-06-24 11:28:00,
2013-06-24 06:29:00,70.2,68.4,28.70,West,270,0.0,0.0,94,0.00,,,0.00,0.00,VWS V14.01,2013-06-24 11:29:00,
2013-06-24 06:30:00,70.3,68.5,28.70,West,270,0.0,0.0,94,0.00,,,0.00,0.00,VWS V14.01,2013-06-24 11:30:00,
2013-06-24 06:31:00,70.3,68.5,28.70,West,270,0.0,0.0,94,0.00,,,0.00,0.00,VWS V14.01,2013-06-24 11:31:00,
2013-06-24 06:32:00,70.3,68.5,28.70,West,270,0.0,0.0,94,0.00,,,0.00,0.00,VWS V14.01,2013-06-24 11:32:00,
2013-06-24 06:33:00,70.3,68.5,28.70,West,270,0.0,0.0,94,0.00,,,0.00,0.00,VWS V14.01,2013-06-24 11:33:00,
2013-06-24 06:34:00,70.3,68.5,28.70,West,270,0.0,0.0,94,0.00,,,0.00,0.00,VWS V14.01,2013-06-24 11:34:00,
2013-06-24 06:35:00,70.3,68.5,28.70,West,270,0.0,0.0,94,0.00,,,0.00,0.00,VWS V14.01,2013-06-24 11:35:00,
2013-06-24 06:36:00,70.3,68.5,28.70,West,270,0.0,0.0,94,0.00,,,0.00,0.00,VWS V14.01,2013-06-24 11:36:00,
2013-06-24 06:37:00,70.3,68.5,28.70,West,270,0.0,0.0,94,0.00,,,0.00,0.00,VWS V14.01,2013-06-24 11:37:00,
2013-06-24 06:38:00,70.3,68.5,28.70,West,270,0.0,0.0,94,0.00,,,0.00,0.00,VWS V14.01,2013-06-24 11:38:00,
2013-06-24 06:39:00,70.3,68.5,28.70,West,270,0.0,0.0,94,0.00,,,0.00,0.00,VWS V14.01,2013-06-24 11:39:00,
2013-06-24 06:40:00,70.3,68.5,28.70,West,270,0.0,0.0,94,0.00,,,0.00,0.00,VWS V14.01,2013-06-24 11:40:00,
2013-06-24 06:41:00,70.5,68.7,28.70,SW,225,2.2,2.2,94,0.00,,,0.00,0.00,VWS V14.01,2013-06-24 11:41:00,
2013-06-24 06:42:00,70.3,68.5,28.70,West,270,0.0,0.0,94,0.00,,,0.00,0.00,VWS V14.01,2013-06-24 11:42:00,
2013-06-24 06:43:00,70.5,68.7,28.70,West,270,0.0,0.0,94,0.00,,,0.00,0.00,VWS V14.01,2013-06-24 11:43:00,
2013-06-24 06:44:00,70.5,68.7,28.70,SW,225,2.2,2.2,94,0.00,,,0.00,0.00,VWS V14.01,2013-06-24 11:44:00,
2013-06-24 06:45:00,70.5,68.7,28.70,SW,225,2.5,2.5,94,0.00,,,0.00,0.00,VWS V14.01,2013-06-24 11:45:00,
2013-06-24 06:46:00,70.5,68.7,28.70,South,180,2.0,2.0,94,0.00,,,0.00,0.00,VWS V14.01,2013-06-24 11:46:00,
2013-06-24 06:47:00,70.5,68.7,28.70,SSW,202,2.5,2.5,94,0.00,,,0.00,0.00,VWS V14.01,2013-06-24 11:47:00,
2013-06-24 06:48:00,70.5,68.7,28.70,South,180,2.5,2.5,94,0.00,,,0.00,0.00,VWS V14.01,2013-06-24 11:48:00,
2013-06-24 06:49:00,70.5,68.7,28.70,South,180,2.0,2.0,94,0.00,,,0.00,0.00,VWS V14.01,2013-06-24 11:49:00,
2013-06-24 06:50:00,70.5,68.7,28.70,South,180,0.9,0.9,94,0.00,,,0.00,0.00,VWS V14.01,2013-06-24 11:50:00,
2013-06-24 06:51:00,70.5,68.7,28.73,South,180,0.0,0.0,94,0.00,,,0.00,0.00,VWS V14.01,2013-06-24 11:51:00,
2013-06-24 06:52:00,70.5,68.7,28.73,South,180,0.0,0.0,94,0.00,,,0.00,0.00,VWS V14.01,2013-06-24 11:52:00,
2013-06-24 06:53:00,70.5,68.7,28.73,South,180,0.0,0.0,94,0.00,,,0.00,0.00,VWS V14.01,2013-06-24 11:53:00,
2013-06-24 06:54:00,70.5,68.7,28.73,South,180,0.0,0.0,94,0.00,,,0.00,0.00,VWS V14.01,2013-06-24 11:54:00,
2013-06-24 06:55:00,70.5,68.7,28.73,South,180,0.0,0.0,94,0.00,,,0.00,0.00,VWS V14.01,2013-06-24 11:55:00,
2013-06-24 06:56:00,70.5,68.7,28.73,South,180,0.0,0.0,94,0.00,,,0.00,0.00,VWS V14.01,2013-06-24 11:56:00,
2013-06-24 06:57:00,70.5,68.7,28.73,South,180,0.0,0.0,94,0.00,,,0.00,0.00,VWS V14.01,2013-06-24 11:57:00,
2013-06-24 06:58:00,70.5,68.7,28.73,South,180,0.0,0.0,94,0.00,,,0.00,0.00,VWS V14.01,2013-06-24 11:58:00,
2013-06-24 06:59:00,70.5,68.7,28.73,South,180,0.0,0.0,94,0.00,,,0.00,0.00,VWS V14.01,2013-06-24 11:59:00,
2013-06-24 07:00:00,70.5,68.7,28.73,South,180,0.0,0.0,94,0.00,,,0.00,0.00,VWS V14.01,2013-06-24 12:00:00,
2013-06-24 07:01:00,70.5,68.7,28.73,South,180,0.0,0.0,94,0.00,,,0.00,0.00,VWS V14.01,2013-06-24 12:01:00,
2013-06-24 07:02:00,70.5,68.7,28.73,South,180,0.0,0.0,94,0.00,,,0.00,0.00,VWS V14.01,2013-06-24 12:02:00,
2013-06-24 07:03:00,70.5,68.7,28.73,South,180,0.0,0.0,94,0.00,,,0.00,0.00,VWS V14.01,2013-06-24 12:03:00,
2013-06-24 07:04:00,70.5,68.7,28.73,South,180,0.0,0.0,94,0.00,,,0.00,0.00,VWS V14.01,2013-06-24 12:04:00,
2013-06-24 07:05:00,70.5,68.7,28.73,South,180,0.0,0.0,94,0.00,,,0.00,0.00,VWS V14.01,2013-06-24 12:05:00,
2013-06-24 07:06:00,70.5,68.7,28.70,East,90,1.3,1.3,94,0.00,,,0.00,0.00,VWS V14.01,2013-06-24 12:06:00,
2013-06-24 07:07:00,70.5,68.7,28.70,South,180,0.0,0.0,94,0.00,,,0.00,0.00,VWS V14.01,2013-06-24 12:07:00,
2013-06-24 07:08:00,70.5,68.7,28.70,South,180,0.0,0.0,94,0.00,,,0.00,0.00,VWS V14.01,2013-06-24 12:08:00,
2013-06-24 07:09:00,70.5,68.7,28.70,East,90,0.0,0.0,94,0.00,,,0.00,0.00,VWS V14.01,2013-06-24 12:09:00,
2013-06-24 07:10:00,70.5,68.7,28.70,NE,45,0.9,0.9,94,0.00,,,0.00,0.00,VWS V14.01,2013-06-24 12:10:00,
2013-06-24 07:11:00,70.5,68.7,28.70,NE,45,1.3,1.3,94,0.00,,,0.00,0.00,VWS V14.01,2013-06-24 12:11:00,
2013-06-24 07:12:00,70.7,68.9,28.70,NE,45,1.3,1.3,94,0.00,,,0.00,0.00,VWS V14.01,2013-06-24 12:12:00,
2013-06-24 07:13:00,70.5,68.7,28.70,NE,45,0.9,0.9,94,0.00,,,0.00,0.00,VWS V14.01,2013-06-24 12:13:00,
2013-06-24 07:14:00,70.5,68.7,28.70,NE,45,1.1,1.1,94,0.00,,,0.00,0.00,VWS V14.01,2013-06-24 12:14:00,
2013-06-24 07:15:00,70.7,68.9,28.70,NE,45,0.0,0.0,94,0.00,,,0.00,0.00,VWS V14.01,2013-06-24 12:15:00,
2013-06-24 07:16:00,70.7,68.9,28.70,NE,45,0.0,0.0,94,0.00,,,0.00,0.00,VWS V14.01,2013-06-24 12:16:00,
2013-06-24 07:17:00,70.7,68.9,28.70,NNE,22,1.1,1.1,94,0.00,,,0.00,0.00,VWS V14.01,2013-06-24 12:17:00,
2013-06-24 07:18:00,70.7,68.9,28.70,NE,45,0.0,0.0,94,0.00,,,0.00,0.00,VWS V14.01,2013-06-24 12:18:00,
2013-06-24 07:19:00,70.7,68.9,28.70,NNE,22,1.1,1.1,94,0.00,,,0.00,0.00,VWS V14.01,2013-06-24 12:19:00,
2013-06-24 07:20:00,70.7,68.9,28.70,NNE,22,1.3,1.3,94,0.00,,,0.00,0.00,VWS V14.01,2013-06-24 12:20:00,
2013-06-24 07:21:00,70.7,68.9,28.70,NNE,22,2.0,2.0,94,0.00,,,0.00,0.00,VWS V14.01,2013-06-24 12:21:00,
2013-06-24 07:22:00,70.9,69.1,28.73,NNE,22,0.0,0.0,94,0.00,,,0.00,0.00,VWS V14.01,2013-06-24 12:22:00,
2013-06-24 07:23:00,70.7,68.9,28.73,NNE,22,0.0,0.0,94,0.00,,,0.00,0.00,VWS V14.01,2013-06-24 12:23:00,
2013-06-24 07:24:00,70.9,69.1,28.73,NNE,22,0.0,0.0,94,0.00,,,0.00,0.00,VWS V14.01,2013-06-24 12:24:00,
2013-06-24 07:25:00,70.9,69.1,28.73,NNE,22,0.0,0.0,94,0.00,,,0.00,0.00,VWS V14.01,2013-06-24 12:25:00,
2013-06-24 07:26:00,70.9,69.1,28.73,NE,45,0.0,0.0,94,0.00,,,0.00,0.00,VWS V14.01,2013-06-24 12:26:00,
2013-06-24 07:27:00,71.1,69.2,28.73,East,90,1.1,1.1,94,0.00,,,0.00,0.00,VWS V14.01,2013-06-24 12:27:00,
2013-06-24 07:28:00,71.1,69.2,28.73,East,90,2.5,2.5,94,0.00,,,0.00,0.00,VWS V14.01,2013-06-24 12:28:00,
2013-06-24 07:29:00,71.1,69.2,28.73,East,90,1.6,1.6,94,0.00,,,0.00,0.00,VWS V14.01,2013-06-24 12:29:00,
2013-06-24 07:30:00,71.1,69.2,28.73,East,90,0.0,0.0,94,0.00,,,0.00,0.00,VWS V14.01,2013-06-24 12:30:00,
2013-06-24 07:31:00,71.1,69.2,28.73,East,90,2.5,2.5,94,0.00,,,0.00,0.00,VWS V14.01,2013-06-24 12:31:00,
2013-06-24 07:32:00,71.4,69.6,28.73,East,90,0.0,0.0,94,0.00,,,0.00,0.00,VWS V14.01,2013-06-24 12:32:00,
2013-06-24 07:33:00,71.2,69.4,28.73,East,90,0.0,0.0,94,0.00,,,0.00,0.00,VWS V14.01,2013-06-24 12:33:00,
2013-06-24 07:34:00,71.2,69.4,28.73,East,90,0.0,0.0,94,0.00,,,0.00,0.00,VWS V14.01,2013-06-24 12:34:00,
2013-06-24 07:35:00,71.4,69.6,28.73,East,90,0.0,0.0,94,0.00,,,0.00,0.00,VWS V14.01,2013-06-24 12:35:00,
2013-06-24 07:36:00,71.4,69.6,28.73,East,90,0.0,0.0,94,0.00,,,0.00,0.00,VWS V14.01,2013-06-24 12:36:00,
2013-06-24 07:37:00,71.4,69.6,28.73,ENE,68,0.0,0.0,94,0.00,,,0.00,0.00,VWS V14.01,2013-06-24 12:37:00,
2013-06-24 07:38:00,71.4,69.6,28.73,ENE,68,0.9,0.9,94,0.00,,,0.00,0.00,VWS V14.01,2013-06-24 12:38:00,
2013-06-24 07:39:00,71.4,69.6,28.73,ENE,68,1.3,1.3,94,0.00,,,0.00,0.00,VWS V14.01,2013-06-24 12:39:00,
2013-06-24 07:40:00,71.6,69.8,28.73,ENE,68,0.0,0.0,94,0.00,,,0.00,0.00,VWS V14.01,2013-06-24 12:40:00,
2013-06-24 07:41:00,71.6,69.8,28.73,ENE,68,0.0,0.0,94,0.00,,,0.00,0.00,VWS V14.01,2013-06-24 12:41:00,
2013-06-24 07:42:00,71.8,70.0,28.73,NE,45,0.0,0.0,94,0.00,,,0.00,0.00,VWS V14.01,2013-06-24 12:42:00,
2013-06-24 07:43:00,71.6,69.8,28.73,ENE,68,0.0,0.0,94,0.00,,,0.00,0.00,VWS V14.01,2013-06-24 12:43:00,
2013-06-24 07:44:00,71.8,70.0,28.73,ENE,68,0.0,0.0,94,0.00,,,0.00,0.00,VWS V14.01,2013-06-24 12:44:00,
2013-06-24 07:45:00,71.8,70.0,28.73,NE,45,0.0,0.0,94,0.00,,,0.00,0.00,VWS V14.01,2013-06-24 12:45:00,
2013-06-24 07:46:00,71.8,70.0,28.73,NE,45,0.0,0.0,94,0.00,,,0.00,0.00,VWS V14.01,2013-06-24 12:46:00,
2013-06-24 07:47:00,72.0,70.1,28.73,NE,45,0.0,0.0,94,0.00,,,0.00,0.00,VWS V14.01,2013-06-24 12:47:00,
2013-06-24 07:48:00,71.8,70.0,28.73,NE,45,0.0,0.0,94,0.00,,,0.00,0.00,VWS V14.01,2013-06-24 12:48:00,
2013-06-24 07:49:00,71.8,70.0,28.73,NE,45,0.0,0.0,94,0.00,,,0.00,0.00,VWS V14.01,2013-06-24 12:49:00,
2013-06-24 07:50:00,72.0,70.1,28.73,NE,45,0.0,0.0,94,0.00,,,0.00,0.00,VWS V14.01,2013-06-24 12:50:00,
2013-06-24 07:51:00,72.0,70.1,28.73,NE,45,0.0,0.0,94,0.00,,,0.00,0.00,VWS V14.01,2013-06-24 12:51:00,
2013-06-24 07:52:00,72.0,70.1,28.73,NE,45,0.0,0.0,94,0.00,,,0.00,0.00,VWS V14.01,2013-06-24 12:52:00,
2013-06-24 07:53:00,72.0,70.1,28.73,NE,45,0.0,0.0,94,0.00,,,0.00,0.00,VWS V14.01,2013-06-24 12:53:00,
2013-06-24 07:54:00,72.0,70.1,28.73,NE,45,0.0,0.0,94,0.00,,,0.00,0.00,VWS V14.01,2013-06-24 12:54:00,
2013-06-24 07:55:00,72.1,70.3,28.73,NE,45,0.0,0.0,94,0.00,,,0.00,0.00,VWS V14.01,2013-06-24 12:55:00,
2013-06-24 07:56:00,72.1,70.3,28.73,NE,45,0.0,0.0,94,0.00,,,0.00,0.00,VWS V14.01,2013-06-24 12:56:00,
2013-06-24 07:57:00,72.3,70.5,28.73,ENE,68,0.0,0.0,94,0.00,,,0.00,0.00,VWS V14.01,2013-06-24 12:57:00,
2013-06-24 07:58:00,72.3,70.5,28.73,ENE,68,1.3,1.3,94,0.00,,,0.00,0.00,VWS V14.01,2013-06-24 12:58:00,
2013-06-24 07:59:00,72.3,70.5,28.73,ENE,68,0.0,0.0,94,0.00,,,0.00,0.00,VWS V14.01,2013-06-24 12:59:00,
2013-06-24 08:00:00,72.3,70.5,28.73,ENE,68,0.0,0.0,94,0.00,,,0.00,0.00,VWS V14.01,2013-06-24 13:00:00,
2013-06-24 08:01:00,72.5,70.7,28.73,ENE,68,0.0,0.0,94,0.00,,,0.00,0.00,VWS V14.01,2013-06-24 13:01:00,
2013-06-24 08:02:00,72.7,70.9,28.73,ENE,68,1.3,1.3,94,0.00,,,0.00,0.00,VWS V14.01,2013-06-24 13:02:00,
2013-06-24 08:03:00,72.5,70.7,28.73,ENE,68,0.0,0.0,94,0.00,,,0.00,0.00,VWS V14.01,2013-06-24 13:03:00,
2013-06-24 08:04:00,72.7,70.9,28.73,ENE,68,0.0,0.0,94,0.00,,,0.00,0.00,VWS V14.01,2013-06-24 13:04:00,
2013-06-24 08:05:00,72.7,70.9,28.73,ENE,68,1.3,1.3,94,0.00,,,0.00,0.00,VWS V14.01,2013-06-24 13:05:00,
2013-06-24 08:06:00,72.7,70.9,28.73,ENE,68,1.3,1.3,94,0.00,,,0.00,0.00,VWS V14.01,2013-06-24 13:06:00,
2013-06-24 08:07:00,73.2,71.4,28.70,East,90,0.0,0.0,94,0.00,,,0.00,0.00,VWS V14.01,2013-06-24 13:07:00,
2013-06-24 08:08:00,73.0,71.2,28.70,East,90,1.3,1.3,94,0.00,,,0.00,0.00,VWS V14.01,2013-06-24 13:08:00,
2013-06-24 08:09:00,73.2,71.4,28.70,East,90,1.1,1.1,94,0.00,,,0.00,0.00,VWS V14.01,2013-06-24 13:09:00,
2013-06-24 08:10:00,73.2,71.4,28.70,East,90,0.9,0.9,94,0.00,,,0.00,0.00,VWS V14.01,2013-06-24 13:10:00,
2013-06-24 08:11:00,73.4,71.3,28.70,East,90,0.9,0.9,93,0.00,,,0.00,0.00,VWS V14.01,2013-06-24 13:11:00,
2013-06-24 08:12:00,73.4,71.3,28.70,East,90,0.0,0.0,93,0.00,,,0.00,0.00,VWS V14.01,2013-06-24 13:12:00,
2013-06-24 08:13:00,73.9,71.8,28.70,East,90,0.0,0.0,93,0.00,,,0.00,0.00,VWS V14.01,2013-06-24 13:13:00,
2013-06-24 08:14:00,73.8,71.6,28.70,East,90,0.9,0.9,93,0.00,,,0.00,0.00,VWS V14.01,2013-06-24 13:14:00,
2013-06-24 08:15:00,73.8,71.6,28.70,East,90,0.0,0.0,93,0.00,,,0.00,0.00,VWS V14.01,2013-06-24 13:15:00,
2013-06-24 08:16:00,73.9,71.8,28.70,East,90,1.3,1.3,93,0.00,,,0.00,0.00,VWS V14.01,2013-06-24 13:16:00,
2013-06-24 08:17:00,74.1,72.0,28.70,East,90,0.0,0.0,93,0.00,,,0.00,0.00,VWS V14.01,2013-06-24 13:17:00,
2013-06-24 08:18:00,74.3,72.2,28.70,ESE,112,0.9,0.9,93,0.00,,,0.00,0.00,VWS V14.01,2013-06-24 13:18:00,
2013-06-24 08:19:00,74.3,72.2,28.70,ESE,112,1.3,1.3,93,0.00,,,0.00,0.00,VWS V14.01,2013-06-24 13:19:00,
2013-06-24 08:20:00,74.3,72.2,28.70,ESE,112,0.0,0.0,93,0.00,,,0.00,0.00,VWS V14.01,2013-06-24 13:20:00,
2013-06-24 08:21:00,74.3,72.2,28.70,ESE,112,0.0,0.0,93,0.00,,,0.00,0.00,VWS V14.01,2013-06-24 13:21:00,
2013-06-24 08:22:00,74.3,72.2,28.73,SSE,158,1.3,1.3,93,0.00,,,0.00,0.00,VWS V14.01,2013-06-24 13:22:00,
2013-06-24 08:23:00,74.5,72.0,28.73,South,180,1.6,1.6,92,0.00,,,0.00,0.00,VWS V14.01,2013-06-24 13:23:00,
2013-06-24 08:24:00,74.5,72.0,28.73,SSE,158,0.0,0.0,92,0.00,,,0.00,0.00,VWS V14.01,2013-06-24 13:24:00,
2013-06-24 08:25:00,74.5,72.0,28.73,South,180,2.9,2.9,92,0.00,,,0.00,0.00,VWS V14.01,2013-06-24 13:25:00,
2013-06-24 08:26:00,74.5,72.0,28.73,South,180,0.0,0.0,92,0.00,,,0.00,0.00,VWS V14.01,2013-06-24 13:26:00,
2013-06-24 08:27:00,74.5,72.0,28.73,South,180,0.0,0.0,92,0.00,,,0.00,0.00,VWS V14.01,2013-06-24 13:27:00,
2013-06-24 08:28:00,74.3,71.5,28.73,South,180,2.7,2.7,91,0.00,,,0.00,0.00,VWS V14.01,2013-06-24 13:28:00,
2013-06-24 08:29:00,74.5,72.0,28.73,South,180,1.3,1.3,92,0.00,,,0.00,0.00,VWS V14.01,2013-06-24 13:29:00,
2013-06-24 08:30:00,74.3,71.8,28.73,South,180,0.9,0.9,92,0.00,,,0.00,0.00,VWS V14.01,2013-06-24 13:30:00,
2013-06-24 08:31:00,74.3,71.5,28.73,South,180,2.5,2.5,91,0.00,,,0.00,0.00,VWS V14.01,2013-06-24 13:31:00,
2013-06-24 08:32:00,74.1,71.3,28.73,South,180,0.9,0.9,91,0.00,,,0.00,0.00,VWS V14.01,2013-06-24 13:32:00,
2013-06-24 08:33:00,73.9,70.8,28.73,South,180,0.0,0.0,90,0.00,,,0.00,0.00,VWS V14.01,2013-06-24 13:33:00,
2013-06-24 08:34:00,73.9,71.2,28.73,South,180,1.6,1.6,91,0.00,,,0.00,0.00,VWS V14.01,2013-06-24 13:34:00,
2013-06-24 08:35:00,73.9,70.8,28.73,South,180,1.3,1.3,90,0.00,,,0.00,0.00,VWS V14.01,2013-06-24 13:35:00,
2013-06-24 08:36:00,73.9,70.8,28.73,South,180,0.0,0.0,90,0.00,,,0.00,0.00,VWS V14.01,2013-06-24 13:36:00,
2013-06-24 08:37:00,73.8,70.7,28.73,South,180,0.0,0.0,90,0.00,,,0.00,0.00,VWS V14.01,2013-06-24 13:37:00,
2013-06-24 08:38:00,73.8,70.7,28.73,South,180,0.0,0.0,90,0.00,,,0.00,0.00,VWS V14.01,2013-06-24 13:38:00,
2013-06-24 08:39:00,73.8,70.7,28.73,South,180,0.0,0.0,90,0.00,,,0.00,0.00,VWS V14.01,2013-06-24 13:39:00,
2013-06-24 08:40:00,73.8,70.7,28.73,South,180,0.0,0.0,90,0.00,,,0.00,0.00,VWS V14.01,2013-06-24 13:40:00,
2013-06-24 08:41:00,73.8,70.7,28.73,South,180,0.0,0.0,90,0.00,,,0.00,0.00,VWS V14.01,2013-06-24 13:41:00,
2013-06-24 08:42:00,73.8,70.7,28.73,SSW,202,0.0,0.0,90,0.00,,,0.00,0.00,VWS V14.01,2013-06-24 13:42:00,
2013-06-24 08:43:00,73.6,70.1,28.73,SSW,202,0.0,0.0,89,0.00,,,0.00,0.00,VWS V14.01,2013-06-24 13:43:00,
2013-06-24 08:44:00,73.6,70.5,28.73,SSW,202,0.0,0.0,90,0.00,,,0.00,0.00,VWS V14.01,2013-06-24 13:44:00,
2013-06-24 08:45:00,73.6,70.1,28.73,SSW,202,1.1,1.1,89,0.00,,,0.00,0.00,VWS V14.01,2013-06-24 13:45:00,
2013-06-24 08:46:00,73.6,70.1,28.73,SSW,202,0.0,0.0,89,0.00,,,0.00,0.00,VWS V14.01,2013-06-24 13:46:00,
2013-06-24 08:47:00,73.4,70.0,28.73,SSW,202,0.0,0.0,89,0.00,,,0.00,0.00,VWS V14.01,2013-06-24 13:47:00,
2013-06-24 08:48:00,73.2,69.8,28.73,SSE,158,1.6,1.6,89,0.00,,,0.00,0.00,VWS V14.01,2013-06-24 13:48:00,
2013-06-24 08:49:00,73.4,70.0,28.73,SSW,202,0.0,0.0,89,0.00,,,0.00,0.00,VWS V14.01,2013-06-24 13:49:00,
2013-06-24 08:50:00,73.2,70.1,28.73,SSE,158,0.9,0.9,90,0.00,,,0.00,0.00,VWS V14.01,2013-06-24 13:50:00,
2013-06-24 08:51:00,73.2,69.8,28.73,SSE,158,1.6,1.6,89,0.00,,,0.00,0.00,VWS V14.01,2013-06-24 13:51:00,
2013-06-24 08:52:00,73.2,69.8,28.73,East,90,2.0,2.0,89,0.00,,,0.00,0.00,VWS V14.01,2013-06-24 13:52:00,
2013-06-24 08:53:00,73.0,69.6,28.73,ENE,68,0.0,0.0,89,0.00,,,0.00,0.00,VWS V14.01,2013-06-24 13:53:00,
2013-06-24 08:54:00,73.2,69.8,28.73,ENE,68,2.0,2.0,89,0.00,,,0.00,0.00,VWS V14.01,2013-06-24 13:54:00,
2013-06-24 08:55:00,73.0,69.6,28.73,ENE,68,0.9,0.9,89,0.00,,,0.00,0.00,VWS V14.01,2013-06-24 13:55:00,
2013-06-24 08:56:00,73.0,69.6,28.73,ENE,68,0.0,0.0,89,0.00,,,0.00,0.00,VWS V14.01,2013-06-24 13:56:00,
2013-06-24 08:57:00,73.0,69.6,28.73,ENE,68,0.0,0.0,89,0.00,,,0.00,0.00,VWS V14.01,2013-06-24 13:57:00,
2013-06-24 08:58:00,72.9,69.4,28.73,South,180,1.3,1.3,89,0.00,,,0.00,0.00,VWS V14.01,2013-06-24 13:58:00,
2013-06-24 08:59:00,73.0,69.6,28.73,South,180,0.9,0.9,89,0.00,,,0.00,0.00,VWS V14.01,2013-06-24 13:59:00,
2013-06-24 09:00:00,72.9,69.4,28.73,South,180,1.1,1.1,89,0.00,,,0.00,0.00,VWS V14.01,2013-06-24 14:00:00,
2013-06-24 09:01:00,72.9,69.4,28.73,South,180,1.1,1.1,89,0.00,,,0.00,0.00,VWS V14.01,2013-06-24 14:01:00,
2013-06-24 09:02:00,72.9,69.4,28.73,South,180,2.0,2.0,89,0.00,,,0.00,0.00,VWS V14.01,2013-06-24 14:02:00,
2013-06-24 09:03:00,72.9,69.4,28.73,SW,225,2.7,2.7,89,0.00,,,0.00,0.00,VWS V14.01,2013-06-24 14:03:00,
2013-06-24 09:04:00,72.9,69.4,28.73,SW,225,2.2,2.2,89,0.00,,,0.00,0.00,VWS V14.01,2013-06-24 14:04:00,
2013-06-24 09:05:00,72.9,69.4,28.73,SW,225,2.2,2.2,89,0.00,,,0.00,0.00,VWS V14.01,2013-06-24 14:05:00,
2013-06-24 09:06:00,72.9,69.4,28.73,SW,225,2.7,2.7,89,0.00,,,0.00,0.00,VWS V14.01,2013-06-24 14:06:00,
2013-06-24 09:07:00,72.7,69.2,28.76,SW,225,2.7,2.7,89,0.00,,,0.00,0.00,VWS V14.01,2013-06-24 14:07:00,
2013-06-24 09:08:00,72.7,69.3,28.76,SW,225,0.0,0.0,89,0.00,,,0.00,0.00,VWS V14.01,2013-06-24 14:08:00,
2013-06-24 09:09:00,72.7,69.2,28.76,SW,225,2.0,2.0,89,0.00,,,0.00,0.00,VWS V14.01,2013-06-24 14:09:00,
2013-06-24 09:10:00,72.7,69.2,28.76,SW,225,2.5,2.5,89,0.00,,,0.00,0.00,VWS V14.01,2013-06-24 14:10:00,
2013-06-24 09:11:00,72.7,69.2,28.76,SW,225,0.0,0.0,89,0.00,,,0.00,0.00,VWS V14.01,2013-06-24 14:11:00,
2013-06-24 09:12:00,72.7,69.2,28.76,SSW,202,0.0,0.0,89,0.04,,,0.04,0.00,VWS V14.01,2013-06-24 14:12:00,
2013-06-24 09:13:00,72.3,68.9,28.76,SE,135,0.0,0.0,89,0.13,,,0.13,0.00,VWS V14.01,2013-06-24 14:13:00,
2013-06-24 09:14:00,72.5,69.1,28.76,East,90,2.5,2.5,89,0.04,,,0.04,0.00,VWS V14.01,2013-06-24 14:14:00,
2013-06-24 09:15:00,72.3,68.9,28.76,SE,135,0.0,0.0,89,0.13,,,0.13,0.00,VWS V14.01,2013-06-24 14:15:00,
2013-06-24 09:16:00,72.3,68.9,28.76,SE,135,0.0,0.0,89,0.13,,,0.13,0.00,VWS V14.01,2013-06-24 14:16:00,
2013-06-24 09:17:00,72.1,68.7,28.76,SSE,158,2.0,2.0,89,0.13,,,0.13,0.00,VWS V14.01,2013-06-24 14:17:00,
2013-06-24 09:18:00,72.0,68.9,28.76,South,180,5.6,5.6,90,0.17,,,0.17,0.00,VWS V14.01,2013-06-24 14:18:00,
2013-06-24 09:19:00,72.0,68.9,28.76,ESE,112,3.6,3.6,90,0.13,,,0.13,0.00,VWS V14.01,2013-06-24 14:19:00,
2013-06-24 09:20:00,72.0,68.9,28.76,SSE,158,5.4,5.4,90,0.17,,,0.17,0.00,VWS V14.01,2013-06-24 14:20:00,
2013-06-24 09:21:00,72.0,68.9,28.76,South,180,5.6,5.6,90,0.17,,,0.17,0.00,VWS V14.01,2013-06-24 14:21:00,
2013-06-24 09:22:00,72.0,68.9,28.73,SE,135,2.0,2.0,90,0.17,,,0.17,0.00,VWS V14.01,2013-06-24 14:22:00,
2013-06-24 09:23:00,71.4,68.7,28.73,SE,135,2.7,2.7,91,0.17,,,0.17,0.00,VWS V14.01,2013-06-24 14:23:00,
2013-06-24 09:24:00,71.8,68.7,28.73,SE,135,2.5,2.5,90,0.17,,,0.17,0.00,VWS V14.01,2013-06-24 14:24:00,
2013-06-24 09:25:00,71.6,68.5,28.73,SE,135,1.6,1.6,90,0.17,,,0.17,0.00,VWS V14.01,2013-06-24 14:25:00,
2013-06-24 09:26:00,71.4,68.7,28.73,SE,135,2.7,2.7,91,0.17,,,0.17,0.00,VWS V14.01,2013-06-24 14:26:00,
2013-06-24 09:27:00,71.4,68.7,28.73,SSE,158,5.8,5.8,91,0.17,,,0.17,0.00,VWS V14.01,2013-06-24 14:27:00,
2013-06-24 09:28:00,70.5,66.8,28.73,South,180,7.8,7.8,88,0.17,,,0.17,0.00,VWS V14.01,2013-06-24 14:28:00,
2013-06-24 09:29:00,71.1,68.3,28.73,SSE,158,5.8,5.8,91,0.17,,,0.17,0.00,VWS V14.01,2013-06-24 14:29:00,
2013-06-24 09:30:00,70.7,67.3,28.73,South,180,4.3,4.3,89,0.17,,,0.17,0.00,VWS V14.01,2013-06-24 14:30:00,
2013-06-24 09:31:00,70.5,66.8,28.73,South,180,7.8,7.8,88,0.17,,,0.17,0.00,VWS V14.01,2013-06-24 14:31:00,
2013-06-24 09:32:00,70.2,65.8,28.73,SSE,158,3.6,3.6,86,0.17,,,0.17,0.00,VWS V14.01,2013-06-24 14:32:00,
2013-06-24 09:33:00,69.1,63.4,28.73,NNE,22,4.0,4.0,82,0.21,,,0.21,0.00,VWS V14.01,2013-06-24 14:33:00,
2013-06-24 09:34:00,69.4,64.4,28.73,SSE,158,4.0,4.0,84,0.17,,,0.17,0.00,VWS V14.01,2013-06-24 14:34:00,
2013-06-24 09:35:00,69.3,63.9,28.73,SSE,158,2.5,2.5,83,0.17,,,0.17,0.00,VWS V14.01,2013-06-24 14:35:00,
2013-06-24 09:36:00,69.1,63.4,28.73,NNE,22,4.0,4.0,82,0.21,,,0.21,0.00,VWS V14.01,2013-06-24 14:36:00,
2013-06-24 09:37:00,68.9,63.2,28.73,SE,135,1.3,1.3,82,0.21,,,0.21,0.00,VWS V14.01,2013-06-24 14:37:00,
2013-06-24 09:38:00,68.4,63.0,28.73,ESE,112,1.3,1.3,83,0.21,,,0.21,0.00,VWS V14.01,2013-06-24 14:38:00,
2013-06-24 09:39:00,68.7,63.0,28.73,SSE,158,0.9,0.9,82,0.21,,,0.21,0.00,VWS V14.01,2013-06-24 14:39:00,
2013-06-24 09:40:00,68.7,63.0,28.73,SSE,158,0.0,0.0,82,0.21,,,0.21,0.00,VWS V14.01,2013-06-24 14:40:00,
2013-06-24 09:41:00,68.4,63.0,28.73,ESE,112,1.3,1.3,83,0.21,,,0.21,0.00,VWS V14.01,2013-06-24 14:41:00,
2013-06-24 09:42:00,68.2,62.8,28.73,East,90,2.5,2.5,83,0.21,,,0.21,0.00,VWS V14.01,2013-06-24 14:42:00,
2013-06-24 09:43:00,67.8,63.2,28.73,NNW,338,2.0,2.0,85,0.21,,,0.21,0.00,VWS V14.01,2013-06-24 14:43:00,
2013-06-24 09:44:00,68.0,63.0,28.73,WNW,292,1.1,1.1,84,0.21,,,0.21,0.00,VWS V14.01,2013-06-24 14:44:00,
2013-06-24 09:45:00,68.0,63.0,28.73,NE,45,2.0,2.0,84,0.21,,,0.21,0.00,VWS V14.01,2013-06-24 14:45:00,
2013-06-24 09:46:00,67.8,63.2,28.73,NNW,338,2.0,2.0,85,0.21,,,0.21,0.00,VWS V14.01,2013-06-24 14:46:00,
2013-06-24 09:47:00,67.8,63.2,28.73,NE,45,3.4,3.4,85,0.21,,,0.21,0.00,VWS V14.01,2013-06-24 14:47:00,
2013-06-24 09:48:00,67.5,63.1,28.67,NE,45,1.1,1.1,86,0.21,,,0.21,0.00,VWS V14.01,2013-06-24 14:48:00,
2013-06-24 09:49:00,67.5,62.8,28.73,ESE,112,1.6,1.6,85,0.21,,,0.21,0.00,VWS V14.01,2013-06-24 14:49:00,
2013-06-24 09:50:00,67.5,62.8,28.73,WNW,292,2.5,2.5,85,0.21,,,0.21,0.00,VWS V14.01,2013-06-24 14:50:00,
2013-06-24 09:51:00,67.5,63.1,28.73,NE,45,1.3,1.3,86,0.21,,,0.21,0.00,VWS V14.01,2013-06-24 14:51:00,
2013-06-24 09:52:00,67.3,63.0,28.67,SW,225,2.7,2.7,86,0.21,,,0.21,0.00,VWS V14.01,2013-06-24 14:52:00,
2013-06-24 09:53:00,67.1,63.1,28.67,NE,45,2.9,2.9,87,0.21,,,0.21,0.00,VWS V14.01,2013-06-24 14:53:00,
2013-06-24 09:54:00,67.3,63.0,28.67,East,90,2.5,2.5,86,0.21,,,0.21,0.00,VWS V14.01,2013-06-24 14:54:00,
2013-06-24 09:55:00,67.1,63.1,28.67,NNE,22,2.5,2.5,87,0.21,,,0.21,0.00,VWS V14.01,2013-06-24 14:55:00,
2013-06-24 09:56:00,67.1,63.1,28.67,East,90,4.3,4.3,87,0.21,,,0.21,0.00,VWS V14.01,2013-06-24 14:56:00,
2013-06-24 09:57:00,67.1,63.1,28.67,ENE,68,2.5,2.5,87,0.21,,,0.21,0.00,VWS V14.01,2013-06-24 14:57:00,
2013-06-24 09:58:00,66.9,63.3,28.67,East,90,2.9,2.9,88,0.21,,,0.21,0.00,VWS V14.01,2013-06-24 14:58:00,
2013-06-24 09:59:00,66.9,63.3,28.67,ENE,68,3.4,3.4,88,0.21,,,0.21,0.00,VWS V14.01,2013-06-24 14:59:00,
2013-06-24 10:00:00,66.9,63.3,28.67,East,90,1.3,1.3,88,0.21,,,0.21,0.00,VWS V14.01,2013-06-24 15:00:00,
2013-06-24 10:01:00,66.9,63.3,28.67,NNW,338,2.5,2.5,88,0.21,,,0.21,0.00,VWS V14.01,2013-06-24 15:01:00,
2013-06-24 10:02:00,66.9,63.6,28.67,East,90,2.7,2.7,89,0.21,,,0.21,0.00,VWS V14.01,2013-06-24 15:02:00,
2013-06-24 10:03:00,66.9,63.9,28.67,ENE,68,2.0,2.0,90,0.21,,,0.21,0.00,VWS V14.01,2013-06-24 15:03:00,
2013-06-24 10:04:00,66.9,63.9,28.67,NE,45,2.2,2.2,90,0.21,,,0.21,0.00,VWS V14.01,2013-06-24 15:04:00,
2013-06-24 10:05:00,66.9,63.9,28.67,South,180,2.9,2.9,90,0.21,,,0.21,0.00,VWS V14.01,2013-06-24 15:05:00,
2013-06-24 10:06:00,66.9,63.9,28.67,ENE,68,3.1,3.1,90,0.21,,,0.21,0.00,VWS V14.01,2013-06-24 15:06:00,
2013-06-24 10:07:00,66.9,63.9,28.67,NE,45,3.4,3.4,90,0.21,,,0.21,0.00,VWS V14.01,2013-06-24 15:07:00,
2013-06-24 10:08:00,66.7,64.0,28.67,ENE,68,5.4,5.4,91,0.21,,,0.21,0.00,VWS V14.01,2013-06-24 15:08:00,
2013-06-24 10:09:00,66.9,64.2,28.67,ESE,112,3.1,3.1,91,0.21,,,0.21,0.00,VWS V14.01,2013-06-24 15:09:00,
2013-06-24 10:10:00,66.9,64.2,28.67,ENE,68,3.1,3.1,91,0.21,,,0.21,0.00,VWS V14.01,2013-06-24 15:10:00,
2013-06-24 10:11:00,66.7,64.0,28.67,NNE,22,6.0,6.0,91,0.21,,,0.21,0.00,VWS V14.01,2013-06-24 15:11:00,
2013-06-24 10:12:00,66.7,63.7,28.67,ENE,68,3.8,3.8,90,0.21,,,0.21,0.00,VWS V14.01,2013-06-24 15:12:00,
2013-06-24 10:13:00,66.7,63.7,28.67,SE,135,3.8,3.8,90,0.17,,,0.21,0.00,VWS V14.01,2013-06-24 15:13:00,
2013-06-24 10:14:00,66.7,64.0,28.67,SW,225,5.8,5.8,91,0.08,,,0.21,0.00,VWS V14.01,2013-06-24 15:14:00,
2013-06-24 10:15:00,66.7,63.7,28.67,NW,315,5.6,5.6,90,0.17,,,0.21,0.00,VWS V14.01,2013-06-24 15:15:00,
2013-06-24 10:16:00,66.7,64.0,28.67,South,180,5.4,5.4,91,0.08,,,0.21,0.00,VWS V14.01,2013-06-24 15:16:00,
2013-06-24 10:17:00,66.7,64.0,28.67,ESE,112,4.0,4.0,91,0.08,,,0.21,0.00,VWS V14.01,2013-06-24 15:17:00,
2013-06-24 10:18:00,66.9,64.5,28.67,SSE,158,8.1,8.1,92,0.08,,,0.21,0.00,VWS V14.01,2013-06-24 15:18:00,
2013-06-24 10:19:00,67.1,64.7,28.55,East,90,7.6,7.6,92,0.04,,,0.21,0.00,VWS V14.01,2013-06-24 15:19:00,
2013-06-24 10:20:00,66.9,64.5,28.67,East,90,6.3,6.3,92,0.08,,,0.21,0.00,VWS V14.01,2013-06-24 15:20:00,
2013-06-24 10:21:00,67.1,64.7,28.67,ESE,112,6.3,6.3,92,0.04,,,0.21,0.00,VWS V14.01,2013-06-24 15:21:00,
2013-06-24 10:22:00,67.1,64.7,28.55,SSE,158,5.6,5.6,92,0.04,,,0.21,0.00,VWS V14.01,2013-06-24 15:22:00,
2013-06-24 10:23:00,67.1,64.7,28.55,SSE,158,8.5,8.5,92,0.04,,,0.21,0.00,VWS V14.01,2013-06-24 15:23:00,
2013-06-24 10:24:00,68.0,65.3,28.55,East,90,4.0,4.0,91,0.04,,,0.21,0.00,VWS V14.01,2013-06-24 15:24:00,
2013-06-24 10:25:00,67.6,65.2,28.55,ESE,112,4.3,4.3,92,0.04,,,0.21,0.00,VWS V14.01,2013-06-24 15:25:00,
2013-06-24 10:26:00,68.0,65.3,28.55,SSE,158,7.6,7.6,91,0.04,,,0.21,0.00,VWS V14.01,2013-06-24 15:26:00,
2013-06-24 10:27:00,68.2,65.1,28.55,East,90,4.0,4.0,90,0.04,,,0.21,0.00,VWS V14.01,2013-06-24 15:27:00,
2013-06-24 10:28:00,68.2,65.1,28.55,SE,135,3.8,3.8,90,0.04,,,0.21,0.00,VWS V14.01,2013-06-24 15:28:00,
2013-06-24 10:29:00,68.9,65.8,28.55,ESE,112,8.1,8.1,90,0.04,,,0.21,0.00,VWS V14.01,2013-06-24 15:29:00,
2013-06-24 10:30:00,68.7,65.7,28.55,SE,135,9.2,9.2,90,0.04,,,0.21,0.00,VWS V14.01,2013-06-24 15:30:00,
2013-06-24 10:31:00,68.7,65.7,28.55,South,180,7.8,7.8,90,0.04,,,0.21,0.00,VWS V14.01,2013-06-24 15:31:00,
2013-06-24 10:32:00,68.9,65.8,28.55,ESE,112,8.1,8.1,90,0.04,,,0.21,0.00,VWS V14.01,2013-06-24 15:32:00,
2013-06-24 10:33:00,69.1,66.0,28.55,ESE,112,2.7,2.7,90,0.04,,,0.21,0.00,VWS V14.01,2013-06-24 15:33:00,
2013-06-24 10:34:00,69.1,66.0,28.55,South,180,4.9,4.9,90,0.00,,,0.21,0.00,VWS V14.01,2013-06-24 15:34:00,
2013-06-24 10:35:00,69.1,66.0,28.55,SSE,158,8.7,8.7,90,0.04,,,0.21,0.00,VWS V14.01,2013-06-24 15:35:00,
2013-06-24 10:36:00,69.1,66.0,28.55,SE,135,6.3,6.3,90,0.04,,,0.21,0.00,VWS V14.01,2013-06-24 15:36:00,
2013-06-24 10:37:00,69.1,66.0,28.55,South,180,4.9,4.9,90,0.00,,,0.21,0.00,VWS V14.01,2013-06-24 15:37:00,
2013-06-24 10:38:00,69.3,65.9,28.52,ESE,112,7.8,7.8,89,0.00,,,0.21,0.00,VWS V14.01,2013-06-24 15:38:00,
2013-06-24 10:39:00,69.4,65.7,28.52,SSW,202,3.8,3.8,88,0.00,,,0.21,0.00,VWS V14.01,2013-06-24 15:39:00,
2013-06-24 10:40:00,69.4,66.1,28.52,NE,45,4.7,4.7,89,0.00,,,0.21,0.00,VWS V14.01,2013-06-24 15:40:00,
2013-06-24 10:41:00,69.4,66.1,28.52,East,90,2.7,2.7,89,0.00,,,0.21,0.00,VWS V14.01,2013-06-24 15:41:00,
2013-06-24 10:42:00,69.4,65.7,28.52,SSW,202,3.8,3.8,88,0.00,,,0.21,0.00,VWS V14.01,2013-06-24 15:42:00,
2013-06-24 10:43:00,69.6,65.9,28.52,SSE,158,3.8,3.8,88,0.00,,,0.21,0.00,VWS V14.01,2013-06-24 15:43:00,
2013-06-24 10:44:00,69.8,65.8,28.52,East,90,2.5,2.5,87,0.00,,,0.21,0.00,VWS V14.01,2013-06-24 15:44:00,
2013-06-24 10:45:00,69.6,65.9,28.52,SSE,158,2.9,2.9,88,0.00,,,0.21,0.00,VWS V14.01,2013-06-24 15:45:00,
2013-06-24 10:46:00,69.6,65.9,28.52,SE,135,2.9,2.9,88,0.00,,,0.21,0.00,VWS V14.01,2013-06-24 15:46:00,
2013-06-24 10:47:00,69.8,65.8,28.52,East,90,2.5,2.5,87,0.00,,,0.21,0.00,VWS V14.01,2013-06-24 15:47:00,
2013-06-24 10:48:00,69.8,65.8,28.52,SSE,158,2.9,2.9,87,0.00,,,0.21,0.00,VWS V14.01,2013-06-24 15:48:00,
2013-06-24 10:49:00,69.8,65.8,28.55,South,180,4.9,4.9,87,0.00,,,0.21,0.00,VWS V14.01,2013-06-24 15:49:00,
2013-06-24 10:50:00,69.8,65.8,28.52,ENE,68,1.1,1.1,87,0.00,,,0.21,0.00,VWS V14.01,2013-06-24 15:50:00,
2013-06-24 10:51:00,69.8,65.8,28.55,SE,135,1.6,1.6,87,0.00,,,0.21,0.00,VWS V14.01,2013-06-24 15:51:00,
2013-06-24 10:52:00,69.8,65.8,28.55,South,180,4.9,4.9,87,0.00,,,0.21,0.00,VWS V14.01,2013-06-24 15:52:00,
2013-06-24 10:53:00,70.0,65.9,28.55,SE,135,5.4,5.4,87,0.00,,,0.21,0.00,VWS V14.01,2013-06-24 15:53:00,
2013-06-24 10:54:00,70.7,64.2,28.55,South,180,5.6,5.6,80,0.00,,,0.21,0.00,VWS V14.01,2013-06-24 15:54:00,
2013-06-24 10:55:00,70.2,64.8,28.55,West,270,5.8,5.8,83,0.00,,,0.21,0.00,VWS V14.01,2013-06-24 15:55:00,
2013-06-24 10:56:00,70.5,64.4,28.55,South,180,12.8,12.8,81,0.00,,,0.21,0.00,VWS V14.01,2013-06-24 15:56:00,
2013-06-24 10:57:00,70.7,64.2,28.55,South,180,5.6,5.6,80,0.00,,,0.21,0.00,VWS V14.01,2013-06-24 15:57:00,
2013-06-24 10:58:00,70.9,64.4,28.55,SSE,158,3.6,3.6,80,0.00,,,0.21,0.00,VWS V14.01,2013-06-24 15:58:00,
2013-06-24 10:59:00,71.1,64.2,28.55,SSW,202,4.9,4.9,79,0.00,,,0.21,0.00,VWS V14.01,2013-06-24 15:59:00,
2013-06-24 11:00:00,70.9,64.1,28.55,West,270,4.0,4.0,79,0.00,,,0.21,0.00,VWS V14.01,2013-06-24 16:00:00,
2013-06-24 11:01:00,71.1,64.2,28.55,SSE,158,1.3,1.3,79,0.00,,,0.21,0.00,VWS V14.01,2013-06-24 16:01:00,
2013-06-24 11:02:00,71.1,64.2,28.55,SSW,202,4.9,4.9,79,0.00,,,0.21,0.00,VWS V14.01,2013-06-24 16:02:00,
2013-06-24 11:03:00,71.2,63.7,28.55,South,180,3.6,3.6,77,0.00,,,0.21,0.00,VWS V14.01,2013-06-24 16:03:00,
2013-06-24 11:04:00,71.6,63.3,28.61,South,180,2.2,2.2,75,0.00,,,0.21,0.00,VWS V14.01,2013-06-24 16:04:00,
2013-06-24 11:05:00,71.4,63.5,28.55,SW,225,4.0,4.0,76,0.00,,,0.21,0.00,VWS V14.01,2013-06-24 16:05:00,
2013-06-24 11:06:00,71.6,63.3,28.55,South,180,3.4,3.4,75,0.00,,,0.21,0.00,VWS V14.01,2013-06-24 16:06:00,
2013-06-24 11:07:00,71.6,63.3,28.61,South,180,2.2,2.2,75,0.00,,,0.21,0.00,VWS V14.01,2013-06-24 16:07:00,
2013-06-24 11:08:00,71.6,63.3,28.61,SW,225,3.6,3.6,75,0.00,,,0.21,0.00,VWS V14.01,2013-06-24 16:08:00,
2013-06-24 11:09:00,72.0,62.8,28.61,WNW,292,3.1,3.1,73,0.00,,,0.21,0.00,VWS V14.01,2013-06-24 16:09:00,
2013-06-24 11:10:00,71.8,62.3,28.61,West,270,2.9,2.9,72,0.00,,,0.21,0.00,VWS V14.01,2013-06-24 16:10:00,
2013-06-24 11:11:00,72.0,62.5,28.61,West,270,4.9,4.9,72,0.00,,,0.21,0.00,VWS V14.01,2013-06-24 16:11:00,
2013-06-24 11:12:00,72.0,62.8,28.61,WNW,292,3.1,3.1,73,0.00,,,0.21,0.00,VWS V14.01,2013-06-24 16:12:00,
2013-06-24 11:13:00,72.1,63.4,28.61,West,270,1.6,1.6,74,0.00,,,0.21,0.00,VWS V14.01,2013-06-24 16:13:00,
2013-06-24 11:14:00,72.0,64.0,28.61,West,270,1.6,1.6,76,0.00,,,0.21,0.00,VWS V14.01,2013-06-24 16:14:00,
2013-06-24 11:15:00,72.0,63.6,28.61,NE,45,0.0,0.0,75,0.00,,,0.21,0.00,VWS V14.01,2013-06-24 16:15:00,
2013-06-24 11:16:00,72.0,63.6,28.61,SE,135,2.0,2.0,75,0.00,,,0.21,0.00,VWS V14.01,2013-06-24 16:16:00,
2013-06-24 11:17:00,72.0,64.0,28.61,West,270,1.6,1.6,76,0.00,,,0.21,0.00,VWS V14.01,2013-06-24 16:17:00,
2013-06-24 11:18:00,72.0,64.0,28.61,SSW,202,3.4,3.4,76,0.00,,,0.21,0.00,VWS V14.01,2013-06-24 16:18:00,
2013-06-24 11:19:00,72.1,64.2,28.64,SW,225,1.6,1.6,76,0.00,,,0.21,0.00,VWS V14.01,2013-06-24 16:19:00,
2013-06-24 11:20:00,72.0,64.0,28.61,SW,225,1.1,1.1,76,0.00,,,0.21,0.00,VWS V14.01,2013-06-24 16:20:00,
2013-06-24 11:21:00,72.0,64.0,28.61,WSW,248,2.0,2.0,76,0.00,,,0.21,0.00,VWS V14.01,2013-06-24 16:21:00,
2013-06-24 11:22:00,72.1,64.2,28.64,SW,225,4.3,4.3,76,0.00,,,0.21,0.00,VWS V14.01,2013-06-24 16:22:00,
2013-06-24 11:23:00,72.1,64.2,28.64,WSW,248,3.1,3.1,76,0.00,,,0.21,0.00,VWS V14.01,2013-06-24 16:23:00,
2013-06-24 11:24:00,72.5,64.5,28.64,South,180,2.0,2.0,76,0.00,,,0.21,0.00,VWS V14.01,2013-06-24 16:24:00,
2013-06-24 11:25:00,72.3,64.0,28.64,WSW,248,1.6,1.6,75,0.00,,,0.21,0.00,VWS V14.01,2013-06-24 16:25:00,
2013-06-24 11:26:00,72.5,64.5,28.64,SW,225,0.0,0.0,76,0.00,,,0.21,0.00,VWS V14.01,2013-06-24 16:26:00,
2013-06-24 11:27:00,72.5,64.5,28.64,South,180,0.9,0.9,76,0.00,,,0.21,0.00,VWS V14.01,2013-06-24 16:27:00,
2013-06-24 11:28:00,72.5,64.5,28.64,South,180,0.0,0.0,76,0.00,,,0.21,0.00,VWS V14.01,2013-06-24 16:28:00,
2013-06-24 11:29:00,72.7,65.1,28.64,South,180,2.0,2.0,77,0.00,,,0.21,0.00,VWS V14.01,2013-06-24 16:29:00,
2013-06-24 11:30:00,72.9,64.9,28.64,West,270,2.5,2.5,76,0.00,,,0.21,0.00,VWS V14.01,2013-06-24 16:30:00,
2013-06-24 11:31:00,72.7,64.7,28.64,SW,225,2.0,2.0,76,0.00,,,0.21,0.00,VWS V14.01,2013-06-24 16:31:00,
2013-06-24 11:32:00,72.9,64.9,28.64,West,270,1.3,1.3,76,0.00,,,0.21,0.00,VWS V14.01,2013-06-24 16:32:00,
2013-06-24 11:33:00,72.9,64.9,28.64,SW,225,3.4,3.4,76,0.00,,,0.21,0.00,VWS V14.01,2013-06-24 16:33:00,
2013-06-24 11:34:00,72.9,64.9,28.64,SSE,158,2.2,2.2,76,0.00,,,0.21,0.00,VWS V14.01,2013-06-24 16:34:00,
2013-06-24 11:35:00,73.2,65.2,28.67,SW,225,2.9,2.9,76,0.00,,,0.21,0.00,VWS V14.01,2013-06-24 16:35:00,
2013-06-24 11:36:00,73.0,65.0,28.64,SSW,202,2.9,2.9,76,0.00,,,0.21,0.00,VWS V14.01,2013-06-24 16:36:00,
2013-06-24 11:37:00,73.2,65.2,28.67,SW,225,2.7,2.7,76,0.00,,,0.21,0.00,VWS V14.01,2013-06-24 16:37:00,
2013-06-24 11:38:00,73.2,65.2,28.67,SW,225,2.5,2.5,76,0.00,,,0.21,0.00,VWS V14.01,2013-06-24 16:38:00,
2013-06-24 11:39:00,73.4,65.4,28.67,SSW,202,3.6,3.6,76,0.00,,,0.21,0.00,VWS V14.01,2013-06-24 16:39:00,
2013-06-24 11:40:00,73.8,65.7,28.67,SW,225,1.3,1.3,76,0.00,,,0.21,0.00,VWS V14.01,2013-06-24 16:40:00,
2013-06-24 11:41:00,73.6,65.6,28.67,SW,225,2.5,2.5,76,0.00,,,0.21,0.00,VWS V14.01,2013-06-24 16:41:00,
2013-06-24 11:42:00,73.8,65.7,28.67,West,270,1.6,1.6,76,0.00,,,0.21,0.00,VWS V14.01,2013-06-24 16:42:00,
2013-06-24 11:43:00,73.9,65.9,28.67,SW,225,1.3,1.3,76,0.00,,,0.21,0.00,VWS V14.01,2013-06-24 16:43:00,
2013-06-24 11:44:00,73.9,66.3,28.67,WSW,248,2.0,2.0,77,0.00,,,0.21,0.00,VWS V14.01,2013-06-24 16:44:00,
2013-06-24 11:45:00,74.1,66.1,28.67,West,270,2.5,2.5,76,0.00,,,0.21,0.00,VWS V14.01,2013-06-24 16:45:00,
2013-06-24 11:46:00,74.1,66.1,28.67,West,270,2.7,2.7,76,0.00,,,0.21,0.00,VWS V14.01,2013-06-24 16:46:00,
2013-06-24 11:47:00,74.1,66.1,28.67,West,270,1.6,1.6,76,0.00,,,0.21,0.00,VWS V14.01,2013-06-24 16:47:00,
2013-06-24 11:48:00,74.1,66.1,28.67,West,270,2.5,2.5,76,0.00,,,0.21,0.00,VWS V14.01,2013-06-24 16:48:00,
2013-06-24 11:49:00,74.3,66.2,28.67,WSW,248,1.3,1.3,76,0.00,,,0.21,0.00,VWS V14.01,2013-06-24 16:49:00,
2013-06-24 11:50:00,74.7,67.0,28.67,WSW,248,1.6,1.6,77,0.00,,,0.21,0.00,VWS V14.01,2013-06-24 16:50:00,
2013-06-24 11:51:00,74.5,66.4,28.67,SSW,202,2.5,2.5,76,0.00,,,0.21,0.00,VWS V14.01,2013-06-24 16:51:00,
2013-06-24 11:52:00,74.7,66.6,28.67,SSW,202,1.6,1.6,76,0.00,,,0.21,0.00,VWS V14.01,2013-06-24 16:52:00,
2013-06-24 11:53:00,74.7,67.0,28.67,WSW,248,2.5,2.5,77,0.00,,,0.21,0.00,VWS V14.01,2013-06-24 16:53:00,
2013-06-24 11:54:00,74.7,67.0,28.67,South,180,1.3,1.3,77,0.00,,,0.21,0.00,VWS V14.01,2013-06-24 16:54:00,
2013-06-24 11:55:00,75.0,66.6,28.67,NW,315,2.9,2.9,75,0.00,,,0.21,0.00,VWS V14.01,2013-06-24 16:55:00,
2013-06-24 11:56:00,74.8,66.8,28.67,SW,225,2.5,2.5,76,0.00,,,0.21,0.00,VWS V14.01,2013-06-24 16:56:00,
2013-06-24 11:57:00,75.0,66.9,28.67,SW,225,2.0,2.0,76,0.00,,,0.21,0.00,VWS V14.01,2013-06-24 16:57:00,
2013-06-24 11:58:00,75.0,66.6,28.67,NW,315,2.9,2.9,75,0.00,,,0.21,0.00,VWS V14.01,2013-06-24 16:58:00,
2013-06-24 11:59:00,75.2,66.7,28.67,WSW,248,1.3,1.3,75,0.00,,,0.21,0.00,VWS V14.01,2013-06-24 16:59:00,
2013-06-24 12:00:00,75.6,67.1,28.67,WSW,248,2.0,2.0,75,0.00,,,0.21,0.00,VWS V14.01,2013-06-24 17:00:00,
2013-06-24 12:01:00,75.2,66.7,28.67,SW,225,3.4,3.4,75,0.00,,,0.21,0.00,VWS V14.01,2013-06-24 17:01:00,
2013-06-24 12:02:00,75.4,66.9,28.67,SW,225,1.1,1.1,75,0.00,,,0.21,0.00,VWS V14.01,2013-06-24 17:02:00,
2013-06-24 12:03:00,75.6,67.1,28.67,WSW,248,2.0,2.0,75,0.00,,,0.21,0.00,VWS V14.01,2013-06-24 17:03:00,
2013-06-24 12:04:00,75.6,67.1,28.67,SW,225,1.3,1.3,75,0.00,,,0.21,0.00,VWS V14.01,2013-06-24 17:04:00,
2013-06-24 12:05:00,75.9,67.0,28.67,South,180,3.1,3.1,74,0.00,,,0.21,0.00,VWS V14.01,2013-06-24 17:05:00,
2013-06-24 12:06:00,75.9,67.4,28.67,SSW,202,3.1,3.1,75,0.00,,,0.21,0.00,VWS V14.01,2013-06-24 17:06:00,
2013-06-24 12:07:00,75.9,67.4,28.67,NNW,338,2.2,2.2,75,0.00,,,0.21,0.00,VWS V14.01,2013-06-24 17:07:00,
2013-06-24 12:08:00,75.9,67.0,28.67,South,180,3.1,3.1,74,0.00,,,0.21,0.00,VWS V14.01,2013-06-24 17:08:00,
2013-06-24 12:09:00,75.9,67.0,28.67,SSE,158,1.6,1.6,74,0.00,,,0.21,0.00,VWS V14.01,2013-06-24 17:09:00,
2013-06-24 12:10:00,75.7,66.1,28.67,South,180,2.9,2.9,72,0.00,,,0.21,0.00,VWS V14.01,2013-06-24 17:10:00,
2013-06-24 12:11:00,75.9,67.0,28.67,SSW,202,2.7,2.7,74,0.00,,,0.21,0.00,VWS V14.01,2013-06-24 17:11:00,
2013-06-24 12:12:00,75.7,66.9,28.67,SSE,158,2.5,2.5,74,0.00,,,0.21,0.00,VWS V14.01,2013-06-24 17:12:00,
2013-06-24 12:13:00,75.7,66.1,28.67,South,180,2.9,2.9,72,0.00,,,0.21,0.00,VWS V14.01,2013-06-24 17:13:00,
2013-06-24 12:14:00,75.9,66.2,28.67,SW,225,2.0,2.0,72,0.00,,,0.21,0.00,VWS V14.01,2013-06-24 17:14:00,
2013-06-24 12:15:00,75.9,65.4,28.67,SSW,202,2.5,2.5,70,0.00,,,0.21,0.00,VWS V14.01,2013-06-24 17:15:00,
2013-06-24 12:16:00,75.9,65.8,28.67,SW,225,2.5,2.5,71,0.00,,,0.21,0.00,VWS V14.01,2013-06-24 17:16:00,
2013-06-24 12:17:00,75.9,65.8,28.67,SW,225,3.4,3.4,71,0.00,,,0.21,0.00,VWS V14.01,2013-06-24 17:17:00,
2013-06-24 12:18:00,75.9,65.4,28.67,SSW,202,2.5,2.5,70,0.00,,,0.21,0.00,VWS V14.01,2013-06-24 17:18:00,
2013-06-24 12:19:00,75.9,65.4,28.67,SSW,202,3.4,3.4,70,0.00,,,0.21,0.00,VWS V14.01,2013-06-24 17:19:00,
2013-06-24 12:20:00,76.1,65.6,28.67,SW,225,1.3,1.3,70,0.00,,,0.21,0.00,VWS V14.01,2013-06-24 17:20:00,
2013-06-24 12:21:00,75.9,65.4,28.67,SSW,202,2.9,2.9,70,0.00,,,0.21,0.00,VWS V14.01,2013-06-24 17:21:00,
2013-06-24 12:22:00,75.9,65.4,28.67,SW,225,1.6,1.6,70,0.00,,,0.21,0.00,VWS V14.01,2013-06-24 17:22:00,
2013-06-24 12:23:00,76.1,65.6,28.67,SW,225,1.3,1.3,70,0.00,,,0.21,0.00,VWS V14.01,2013-06-24 17:23:00,
2013-06-24 12:24:00,76.1,65.6,28.67,South,180,3.1,3.1,70,0.00,,,0.21,0.00,VWS V14.01,2013-06-24 17:24:00,
2013-06-24 12:25:00,76.5,66.0,28.67,SSE,158,4.9,4.9,70,0.00,,,0.21,0.00,VWS V14.01,2013-06-24 17:25:00,
2013-06-24 12:26:00,76.3,65.8,28.67,SSE,158,1.1,1.1,70,0.00,,,0.21,0.00,VWS V14.01,2013-06-24 17:26:00,
2013-06-24 12:27:00,76.5,66.0,28.67,SSE,158,5.4,5.4,70,0.00,,,0.21,0.00,VWS V14.01,2013-06-24 17:27:00,
2013-06-24 12:28:00,76.5,66.0,28.67,SSE,158,4.9,4.9,70,0.00,,,0.21,0.00,VWS V14.01,2013-06-24 17:28:00,
2013-06-24 12:29:00,76.5,65.5,28.67,South,180,1.6,1.6,69,0.00,,,0.21,0.00,VWS V14.01,2013-06-24 17:29:00,
2013-06-24 12:30:00,77.0,65.6,28.67,South,180,4.0,4.0,68,0.00,,,0.21,0.00,VWS V14.01,2013-06-24 17:30:00,
2013-06-24 12:31:00,76.6,65.7,28.67,NE,45,2.7,2.7,69,0.00,,,0.21,0.00,VWS V14.01,2013-06-24 17:31:00,
2013-06-24 12:32:00,77.0,66.1,28.67,SSE,158,4.0,4.0,69,0.00,,,0.21,0.00,VWS V14.01,2013-06-24 17:32:00,
2013-06-24 12:33:00,77.0,65.6,28.67,South,180,4.0,4.0,68,0.00,,,0.21,0.00,VWS V14.01,2013-06-24 17:33:00,
2013-06-24 12:34:00,77.2,65.8,28.67,South,180,1.1,1.1,68,0.00,,,0.21,0.00,VWS V14.01,2013-06-24 17:34:00,
2013-06-24 12:35:00,78.1,66.2,28.67,SW,225,2.9,2.9,67,0.00,,,0.21,0.00,VWS V14.01,2013-06-24 17:35:00,
2013-06-24 12:36:00,77.9,66.9,28.67,South,180,0.0,0.0,69,0.00,,,0.21,0.00,VWS V14.01,2013-06-24 17:36:00,
2013-06-24 12:37:00,77.9,66.1,28.67,SSE,158,4.0,4.0,67,0.00,,,0.21,0.00,VWS V14.01,2013-06-24 17:37:00,
2013-06-24 12:38:00,78.1,66.2,28.67,SW,225,2.9,2.9,67,0.00,,,0.21,0.00,VWS V14.01,2013-06-24 17:38:00,
2013-06-24 12:39:00,78.4,67.0,28.67,South,180,1.6,1.6,68,0.00,,,0.21,0.00,VWS V14.01,2013-06-24 17:39:00,
2013-06-24 12:40:00,79.3,67.4,28.67,South,180,1.1,1.1,67,0.00,,,0.21,0.00,VWS V14.01,2013-06-24 17:40:00,
2013-06-24 12:41:00,78.8,66.9,28.67,SE,135,2.0,2.0,67,0.00,,,0.21,0.00,VWS V14.01,2013-06-24 17:41:00,
2013-06-24 12:42:00,79.0,67.1,28.67,South,180,2.7,2.7,67,0.00,,,0.21,0.00,VWS V14.01,2013-06-24 17:42:00,
2013-06-24 12:43:00,79.3,67.4,28.67,South,180,1.1,1.1,67,0.00,,,0.21,0.00,VWS V14.01,2013-06-24 17:43:00,
2013-06-24 12:44:00,79.7,67.8,28.67,South,180,1.6,1.6,67,0.00,,,0.21,0.00,VWS V14.01,2013-06-24 17:44:00,
2013-06-24 12:45:00,80.2,66.5,28.67,SSE,158,3.6,3.6,63,0.00,,,0.21,0.00,VWS V14.01,2013-06-24 17:45:00,
2013-06-24 12:46:00,80.1,67.2,28.67,SSW,202,2.5,2.5,65,0.00,,,0.21,0.00,VWS V14.01,2013-06-24 17:46:00,
2013-06-24 12:47:00,80.1,67.2,28.67,SSW,202,2.7,2.7,65,0.00,,,0.21,0.00,VWS V14.01,2013-06-24 17:47:00,
2013-06-24 12:48:00,80.2,66.5,28.67,SSE,158,3.6,3.6,63,0.00,,,0.21,0.00,VWS V14.01,2013-06-24 17:48:00,
2013-06-24 12:49:00,80.2,66.5,28.67,SSW,202,1.3,1.3,63,0.00,,,0.21,0.00,VWS V14.01,2013-06-24 17:49:00,
2013-06-24 12:50:00,80.2,65.1,28.67,WSW,248,2.9,2.9,60,0.00,,,0.21,0.00,VWS V14.01,2013-06-24 17:50:00,
2013-06-24 12:51:00,80.6,65.9,28.67,SSW,202,2.7,2.7,61,0.00,,,0.21,0.00,VWS V14.01,2013-06-24 17:51:00,
2013-06-24 12:52:00,80.2,65.1,28.67,SSW,202,6.0,6.0,60,0.00,,,0.21,0.00,VWS V14.01,2013-06-24 17:52:00,
2013-06-24 12:53:00,80.2,65.1,28.67,WSW,248,2.9,2.9,60,0.00,,,0.21,0.00,VWS V14.01,2013-06-24 17:53:00,
2013-06-24 12:54:00,80.2,65.1,28.67,SSW,202,3.4,3.4,60,0.00,,,0.21,0.00,VWS V14.01,2013-06-24 17:54:00,
2013-06-24 12:55:00,80.4,64.8,28.67,South,180,6.3,6.3,59,0.00,,,0.21,0.00,VWS V14.01,2013-06-24 17:55:00,
2013-06-24 12:56:00,80.4,65.3,28.67,SSE,158,4.9,4.9,60,0.00,,,0.21,0.00,VWS V14.01,2013-06-24 17:56:00,
2013-06-24 12:57:00,80.4,65.3,28.67,SSE,158,6.5,6.5,60,0.00,,,0.21,0.00,VWS V14.01,2013-06-24 17:57:00,
2013-06-24 12:58:00,80.4,64.8,28.67,South,180,6.3,6.3,59,0.00,,,0.21,0.00,VWS V14.01,2013-06-24 17:58:00,
2013-06-24 12:59:00,80.8,65.1,28.67,South,180,4.0,4.0,59,0.00,,,0.21,0.00,VWS V14.01,2013-06-24 17:59:00,
2013-06-24 13:00:00,80.4,64.8,28.67,SSE,158,4.0,4.0,59,0.00,,,0.21,0.00,VWS V14.01,2013-06-24 18:00:00,
2013-06-24 13:01:00,80.4,63.8,28.67,SSE,158,8.1,8.1,57,0.00,,,0.21,0.00,VWS V14.01,2013-06-24 18:01:00,
2013-06-24 13:02:00,80.4,64.8,28.67,SSE,158,3.4,3.4,59,0.00,,,0.21,0.00,VWS V14.01,2013-06-24 18:02:00,
2013-06-24 13:03:00,80.4,64.8,28.67,SSE,158,4.0,4.0,59,0.00,,,0.21,0.00,VWS V14.01,2013-06-24 18:03:00,
2013-06-24 13:04:00,80.8,65.6,28.67,South,180,3.8,3.8,60,0.00,,,0.21,0.00,VWS V14.01,2013-06-24 18:04:00,
2013-06-24 13:05:00,81.7,66.5,28.64,SW,225,3.1,3.1,60,0.00,,,0.21,0.00,VWS V14.01,2013-06-24 18:05:00,
2013-06-24 13:06:00,81.0,65.3,28.67,South,180,5.4,5.4,59,0.00,,,0.21,0.00,VWS V14.01,2013-06-24 18:06:00,
2013-06-24 13:07:00,81.1,65.5,28.64,SE,135,2.7,2.7,59,0.00,,,0.21,0.00,VWS V14.01,2013-06-24 18:07:00,
2013-06-24 13:08:00,81.7,66.5,28.64,SW,225,3.1,3.1,60,0.00,,,0.21,0.00,VWS V14.01,2013-06-24 18:08:00,
2013-06-24 13:09:00,82.0,66.8,28.64,SE,135,4.0,4.0,60,0.00,,,0.21,0.00,VWS V14.01,2013-06-24 18:09:00,
2013-06-24 13:10:00,82.0,65.3,28.64,South,180,4.0,4.0,57,0.00,,,0.21,0.00,VWS V14.01,2013-06-24 18:10:00,
2013-06-24 13:11:00,82.0,66.3,28.64,SW,225,4.7,4.7,59,0.00,,,0.21,0.00,VWS V14.01,2013-06-24 18:11:00,
2013-06-24 13:12:00,82.0,66.3,28.64,SW,225,3.6,3.6,59,0.00,,,0.21,0.00,VWS V14.01,2013-06-24 18:12:00,
2013-06-24 13:13:00,82.0,65.3,28.64,South,180,4.0,4.0,57,0.00,,,0.21,0.00,VWS V14.01,2013-06-24 18:13:00,
2013-06-24 13:14:00,82.0,65.3,28.64,SSW,202,1.6,1.6,57,0.00,,,0.21,0.00,VWS V14.01,2013-06-24 18:14:00,
2013-06-24 13:15:00,82.0,65.3,28.64,South,180,3.6,3.6,57,0.00,,,0.21,0.00,VWS V14.01,2013-06-24 18:15:00,
2013-06-24 13:16:00,82.0,65.8,28.64,SSW,202,6.0,6.0,58,0.00,,,0.21,0.00,VWS V14.01,2013-06-24 18:16:00,
2013-06-24 13:17:00,81.9,64.6,28.64,SSW,202,4.7,4.7,56,0.00,,,0.21,0.00,VWS V14.01,2013-06-24 18:17:00,
2013-06-24 13:18:00,82.0,65.3,28.64,South,180,3.6,3.6,57,0.00,,,0.21,0.00,VWS V14.01,2013-06-24 18:18:00,
2013-06-24 13:19:00,82.4,66.2,28.64,South,180,1.6,1.6,58,0.00,,,0.21,0.00,VWS V14.01,2013-06-24 18:19:00,
2013-06-24 13:20:00,82.4,64.6,28.64,WSW,248,5.4,5.4,55,0.00,,,0.21,0.00,VWS V14.01,2013-06-24 18:20:00,
2013-06-24 13:21:00,82.4,66.2,28.64,South,180,3.4,3.4,58,0.00,,,0.21,0.00,VWS V14.01,2013-06-24 18:21:00,
2013-06-24 13:22:00,82.6,66.3,28.64,South,180,3.8,3.8,58,0.00,,,0.21,0.00,VWS V14.01,2013-06-24 18:22:00,
2013-06-24 13:23:00,82.4,64.6,28.64,WSW,248,5.4,5.4,55,0.00,,,0.21,0.00,VWS V14.01,2013-06-24 18:23:00,
2013-06-24 13:24:00,82.2,64.5,28.64,SW,225,7.6,7.6,55,0.00,,,0.21,0.00,VWS V14.01,2013-06-24 18:24:00,
2013-06-24 13:25:00,82.0,64.3,28.64,South,180,7.8,7.8,55,0.00,,,0.21,0.00,VWS V14.01,2013-06-24 18:25:00,
2013-06-24 13:26:00,82.2,65.5,28.64,South,180,10.5,10.5,57,0.00,,,0.21,0.00,VWS V14.01,2013-06-24 18:26:00,
2013-06-24 13:27:00,82.0,64.3,28.64,South,180,8.7,8.7,55,0.00,,,0.21,0.00,VWS V14.01,2013-06-24 18:27:00,
2013-06-24 13:28:00,82.0,64.3,28.64,South,180,8.7,8.7,55,0.00,,,0.21,0.00,VWS V14.01,2013-06-24 18:28:00,
2013-06-24 13:29:00,82.0,64.3,28.64,South,180,4.9,4.9,55,0.00,,,0.21,0.00,VWS V14.01,2013-06-24 18:29:00,
2013-06-24 13:30:00,82.9,65.1,28.64,SSE,158,3.6,3.6,55,0.00,,,0.21,0.00,VWS V14.01,2013-06-24 18:30:00,
2013-06-24 13:31:00,82.4,65.1,28.64,SSE,158,3.8,3.8,56,0.00,,,0.21,0.00,VWS V14.01,2013-06-24 18:31:00,
2013-06-24 13:32:00,82.6,65.8,28.64,WSW,248,2.9,2.9,57,0.00,,,0.21,0.00,VWS V14.01,2013-06-24 18:32:00,
2013-06-24 13:33:00,82.9,66.2,28.64,SW,225,3.6,3.6,57,0.00,,,0.21,0.00,VWS V14.01,2013-06-24 18:33:00,
2013-06-24 13:34:00,82.9,65.1,28.64,East,90,7.2,7.2,55,0.00,,,0.21,0.00,VWS V14.01,2013-06-24 18:34:00,
2013-06-24 13:35:00,83.5,66.2,28.64,South,180,3.4,3.4,56,0.00,,,0.21,0.00,VWS V14.01,2013-06-24 18:35:00,
2013-06-24 13:36:00,83.1,65.3,28.64,SE,135,2.9,2.9,55,0.00,,,0.21,0.00,VWS V14.01,2013-06-24 18:36:00,
2013-06-24 13:37:00,83.3,66.0,28.64,SW,225,4.3,4.3,56,0.00,,,0.21,0.00,VWS V14.01,2013-06-24 18:37:00,
2013-06-24 13:38:00,83.5,66.2,28.64,SW,225,7.2,7.2,56,0.00,,,0.21,0.00,VWS V14.01,2013-06-24 18:38:00,
2013-06-24 13:39:00,83.3,65.5,28.64,SSE,158,4.3,4.3,55,0.00,,,0.21,0.00,VWS V14.01,2013-06-24 18:39:00,
2013-06-24 13:40:00,82.4,64.6,28.64,WSW,248,5.6,5.6,55,0.00,,,0.21,0.00,VWS V14.01,2013-06-24 18:40:00,
2013-06-24 13:41:00,82.9,65.1,28.64,SE,135,5.4,5.4,55,0.00,,,0.21,0.00,VWS V14.01,2013-06-24 18:41:00,
2013-06-24 13:42:00,82.8,63.9,28.64,South,180,8.1,8.1,53,0.00,,,0.21,0.00,VWS V14.01,2013-06-24 18:42:00,
2013-06-24 13:43:00,82.4,64.6,28.64,SW,225,3.8,3.8,55,0.00,,,0.21,0.00,VWS V14.01,2013-06-24 18:43:00,
2013-06-24 13:44:00,82.4,64.6,28.64,South,180,3.6,3.6,55,0.00,,,0.21,0.00,VWS V14.01,2013-06-24 18:44:00,
2013-06-24 13:45:00,82.6,65.3,28.64,SSW,202,3.8,3.8,56,0.00,,,0.21,0.00,VWS V14.01,2013-06-24 18:45:00,
2013-06-24 13:46:00,82.9,65.1,28.64,South,180,7.8,7.8,55,0.00,,,0.21,0.00,VWS V14.01,2013-06-24 18:46:00,
2013-06-24 13:47:00,82.9,65.7,28.64,SSW,202,3.6,3.6,56,0.00,,,0.21,0.00,VWS V14.01,2013-06-24 18:47:00,
2013-06-24 13:48:00,83.1,65.8,28.64,SSE,158,3.1,3.1,56,0.00,,,0.21,0.00,VWS V14.01,2013-06-24 18:48:00,
2013-06-24 13:49:00,82.9,65.1,28.64,West,270,7.4,7.4,55,0.00,,,0.21,0.00,VWS V14.01,2013-06-24 18:49:00,
2013-06-24 13:50:00,83.1,65.8,28.64,South,180,3.4,3.4,56,0.00,,,0.21,0.00,VWS V14.01,2013-06-24 18:50:00,
2013-06-24 13:51:00,83.7,66.3,28.67,SSE,158,3.4,3.4,56,0.00,,,0.21,0.00,VWS V14.01,2013-06-24 18:51:00,
2013-06-24 13:52:00,83.1,65.8,28.67,South,180,2.0,2.0,56,0.00,,,0.21,0.00,VWS V14.01,2013-06-24 18:52:00,
2013-06-24 13:53:00,83.3,66.0,28.67,South,180,2.9,2.9,56,0.00,,,0.21,0.00,VWS V14.01,2013-06-24 18:53:00,
2013-06-24 13:54:00,83.7,66.3,28.67,SSE,158,5.4,5.4,56,0.00,,,0.21,0.00,VWS V14.01,2013-06-24 18:54:00,
2013-06-24 13:55:00,83.7,65.8,28.67,SSW,202,4.9,4.9,55,0.00,,,0.21,0.00,VWS V14.01,2013-06-24 18:55:00,
2013-06-24 13:56:00,83.7,65.3,28.67,SW,225,3.6,3.6,54,0.00,,,0.21,0.00,VWS V14.01,2013-06-24 18:56:00,
2013-06-24 13:57:00,83.7,65.8,28.67,SW,225,5.6,5.6,55,0.00,,,0.21,0.00,VWS V14.01,2013-06-24 18:57:00,
2013-06-24 13:58:00,83.7,64.7,28.67,South,180,2.0,2.0,53,0.00,,,0.21,0.00,VWS V14.01,2013-06-24 18:58:00,
2013-06-24 13:59:00,83.7,65.3,28.67,SW,225,3.6,3.6,54,0.00,,,0.21,0.00,VWS V14.01,2013-06-24 18:59:00,
2013-06-24 14:00:00,83.5,64.6,28.67,South,180,6.5,6.5,53,0.00,,,0.21,0.00,VWS V14.01,2013-06-24 19:00:00,
2013-06-24 14:01:00,82.9,63.0,28.67,SW,225,4.3,4.3,51,0.00,,,0.21,0.00,VWS V14.01,2013-06-24 19:01:00,
2013-06-24 14:02:00,83.1,63.7,28.67,SSW,202,5.4,5.4,52,0.00,,,0.21,0.00,VWS V14.01,2013-06-24 19:02:00,
2013-06-24 14:03:00,83.1,64.2,28.67,South,180,6.5,6.5,53,0.00,,,0.21,0.00,VWS V14.01,2013-06-24 19:03:00,
2013-06-24 14:04:00,82.9,63.0,28.67,SW,225,4.3,4.3,51,0.00,,,0.21,0.00,VWS V14.01,2013-06-24 19:04:00,
2013-06-24 14:05:00,82.9,63.5,28.67,South,180,6.5,6.5,52,0.00,,,0.21,0.00,VWS V14.01,2013-06-24 19:05:00,
2013-06-24 14:06:00,83.5,64.6,28.67,SSW,202,6.9,6.9,53,0.00,,,0.21,0.00,VWS V14.01,2013-06-24 19:06:00,
2013-06-24 14:07:00,83.1,64.2,28.67,West,270,7.4,7.4,53,0.00,,,0.21,0.00,VWS V14.01,2013-06-24 19:07:00,
2013-06-24 14:08:00,83.3,63.8,28.67,SSW,202,2.7,2.7,52,0.00,,,0.21,0.00,VWS V14.01,2013-06-24 19:08:00,
2013-06-24 14:09:00,83.5,64.6,28.67,SSW,202,6.9,6.9,53,0.00,,,0.21,0.00,VWS V14.01,2013-06-24 19:09:00,
2013-06-24 14:10:00,83.7,64.7,28.67,South,180,8.7,8.7,53,0.00,,,0.21,0.00,VWS V14.01,2013-06-24 19:10:00,
2013-06-24 14:11:00,83.3,63.3,28.67,SW,225,6.9,6.9,51,0.00,,,0.21,0.00,VWS V14.01,2013-06-24 19:11:00,
2013-06-24 14:12:00,83.3,63.8,28.67,South,180,10.7,10.7,52,0.00,,,0.21,0.00,VWS V14.01,2013-06-24 19:12:00,
2013-06-24 14:13:00,83.3,63.8,28.67,South,180,5.4,5.4,52,0.00,,,0.21,0.00,VWS V14.01,2013-06-24 19:13:00,
2013-06-24 14:14:00,83.3,63.3,28.67,SW,225,6.9,6.9,51,0.00,,,0.21,0.00,VWS V14.01,2013-06-24 19:14:00,
2013-06-24 14:15:00,83.3,63.3,28.67,South,180,7.6,7.6,51,0.00,,,0.21,0.00,VWS V14.01,2013-06-24 19:15:00,
2013-06-24 14:16:00,83.7,64.2,28.67,SSE,158,5.6,5.6,52,0.00,,,0.21,0.00,VWS V14.01,2013-06-24 19:16:00,
2013-06-24 14:17:00,83.3,63.3,28.67,South,180,3.4,3.4,51,0.00,,,0.21,0.00,VWS V14.01,2013-06-24 19:17:00,
2013-06-24 14:18:00,83.5,64.0,28.67,SE,135,5.6,5.6,52,0.00,,,0.21,0.00,VWS V14.01,2013-06-24 19:18:00,
2013-06-24 14:19:00,83.7,64.2,28.67,SSE,158,5.6,5.6,52,0.00,,,0.21,0.00,VWS V14.01,2013-06-24 19:19:00,
2013-06-24 14:20:00,83.5,62.9,28.67,SW,225,7.6,7.6,50,0.00,,,0.21,0.00,VWS V14.01,2013-06-24 19:20:00,
2013-06-24 14:21:00,83.5,62.9,28.67,SSW,202,6.3,6.3,50,0.00,,,0.21,0.00,VWS V14.01,2013-06-24 19:21:00,
2013-06-24 14:22:00,83.5,63.5,28.64,SSW,202,6.3,6.3,51,0.00,,,0.21,0.00,VWS V14.01,2013-06-24 19:22:00,
2013-06-24 14:23:00,83.7,63.6,28.64,SSE,158,5.6,5.6,51,0.00,,,0.21,0.00,VWS V14.01,2013-06-24 19:23:00,
2013-06-24 14:24:00,83.7,64.2,28.64,South,180,4.9,4.9,52,0.00,,,0.21,0.00,VWS V14.01,2013-06-24 19:24:00,
2013-06-24 14:25:00,83.8,64.9,28.64,South,180,3.8,3.8,53,0.00,,,0.21,0.00,VWS V14.01,2013-06-24 19:25:00,
2013-06-24 14:26:00,83.7,63.6,28.64,SSW,202,8.5,8.5,51,0.00,,,0.21,0.00,VWS V14.01,2013-06-24 19:26:00,
2013-06-24 14:27:00,83.3,62.2,28.64,South,180,10.3,10.3,49,0.00,,,0.21,0.00,VWS V14.01,2013-06-24 19:27:00,
2013-06-24 14:28:00,82.9,63.0,28.64,South,180,4.0,4.0,51,0.00,,,0.21,0.00,VWS V14.01,2013-06-24 19:28:00,
2013-06-24 14:29:00,82.9,62.4,28.64,SSW,202,6.3,6.3,50,0.00,,,0.21,0.00,VWS V14.01,2013-06-24 19:29:00,
2013-06-24 14:30:00,82.8,62.2,28.64,SSE,158,6.9,6.9,50,0.00,,,0.21,0.00,VWS V14.01,2013-06-24 19:30:00,
2013-06-24 14:31:00,82.9,63.0,28.64,South,180,4.0,4.0,51,0.00,,,0.21,0.00,VWS V14.01,2013-06-24 19:31:00,
2013-06-24 14:32:00,83.1,63.7,28.64,SSE,158,4.9,4.9,52,0.00,,,0.21,0.00,VWS V14.01,2013-06-24 19:32:00,
2013-06-24 14:33:00,83.3,63.9,28.64,South,180,4.9,4.9,52,0.00,,,0.21,0.00,VWS V14.01,2013-06-24 19:33:00,
2013-06-24 14:34:00,83.1,63.1,28.64,South,180,5.4,5.4,51,0.00,,,0.21,0.00,VWS V14.01,2013-06-24 19:34:00,
2013-06-24 14:35:00,83.1,63.1,28.64,SSW,202,3.8,3.8,51,0.00,,,0.21,0.00,VWS V14.01,2013-06-24 19:35:00,
2013-06-24 14:36:00,83.3,63.8,28.64,South,180,4.9,4.9,52,0.00,,,0.21,0.00,VWS V14.01,2013-06-24 19:36:00,
2013-06-24 14:37:00,83.3,63.8,28.64,South,180,4.3,4.3,52,0.00,,,0.21,0.00,VWS V14.01,2013-06-24 19:37:00,
2013-06-24 14:38:00,82.9,64.1,28.64,South,180,3.6,3.6,53,0.00,,,0.21,0.00,VWS V14.01,2013-06-24 19:38:00,
2013-06-24 14:39:00,83.1,63.7,28.64,South,180,3.1,3.1,52,0.00,,,0.21,0.00,VWS V14.01,2013-06-24 19:39:00,
2013-06-24 14:40:00,83.1,63.7,28.64,SSE,158,6.0,6.0,52,0.00,,,0.21,0.00,VWS V14.01,2013-06-24 19:40:00,
2013-06-24 14:41:00,82.9,64.1,28.64,South,180,3.6,3.6,53,0.00,,,0.21,0.00,VWS V14.01,2013-06-24 19:41:00,
2013-06-24 14:42:00,83.3,64.9,28.64,SSE,158,5.6,5.6,54,0.00,,,0.21,0.00,VWS V14.01,2013-06-24 19:42:00,
2013-06-24 14:43:00,82.9,63.5,28.64,South,180,7.6,7.6,52,0.00,,,0.21,0.00,VWS V14.01,2013-06-24 19:43:00,
2013-06-24 14:44:00,83.1,64.2,28.64,SSW,202,2.9,2.9,53,0.00,,,0.21,0.00,VWS V14.01,2013-06-24 19:44:00,
2013-06-24 14:45:00,83.1,63.7,28.64,South,180,5.4,5.4,52,0.00,,,0.21,0.00,VWS V14.01,2013-06-24 19:45:00,
2013-06-24 14:46:00,82.9,63.5,28.64,South,180,7.6,7.6,52,0.00,,,0.21,0.00,VWS V14.01,2013-06-24 19:46:00,
2013-06-24 14:47:00,82.9,63.5,28.64,South,180,7.4,7.4,52,0.00,,,0.21,0.00,VWS V14.01,2013-06-24 19:47:00,
2013-06-24 14:48:00,82.9,63.5,28.64,South,180,11.4,11.4,52,0.00,,,0.21,0.00,VWS V14.01,2013-06-24 19:48:00,
2013-06-24 14:49:00,82.9,64.1,28.64,South,180,4.9,4.9,53,0.00,,,0.21,0.00,VWS V14.01,2013-06-24 19:49:00,
2013-06-24 14:50:00,83.1,64.2,28.64,SSW,202,4.9,4.9,53,0.00,,,0.21,0.00,VWS V14.01,2013-06-24 19:50:00,
2013-06-24 14:51:00,83.1,64.2,28.64,South,180,5.6,5.6,53,0.00,,,0.21,0.00,VWS V14.01,2013-06-24 19:51:00,
2013-06-24 14:52:00,82.8,63.4,28.64,South,180,5.6,5.6,52,0.00,,,0.21,0.00,VWS V14.01,2013-06-24 19:52:00,
2013-06-24 14:53:00,82.8,63.4,28.64,South,180,4.9,4.9,52,0.00,,,0.21,0.00,VWS V14.01,2013-06-24 19:53:00,
2013-06-24 14:54:00,82.9,63.5,28.64,SSW,202,10.3,10.3,52,0.00,,,0.21,0.00,VWS V14.01,2013-06-24 19:54:00,
2013-06-24 14:55:00,82.8,63.4,28.64,South,180,8.1,8.1,52,0.00,,,0.21,0.00,VWS V14.01,2013-06-24 19:55:00,
2013-06-24 14:56:00,82.8,63.4,28.64,South,180,8.1,8.1,52,0.00,,,0.21,0.00,VWS V14.01,2013-06-24 19:56:00,
2013-06-24 14:57:00,82.9,64.1,28.64,South,180,1.1,1.1,53,0.00,,,0.21,0.00,VWS V14.01,2013-06-24 19:57:00,
2013-06-24 14:58:00,83.7,65.3,28.64,SW,225,3.4,3.4,54,0.00,,,0.21,0.00,VWS V14.01,2013-06-24 19:58:00,
2013-06-24 14:59:00,83.3,64.4,28.64,WSW,248,7.8,7.8,53,0.00,,,0.21,0.00,VWS V14.01,2013-06-24 19:59:00,
2013-06-24 15:00:00,83.3,63.8,28.64,South,180,8.5,8.5,52,0.00,,,0.21,0.00,VWS V14.01,2013-06-24 20:00:00,
2013-06-24 15:01:00,83.7,65.3,28.64,SSW,202,2.9,2.9,54,0.00,,,0.21,0.00,VWS V14.01,2013-06-24 20:01:00,
2013-06-24 15:02:00,83.7,63.6,28.64,SSE,158,7.8,7.8,51,0.00,,,0.21,0.00,VWS V14.01,2013-06-24 20:02:00,
2013-06-24 15:03:00,84.2,64.1,28.64,SSE,158,8.5,8.5,51,0.00,,,0.21,0.00,VWS V14.01,2013-06-24 20:03:00,
2013-06-24 15:04:00,84.0,64.5,28.64,SW,225,10.7,10.7,52,0.00,,,0.21,0.00,VWS V14.01,2013-06-24 20:04:00,
2013-06-24 15:05:00,84.0,64.5,28.64,SSW,202,6.3,6.3,52,0.00,,,0.21,0.00,VWS V14.01,2013-06-24 20:05:00,
2013-06-24 15:06:00,84.2,64.1,28.64,South,180,4.9,4.9,51,0.00,,,0.21,0.00,VWS V14.01,2013-06-24 20:06:00,
2013-06-24 15:07:00,84.7,65.2,28.64,South,180,7.4,7.4,52,0.00,,,0.21,0.00,VWS V14.01,2013-06-24 20:07:00,
2013-06-24 15:08:00,85.1,63.8,28.64,South,180,9.4,9.4,49,0.00,,,0.21,0.00,VWS V14.01,2013-06-24 20:08:00,
2013-06-24 15:09:00,84.9,64.8,28.64,WSW,248,7.2,7.2,51,0.00,,,0.21,0.00,VWS V14.01,2013-06-24 20:09:00,
2013-06-24 15:10:00,85.3,65.7,28.64,SSE,158,7.2,7.2,52,0.00,,,0.21,0.00,VWS V14.01,2013-06-24 20:10:00,
2013-06-24 15:11:00,85.1,64.4,28.64,South,180,7.2,7.2,50,0.00,,,0.21,0.00,VWS V14.01,2013-06-24 20:11:00,
2013-06-24 15:12:00,85.1,63.8,28.64,SSW,202,5.8,5.8,49,0.00,,,0.21,0.00,VWS V14.01,2013-06-24 20:12:00,
2013-06-24 15:13:00,85.3,64.6,28.64,SW,225,6.9,6.9,50,0.00,,,0.21,0.00,VWS V14.01,2013-06-24 20:13:00,
2013-06-24 15:14:00,85.6,64.9,28.64,South,180,3.8,3.8,50,0.00,,,0.21,0.00,VWS V14.01,2013-06-24 20:14:00,
2013-06-24 15:15:00,85.5,64.1,28.64,South,180,5.6,5.6,49,0.00,,,0.21,0.00,VWS V14.01,2013-06-24 20:15:00,
2013-06-24 15:16:00,85.6,66.0,28.64,South,180,6.0,6.0,52,0.00,,,0.21,0.00,VWS V14.01,2013-06-24 20:16:00,
2013-06-24 15:17:00,85.6,64.9,28.64,SW,225,3.8,3.8,50,0.00,,,0.21,0.00,VWS V14.01,2013-06-24 20:17:00,
2013-06-24 15:18:00,85.3,62.8,28.64,South,180,8.1,8.1,47,0.00,,,0.21,0.00,VWS V14.01,2013-06-24 20:18:00,
2013-06-24 15:19:00,85.8,65.6,28.64,South,180,4.3,4.3,51,0.00,,,0.21,0.00,VWS V14.01,2013-06-24 20:19:00,
2013-06-24 15:20:00,85.5,64.1,28.64,SW,225,5.8,5.8,49,0.00,,,0.21,0.00,VWS V14.01,2013-06-24 20:20:00,
2013-06-24 15:21:00,85.6,64.9,28.64,SW,225,6.3,6.3,50,0.00,,,0.21,0.00,VWS V14.01,2013-06-24 20:21:00,
2013-06-24 15:22:00,85.8,65.1,28.64,South,180,4.3,4.3,50,0.00,,,0.21,0.00,VWS V14.01,2013-06-24 20:22:00,
2013-06-24 15:23:00,86.0,65.8,28.64,South,180,4.3,4.3,51,0.00,,,0.21,0.00,VWS V14.01,2013-06-24 20:23:00,
2013-06-24 15:24:00,85.6,64.3,28.64,SSW,202,5.4,5.4,49,0.00,,,0.21,0.00,VWS V14.01,2013-06-24 20:24:00,
2013-06-24 15:25:00,85.8,65.1,28.64,South,180,16.8,16.8,50,0.00,,,0.21,0.00,VWS V14.01,2013-06-24 20:25:00,
2013-06-24 15:26:00,85.6,64.3,28.64,SSE,158,7.4,7.4,49,0.00,,,0.21,0.00,VWS V14.01,2013-06-24 20:26:00,
2013-06-24 15:27:00,85.6,64.3,28.64,South,180,10.7,10.7,49,0.00,,,0.21,0.00,VWS V14.01,2013-06-24 20:27:00,
2013-06-24 15:28:00,85.6,64.3,28.64,SSE,158,12.8,12.8,49,0.00,,,0.21,0.00,VWS V14.01,2013-06-24 20:28:00,
2013-06-24 15:29:00,86.0,65.8,28.64,SW,225,1.3,1.3,51,0.00,,,0.21,0.00,VWS V14.01,2013-06-24 20:29:00,
2013-06-24 15:30:00,85.5,64.1,28.64,SSE,158,5.8,5.8,49,0.00,,,0.21,0.00,VWS V14.01,2013-06-24 20:30:00,
2013-06-24 15:31:00,85.6,64.9,28.64,SSE,158,4.9,4.9,50,0.00,,,0.21,0.00,VWS V14.01,2013-06-24 20:31:00,
2013-06-24 15:32:00,86.0,65.8,28.64,South,180,3.8,3.8,51,0.00,,,0.21,0.00,VWS V14.01,2013-06-24 20:32:00,
2013-06-24 15:33:00,86.0,65.8,28.64,NE,45,4.7,4.7,51,0.00,,,0.21,0.00,VWS V14.01,2013-06-24 20:33:00,
2013-06-24 15:34:00,86.9,66.0,28.64,SSE,158,7.2,7.2,50,0.00,,,0.21,0.00,VWS V14.01,2013-06-24 20:34:00,
2013-06-24 15:35:00,86.5,65.1,28.64,SSE,158,2.9,2.9,49,0.00,,,0.21,0.00,VWS V14.01,2013-06-24 20:35:00,
2013-06-24 15:36:00,86.9,66.0,28.64,South,180,6.9,6.9,50,0.00,,,0.21,0.00,VWS V14.01,2013-06-24 20:36:00,
2013-06-24 15:37:00,86.9,64.3,28.64,SSW,202,6.0,6.0,47,0.00,,,0.21,0.00,VWS V14.01,2013-06-24 20:37:00,
2013-06-24 15:38:00,87.1,65.6,28.64,East,90,4.0,4.0,49,0.00,,,0.21,0.00,VWS V14.01,2013-06-24 20:38:00,
2013-06-24 15:39:00,86.5,62.7,28.64,South,180,10.5,10.5,45,0.00,,,0.21,0.00,VWS V14.01,2013-06-24 20:39:00,
2013-06-24 15:40:00,87.1,65.0,28.64,South,180,8.1,8.1,48,0.00,,,0.21,0.00,VWS V14.01,2013-06-24 20:40:00,
2013-06-24 15:41:00,86.7,63.5,28.64,South,180,8.7,8.7,46,0.00,,,0.21,0.00,VWS V14.01,2013-06-24 20:41:00,
2013-06-24 15:42:00,86.5,62.7,28.64,South,180,10.5,10.5,45,0.00,,,0.21,0.00,VWS V14.01,2013-06-24 20:42:00,
2013-06-24 15:43:00,86.4,63.2,28.64,SSE,158,3.6,3.6,46,0.00,,,0.21,0.00,VWS V14.01,2013-06-24 20:43:00,
2013-06-24 15:44:00,86.9,64.3,28.64,South,180,10.3,10.3,47,0.00,,,0.21,0.00,VWS V14.01,2013-06-24 20:44:00,
2013-06-24 15:45:00,86.9,64.9,28.64,East,90,3.8,3.8,48,0.00,,,0.21,0.00,VWS V14.01,2013-06-24 20:45:00,
2013-06-24 15:46:00,87.1,65.0,28.64,South,180,3.4,3.4,48,0.00,,,0.21,0.00,VWS V14.01,2013-06-24 20:46:00,
2013-06-24 15:47:00,86.9,64.3,28.64,South,180,12.1,12.1,47,0.00,,,0.21,0.00,VWS V14.01,2013-06-24 20:47:00,
2013-06-24 15:48:00,86.5,63.3,28.64,South,180,6.7,6.7,46,0.00,,,0.21,0.00,VWS V14.01,2013-06-24 20:48:00,
2013-06-24 15:49:00,86.0,62.8,28.64,South,180,12.3,12.3,46,0.00,,,0.21,0.00,VWS V14.01,2013-06-24 20:49:00,
2013-06-24 15:50:00,86.7,64.1,28.64,South,180,9.4,9.4,47,0.00,,,0.21,0.00,VWS V14.01,2013-06-24 20:50:00,
2013-06-24 15:51:00,86.5,63.9,28.64,South,180,7.8,7.8,47,0.00,,,0.21,0.00,VWS V14.01,2013-06-24 20:51:00,
2013-06-24 15:52:00,85.8,63.3,28.64,South,180,12.3,12.3,47,0.00,,,0.21,0.00,VWS V14.01,2013-06-24 20:52:00,
2013-06-24 15:53:00,85.8,63.3,28.64,SSW,202,7.4,7.4,47,0.00,,,0.21,0.00,VWS V14.01,2013-06-24 20:53:00,
2013-06-24 15:54:00,86.5,65.7,28.64,ESE,112,3.8,3.8,50,0.00,,,0.21,0.00,VWS V14.01,2013-06-24 20:54:00,
2013-06-24 15:55:00,86.4,65.5,28.64,SW,225,4.0,4.0,50,0.00,,,0.21,0.00,VWS V14.01,2013-06-24 20:55:00,
2013-06-24 15:56:00,86.4,65.0,28.64,South,180,10.3,10.3,49,0.00,,,0.21,0.00,VWS V14.01,2013-06-24 20:56:00,
2013-06-24 15:57:00,86.5,65.7,28.64,ESE,112,3.8,3.8,50,0.00,,,0.21,0.00,VWS V14.01,2013-06-24 20:57:00,
2013-06-24 15:58:00,86.5,65.7,28.64,SE,135,5.4,5.4,50,0.00,,,0.21,0.00,VWS V14.01,2013-06-24 20:58:00,
2013-06-24 15:59:00,86.7,65.9,28.64,SSW,202,2.5,2.5,50,0.00,,,0.21,0.00,VWS V14.01,2013-06-24 20:59:00,
2013-06-24 16:00:00,86.7,65.9,28.70,SE,135,2.7,2.7,50,0.00,,,0.21,0.00,VWS V14.01,2013-06-24 21:00:00,
2013-06-24 16:01:00,87.1,66.2,28.64,SSE,158,3.4,3.4,50,0.00,,,0.21,0.00,VWS V14.01,2013-06-24 21:01:00,
2013-06-24 16:02:00,86.9,65.5,28.64,NW,315,3.8,3.8,49,0.00,,,0.21,0.00,VWS V14.01,2013-06-24 21:02:00,
2013-06-24 16:03:00,86.9,65.5,28.64,SSE,158,5.4,5.4,49,0.00,,,0.21,0.00,VWS V14.01,2013-06-24 21:03:00,
2013-06-24 16:04:00,86.7,65.9,28.64,SSE,158,6.3,6.3,50,0.00,,,0.21,0.00,VWS V14.01,2013-06-24 21:04:00,
2013-06-24 16:05:00,86.7,65.3,28.64,SSE,158,3.6,3.6,49,0.00,,,0.21,0.00,VWS V14.01,2013-06-24 21:05:00,
2013-06-24 16:06:00,86.9,65.5,28.64,South,180,5.8,5.8,49,0.00,,,0.21,0.00,VWS V14.01,2013-06-24 21:06:00,
2013-06-24 16:07:00,87.6,66.7,28.64,SSE,158,7.2,7.2,50,0.00,,,0.21,0.00,VWS V14.01,2013-06-24 21:07:00,
2013-06-24 16:08:00,87.6,66.7,28.64,SSE,158,4.0,4.0,50,0.00,,,0.21,0.00,VWS V14.01,2013-06-24 21:08:00,
2013-06-24 16:09:00,87.6,66.7,28.64,SSE,158,7.2,7.2,50,0.00,,,0.21,0.00,VWS V14.01,2013-06-24 21:09:00,
2013-06-24 16:10:00,87.6,66.7,28.64,SSE,158,7.2,7.2,50,0.00,,,0.21,0.00,VWS V14.01,2013-06-24 21:10:00,
2013-06-24 16:11:00,87.8,66.3,28.64,South,180,5.8,5.8,49,0.00,,,0.21,0.00,VWS V14.01,2013-06-24 21:11:00,
2013-06-24 16:12:00,88.0,66.4,28.64,South,180,3.8,3.8,49,0.00,,,0.21,0.00,VWS V14.01,2013-06-24 21:12:00,
2013-06-24 16:13:00,88.3,66.2,28.64,South,180,5.4,5.4,48,0.00,,,0.21,0.00,VWS V14.01,2013-06-24 21:13:00,
2013-06-24 16:14:00,88.2,65.4,28.64,SSE,158,2.5,2.5,47,0.00,,,0.21,0.00,VWS V14.01,2013-06-24 21:14:00,
2013-06-24 16:15:00,88.3,66.2,28.64,SW,225,4.3,4.3,48,0.00,,,0.21,0.00,VWS V14.01,2013-06-24 21:15:00,
2013-06-24 16:16:00,88.3,66.2,28.64,South,180,4.7,4.7,48,0.00,,,0.21,0.00,VWS V14.01,2013-06-24 21:16:00,
2013-06-24 16:17:00,88.5,66.9,28.64,ESE,112,3.4,3.4,49,0.00,,,0.21,0.00,VWS V14.01,2013-06-24 21:17:00,
2013-06-24 16:18:00,88.5,65.7,28.64,SSW,202,6.9,6.9,47,0.00,,,0.21,0.00,VWS V14.01,2013-06-24 21:18:00,
2013-06-24 16:19:00,88.7,67.1,28.64,SSE,158,4.9,4.9,49,0.00,,,0.21,0.00,VWS V14.01,2013-06-24 21:19:00,
2013-06-24 16:20:00,88.5,66.3,28.64,SW,225,4.9,4.9,48,0.00,,,0.21,0.00,VWS V14.01,2013-06-24 21:20:00,
2013-06-24 16:21:00,88.5,65.7,28.64,SSE,158,4.3,4.3,47,0.00,,,0.21,0.00,VWS V14.01,2013-06-24 21:21:00,
2013-06-24 16:22:00,88.3,66.2,28.64,SSW,202,1.6,1.6,48,0.00,,,0.21,0.00,VWS V14.01,2013-06-24 21:22:00,
2013-06-24 16:23:00,88.7,67.1,28.64,SSE,158,5.8,5.8,49,0.00,,,0.21,0.00,VWS V14.01,2013-06-24 21:23:00,
2013-06-24 16:24:00,88.7,66.5,28.64,SSE,158,4.5,4.5,48,0.00,,,0.21,0.00,VWS V14.01,2013-06-24 21:24:00,
2013-06-24 16:25:00,88.7,67.1,28.64,South,180,6.0,6.0,49,0.00,,,0.21,0.00,VWS V14.01,2013-06-24 21:25:00,
2013-06-24 16:26:00,88.7,67.1,28.64,South,180,2.5,2.5,49,0.00,,,0.21,0.00,VWS V14.01,2013-06-24 21:26:00,
2013-06-24 16:27:00,88.5,66.9,28.64,SE,135,3.8,3.8,49,0.00,,,0.21,0.00,VWS V14.01,2013-06-24 21:27:00,
2013-06-24 16:28:00,88.7,67.1,28.64,East,90,3.4,3.4,49,0.00,,,0.21,0.00,VWS V14.01,2013-06-24 21:28:00,
2013-06-24 16:29:00,88.5,66.3,28.64,SSE,158,4.9,4.9,48,0.00,,,0.21,0.00,VWS V14.01,2013-06-24 21:29:00,
2013-06-24 16:30:00,88.7,67.1,28.64,SSE,158,3.8,3.8,49,0.00,,,0.21,0.00,VWS V14.01,2013-06-24 21:30:00,
2013-06-24 16:31:00,88.9,67.3,28.64,ESE,112,2.0,2.0,49,0.00,,,0.21,0.00,VWS V14.01,2013-06-24 21:31:00,
2013-06-24 16:32:00,88.7,67.1,28.64,ESE,112,3.8,3.8,49,0.00,,,0.21,0.00,VWS V14.01,2013-06-24 21:32:00,
2013-06-24 16:33:00,88.5,66.9,28.64,South,180,2.7,2.7,49,0.00,,,0.21,0.00,VWS V14.01,2013-06-24 21:33:00,
2013-06-24 16:34:00,88.5,66.3,28.64,SW,225,5.6,5.6,48,0.00,,,0.21,0.00,VWS V14.01,2013-06-24 21:34:00,
2013-06-24 16:35:00,88.3,66.8,28.64,ESE,112,3.4,3.4,49,0.00,,,0.21,0.00,VWS V14.01,2013-06-24 21:35:00,
2013-06-24 16:36:00,88.5,66.9,28.64,SSE,158,3.8,3.8,49,0.00,,,0.21,0.00,VWS V14.01,2013-06-24 21:36:00,
2013-06-24 16:37:00,88.2,66.0,28.61,South,180,3.6,3.6,48,0.00,,,0.21,0.00,VWS V14.01,2013-06-24 21:37:00,
2013-06-24 16:38:00,88.7,67.7,28.61,SE,135,3.6,3.6,50,0.00,,,0.21,0.00,VWS V14.01,2013-06-24 21:38:00,
2013-06-24 16:39:00,88.7,67.7,28.61,South,180,3.1,3.1,50,0.00,,,0.21,0.00,VWS V14.01,2013-06-24 21:39:00,
2013-06-24 16:40:00,88.5,66.9,28.61,SSE,158,2.5,2.5,49,0.00,,,0.21,0.00,VWS V14.01,2013-06-24 21:40:00,
2013-06-24 16:41:00,88.7,67.7,28.61,NE,45,4.7,4.7,50,0.00,,,0.21,0.00,VWS V14.01,2013-06-24 21:41:00,
2013-06-24 16:42:00,88.7,67.7,28.61,SE,135,3.4,3.4,50,0.00,,,0.21,0.00,VWS V14.01,2013-06-24 21:42:00,
2013-06-24 16:43:00,89.1,67.4,28.61,SSE,158,3.8,3.8,49,0.00,,,0.21,0.00,VWS V14.01,2013-06-24 21:43:00,
2013-06-24 16:44:00,89.1,66.8,28.61,SE,135,3.6,3.6,48,0.00,,,0.21,0.00,VWS V14.01,2013-06-24 21:44:00,
2013-06-24 16:45:00,89.1,67.4,28.61,East,90,4.3,4.3,49,0.00,,,0.21,0.00,VWS V14.01,2013-06-24 21:45:00,
2013-06-24 16:46:00,88.9,66.7,28.61,SSE,158,3.8,3.8,48,0.00,,,0.21,0.00,VWS V14.01,2013-06-24 21:46:00,
2013-06-24 16:47:00,88.7,66.5,28.61,SSE,158,2.0,2.0,48,0.00,,,0.21,0.00,VWS V14.01,2013-06-24 21:47:00,
2013-06-24 16:48:00,88.9,66.7,28.61,SSE,158,2.7,2.7,48,0.00,,,0.21,0.00,VWS V14.01,2013-06-24 21:48:00,
2013-06-24 16:49:00,88.9,66.7,28.61,ESE,112,3.1,3.1,48,0.00,,,0.21,0.00,VWS V14.01,2013-06-24 21:49:00,
2013-06-24 16:50:00,88.9,66.7,28.61,SE,135,3.1,3.1,48,0.00,,,0.21,0.00,VWS V14.01,2013-06-24 21:50:00,
2013-06-24 16:51:00,88.9,66.7,28.61,SE,135,2.7,2.7,48,0.00,,,0.21,0.00,VWS V14.01,2013-06-24 21:51:00,
2013-06-24 16:52:00,88.5,66.9,28.61,SSE,158,3.8,3.8,49,0.00,,,0.21,0.00,VWS V14.01,2013-06-24 21:52:00,
2013-06-24 16:53:00,88.7,66.5,28.61,SSE,158,2.5,2.5,48,0.00,,,0.21,0.00,VWS V14.01,2013-06-24 21:53:00,
2013-06-24 16:54:00,88.7,67.1,28.61,South,180,3.6,3.6,49,0.00,,,0.21,0.00,VWS V14.01,2013-06-24 21:54:00,
2013-06-24 16:55:00,88.7,66.5,28.61,NE,45,6.0,6.0,48,0.00,,,0.21,0.00,VWS V14.01,2013-06-24 21:55:00,
2013-06-24 16:56:00,88.7,66.5,28.61,SSE,158,2.9,2.9,48,0.00,,,0.21,0.00,VWS V14.01,2013-06-24 21:56:00,
2013-06-24 16:57:00,88.7,66.5,28.61,West,270,4.0,4.0,48,0.00,,,0.21,0.00,VWS V14.01,2013-06-24 21:57:00,
2013-06-24 16:58:00,88.7,67.1,28.61,SE,135,3.4,3.4,49,0.00,,,0.21,0.00,VWS V14.01,2013-06-24 21:58:00,
2013-06-24 16:59:00,88.7,67.7,28.61,SE,135,3.4,3.4,50,0.00,,,0.21,0.00,VWS V14.01,2013-06-24 21:59:00,
2013-06-24 17:00:00,88.7,67.1,28.61,SSE,158,3.4,3.4,49,0.00,,,0.21,0.00,VWS V14.01,2013-06-24 22:00:00,
2013-06-24 17:01:00,88.7,67.1,28.61,ESE,112,2.7,2.7,49,0.00,,,0.21,0.00,VWS V14.01,2013-06-24 22:01:00,
2013-06-24 17:02:00,88.7,67.1,28.61,SSE,158,2.9,2.9,49,0.00,,,0.21,0.00,VWS V14.01,2013-06-24 22:02:00,
2013-06-24 17:03:00,88.5,65.7,28.61,SSE,158,2.9,2.9,47,0.00,,,0.21,0.00,VWS V14.01,2013-06-24 22:03:00,
2013-06-24 17:04:00,88.7,66.5,28.61,ESE,112,6.5,6.5,48,0.00,,,0.21,0.00,VWS V14.01,2013-06-24 22:04:00,
2013-06-24 17:05:00,88.5,66.3,28.61,SW,225,5.4,5.4,48,0.00,,,0.21,0.00,VWS V14.01,2013-06-24 22:05:00,
2013-06-24 17:06:00,88.5,65.7,28.61,SSE,158,2.9,2.9,47,0.00,,,0.21,0.00,VWS V14.01,2013-06-24 22:06:00,
2013-06-24 17:07:00,88.7,67.1,28.61,SSE,158,2.5,2.5,49,0.00,,,0.21,0.00,VWS V14.01,2013-06-24 22:07:00,
2013-06-24 17:08:00,89.1,68.0,28.61,SE,135,0.9,0.9,50,0.00,,,0.21,0.00,VWS V14.01,2013-06-24 22:08:00,
2013-06-24 17:09:00,89.1,68.0,28.61,SSE,158,3.6,3.6,50,0.00,,,0.21,0.00,VWS V14.01,2013-06-24 22:09:00,
2013-06-24 17:10:00,88.9,67.8,28.61,SSE,158,4.3,4.3,50,0.00,,,0.21,0.00,VWS V14.01,2013-06-24 22:10:00,
2013-06-24 17:11:00,89.1,68.0,28.61,SE,135,0.9,0.9,50,0.00,,,0.21,0.00,VWS V14.01,2013-06-24 22:11:00,
2013-06-24 17:12:00,88.9,67.3,28.61,SE,135,2.7,2.7,49,0.00,,,0.21,0.00,VWS V14.01,2013-06-24 22:12:00,
2013-06-24 17:13:00,89.6,67.9,28.61,SSE,158,2.5,2.5,49,0.00,,,0.21,0.00,VWS V14.01,2013-06-24 22:13:00,
2013-06-24 17:14:00,89.6,67.9,28.61,SE,135,1.6,1.6,49,0.00,,,0.21,0.00,VWS V14.01,2013-06-24 22:14:00,
2013-06-24 17:15:00,89.6,67.9,28.61,West,270,4.3,4.3,49,0.00,,,0.21,0.00,VWS V14.01,2013-06-24 22:15:00,
2013-06-24 17:16:00,89.6,67.9,28.61,SSE,158,2.5,2.5,49,0.00,,,0.21,0.00,VWS V14.01,2013-06-24 22:16:00,
2013-06-24 17:17:00,89.6,68.5,28.61,SSE,158,4.0,4.0,50,0.00,,,0.21,0.00,VWS V14.01,2013-06-24 22:17:00,
2013-06-24 17:18:00,88.9,66.7,28.61,South,180,4.0,4.0,48,0.00,,,0.21,0.00,VWS V14.01,2013-06-24 22:18:00,
2013-06-24 17:19:00,89.2,65.8,28.61,SSE,158,2.0,2.0,46,0.00,,,0.21,0.00,VWS V14.01,2013-06-24 22:19:00,
2013-06-24 17:20:00,88.9,67.3,28.61,SSW,202,7.2,7.2,49,0.00,,,0.21,0.00,VWS V14.01,2013-06-24 22:20:00,
2013-06-24 17:21:00,88.9,66.7,28.61,South,180,4.0,4.0,48,0.00,,,0.21,0.00,VWS V14.01,2013-06-24 22:21:00,
2013-06-24 17:22:00,88.7,67.1,28.61,East,90,3.8,3.8,49,0.00,,,0.21,0.00,VWS V14.01,2013-06-24 22:22:00,
2013-06-24 17:23:00,89.1,68.0,28.61,East,90,2.0,2.0,50,0.00,,,0.21,0.00,VWS V14.01,2013-06-24 22:23:00,
2013-06-24 17:24:00,88.9,67.3,28.61,ESE,112,2.7,2.7,49,0.00,,,0.21,0.00,VWS V14.01,2013-06-24 22:24:00,
2013-06-24 17:25:00,89.1,68.0,28.61,SSE,158,3.1,3.1,50,0.00,,,0.21,0.00,VWS V14.01,2013-06-24 22:25:00,
2013-06-24 17:26:00,89.1,68.0,28.61,East,90,2.0,2.0,50,0.00,,,0.21,0.00,VWS V14.01,2013-06-24 22:26:00,
2013-06-24 17:27:00,89.4,68.3,28.61,SSE,158,3.6,3.6,50,0.00,,,0.21,0.00,VWS V14.01,2013-06-24 22:27:00,
2013-06-24 17:28:00,89.2,67.0,28.61,ESE,112,8.1,8.1,48,0.00,,,0.21,0.00,VWS V14.01,2013-06-24 22:28:00,
2013-06-24 17:29:00,89.6,67.9,28.61,ENE,68,3.6,3.6,49,0.00,,,0.21,0.00,VWS V14.01,2013-06-24 22:29:00,
2013-06-24 17:30:00,89.6,67.9,28.61,NNE,22,4.5,4.5,49,0.00,,,0.21,0.00,VWS V14.01,2013-06-24 22:30:00,
2013-06-24 17:31:00,89.2,67.0,28.61,SE,135,2.7,2.7,48,0.00,,,0.21,0.00,VWS V14.01,2013-06-24 22:31:00,
2013-06-24 17:32:00,88.9,66.7,28.61,SE,135,5.4,5.4,48,0.00,,,0.21,0.00,VWS V14.01,2013-06-24 22:32:00,
2013-06-24 17:33:00,88.3,66.8,28.61,South,180,4.0,4.0,49,0.00,,,0.21,0.00,VWS V14.01,2013-06-24 22:33:00,
2013-06-24 17:34:00,88.5,66.9,28.61,South,180,2.7,2.7,49,0.00,,,0.21,0.00,VWS V14.01,2013-06-24 22:34:00,
2013-06-24 17:35:00,88.3,66.8,28.61,South,180,2.7,2.7,49,0.00,,,0.21,0.00,VWS V14.01,2013-06-24 22:35:00,
2013-06-24 17:36:00,88.3,66.8,28.61,South,180,4.0,4.0,49,0.00,,,0.21,0.00,VWS V14.01,2013-06-24 22:36:00,
2013-06-24 17:37:00,88.2,67.2,28.58,SE,135,2.7,2.7,50,0.00,,,0.21,0.00,VWS V14.01,2013-06-24 22:37:00,
2013-06-24 17:38:00,88.7,68.3,28.58,SE,135,2.5,2.5,51,0.00,,,0.21,0.00,VWS V14.01,2013-06-24 22:38:00,
2013-06-24 17:39:00,88.5,68.1,28.58,SSE,158,4.3,4.3,51,0.00,,,0.21,0.00,VWS V14.01,2013-06-24 22:39:00,
2013-06-24 17:40:00,88.5,68.1,28.58,SW,225,2.7,2.7,51,0.00,,,0.21,0.00,VWS V14.01,2013-06-24 22:40:00,
2013-06-24 17:41:00,88.7,68.3,28.58,SE,135,2.5,2.5,51,0.00,,,0.21,0.00,VWS V14.01,2013-06-24 22:41:00,
2013-06-24 17:42:00,88.7,68.3,28.58,SW,225,4.5,4.5,51,0.00,,,0.21,0.00,VWS V14.01,2013-06-24 22:42:00,
2013-06-24 17:43:00,89.4,68.9,28.58,SSW,202,4.7,4.7,51,0.00,,,0.21,0.00,VWS V14.01,2013-06-24 22:43:00,
2013-06-24 17:44:00,88.9,69.0,28.58,SE,135,2.5,2.5,52,0.00,,,0.21,0.00,VWS V14.01,2013-06-24 22:44:00,
2013-06-24 17:45:00,89.2,69.3,28.58,SSE,158,2.0,2.0,52,0.00,,,0.21,0.00,VWS V14.01,2013-06-24 22:45:00,
2013-06-24 17:46:00,89.4,68.9,28.58,South,180,2.7,2.7,51,0.00,,,0.21,0.00,VWS V14.01,2013-06-24 22:46:00,
2013-06-24 17:47:00,89.4,68.9,28.58,SW,225,3.4,3.4,51,0.00,,,0.21,0.00,VWS V14.01,2013-06-24 22:47:00,
2013-06-24 17:48:00,89.2,68.8,28.58,SE,135,4.5,4.5,51,0.00,,,0.21,0.00,VWS V14.01,2013-06-24 22:48:00,
2013-06-24 17:49:00,89.6,68.5,28.58,South,180,3.4,3.4,50,0.00,,,0.21,0.00,VWS V14.01,2013-06-24 22:49:00,
2013-06-24 17:50:00,89.2,68.8,28.58,SE,135,2.7,2.7,51,0.00,,,0.21,0.00,VWS V14.01,2013-06-24 22:50:00,
2013-06-24 17:51:00,89.2,68.8,28.58,SE,135,1.6,1.6,51,0.00,,,0.21,0.00,VWS V14.01,2013-06-24 22:51:00,
2013-06-24 17:52:00,89.2,68.8,28.58,SE,135,3.1,3.1,51,0.00,,,0.21,0.00,VWS V14.01,2013-06-24 22:52:00,
2013-06-24 17:53:00,89.2,68.2,28.58,South,180,5.4,5.4,50,0.00,,,0.21,0.00,VWS V14.01,2013-06-24 22:53:00,
2013-06-24 17:54:00,89.1,68.0,28.58,SE,135,1.3,1.3,50,0.00,,,0.21,0.00,VWS V14.01,2013-06-24 22:54:00,
2013-06-24 17:55:00,89.2,69.3,28.58,SSW,202,1.3,1.3,52,0.00,,,0.21,0.00,VWS V14.01,2013-06-24 22:55:00,
2013-06-24 17:56:00,89.2,68.2,28.58,SW,225,7.2,7.2,50,0.00,,,0.21,0.00,VWS V14.01,2013-06-24 22:56:00,
2013-06-24 17:57:00,89.1,68.0,28.58,South,180,3.4,3.4,50,0.00,,,0.21,0.00,VWS V14.01,2013-06-24 22:57:00,
2013-06-24 17:58:00,89.1,68.0,28.58,South,180,3.4,3.4,50,0.00,,,0.21,0.00,VWS V14.01,2013-06-24 22:58:00,
2013-06-24 17:59:00,89.1,68.6,28.58,SSE,158,1.3,1.3,51,0.00,,,0.21,0.00,VWS V14.01,2013-06-24 22:59:00,
2013-06-24 18:00:00,89.2,68.8,28.58,South,180,2.9,2.9,51,0.00,,,0.21,0.00,VWS V14.01,2013-06-24 23:00:00,
2013-06-24 18:01:00,89.1,68.0,28.58,South,180,3.4,3.4,50,0.00,,,0.21,0.00,VWS V14.01,2013-06-24 23:01:00,
2013-06-24 18:02:00,89.1,68.0,28.58,South,180,4.7,4.7,50,0.00,,,0.21,0.00,VWS V14.01,2013-06-24 23:02:00,
2013-06-24 18:03:00,88.7,67.7,28.58,SSE,158,5.8,5.8,50,0.00,,,0.21,0.00,VWS V14.01,2013-06-24 23:03:00,
2013-06-24 18:04:00,88.2,67.2,28.61,SE,135,2.0,2.0,50,0.00,,,0.21,0.00,VWS V14.01,2013-06-24 23:04:00,
2013-06-24 18:05:00,88.3,67.4,28.58,SW,225,6.0,6.0,50,0.00,,,0.21,0.00,VWS V14.01,2013-06-24 23:05:00,
2013-06-24 18:06:00,88.2,67.2,28.58,SSE,158,3.4,3.4,50,0.00,,,0.21,0.00,VWS V14.01,2013-06-24 23:06:00,
2013-06-24 18:07:00,88.2,67.2,28.61,SSE,158,4.0,4.0,50,0.00,,,0.21,0.00,VWS V14.01,2013-06-24 23:07:00,
2013-06-24 18:08:00,88.0,67.6,28.61,East,90,2.9,2.9,51,0.00,,,0.21,0.00,VWS V14.01,2013-06-24 23:08:00,
2013-06-24 18:09:00,87.8,67.4,28.61,SE,135,2.7,2.7,51,0.00,,,0.21,0.00,VWS V14.01,2013-06-24 23:09:00,
2013-06-24 18:10:00,87.8,67.4,28.61,SSE,158,3.6,3.6,51,0.00,,,0.21,0.00,VWS V14.01,2013-06-24 23:10:00,
2013-06-24 18:11:00,87.8,67.4,28.61,North,0,2.7,2.7,51,0.00,,,0.21,0.00,VWS V14.01,2013-06-24 23:11:00,
2013-06-24 18:12:00,87.8,67.4,28.61,West,270,3.8,3.8,51,0.00,,,0.21,0.00,VWS V14.01,2013-06-24 23:12:00,
2013-06-24 18:13:00,87.8,67.4,28.61,SE,135,2.0,2.0,51,0.00,,,0.21,0.00,VWS V14.01,2013-06-24 23:13:00,
2013-06-24 18:14:00,87.4,68.2,28.61,East,90,2.0,2.0,53,0.00,,,0.21,0.00,VWS V14.01,2013-06-24 23:14:00,
2013-06-24 18:15:00,87.6,67.3,28.61,SE,135,2.7,2.7,51,0.00,,,0.21,0.00,VWS V14.01,2013-06-24 23:15:00,
2013-06-24 18:16:00,87.4,68.2,28.61,East,90,3.4,3.4,53,0.00,,,0.21,0.00,VWS V14.01,2013-06-24 23:16:00,
2013-06-24 18:17:00,87.4,67.7,28.61,NNW,338,2.0,2.0,52,0.00,,,0.21,0.00,VWS V14.01,2013-06-24 23:17:00,
2013-06-24 18:18:00,87.6,68.4,28.61,ESE,112,2.2,2.2,53,0.00,,,0.21,0.00,VWS V14.01,2013-06-24 23:18:00,
2013-06-24 18:19:00,87.6,68.4,28.61,SE,135,6.0,6.0,53,0.00,,,0.21,0.00,VWS V14.01,2013-06-24 23:19:00,
2013-06-24 18:20:00,87.8,68.0,28.61,SE,135,3.6,3.6,52,0.00,,,0.21,0.00,VWS V14.01,2013-06-24 23:20:00,
2013-06-24 18:21:00,87.8,68.0,28.61,East,90,1.6,1.6,52,0.00,,,0.21,0.00,VWS V14.01,2013-06-24 23:21:00,
2013-06-24 18:22:00,87.6,68.4,28.61,ESE,112,4.3,4.3,53,0.00,,,0.21,0.00,VWS V14.01,2013-06-24 23:22:00,
2013-06-24 18:23:00,87.6,67.8,28.61,East,90,1.3,1.3,52,0.00,,,0.21,0.00,VWS V14.01,2013-06-24 23:23:00,
2013-06-24 18:24:00,87.4,67.1,28.61,SSE,158,7.8,7.8,51,0.00,,,0.21,0.00,VWS V14.01,2013-06-24 23:24:00,
2013-06-24 18:25:00,87.8,68.0,28.61,East,90,2.0,2.0,52,0.00,,,0.21,0.00,VWS V14.01,2013-06-24 23:25:00,
2013-06-24 18:26:00,87.6,67.8,28.61,SSE,158,4.9,4.9,52,0.00,,,0.21,0.00,VWS V14.01,2013-06-24 23:26:00,
2013-06-24 18:27:00,87.4,67.1,28.61,South,180,2.9,2.9,51,0.00,,,0.21,0.00,VWS V14.01,2013-06-24 23:27:00,
2013-06-24 18:28:00,87.4,67.1,28.61,NW,315,2.5,2.5,51,0.00,,,0.21,0.00,VWS V14.01,2013-06-24 23:28:00,
2013-06-24 18:29:00,87.3,68.1,28.61,ESE,112,4.7,4.7,53,0.00,,,0.21,0.00,VWS V14.01,2013-06-24 23:29:00,
2013-06-24 18:30:00,87.4,68.2,28.61,ESE,112,3.8,3.8,53,0.00,,,0.21,0.00,VWS V14.01,2013-06-24 23:30:00,
2013-06-24 18:31:00,87.3,68.1,28.61,SSE,158,2.9,2.9,53,0.00,,,0.21,0.00,VWS V14.01,2013-06-24 23:31:00,
2013-06-24 18:32:00,87.1,67.9,28.61,SSE,158,3.1,3.1,53,0.00,,,0.21,0.00,VWS V14.01,2013-06-24 23:32:00,
2013-06-24 18:33:00,87.1,67.3,28.61,NE,45,3.4,3.4,52,0.00,,,0.21,0.00,VWS V14.01,2013-06-24 23:33:00,
2013-06-24 18:34:00,86.9,68.3,28.61,North,0,1.6,1.6,54,0.00,,,0.21,0.00,VWS V14.01,2013-06-24 23:34:00,
2013-06-24 18:35:00,87.1,67.9,28.61,SSE,158,0.0,0.0,53,0.00,,,0.21,0.00,VWS V14.01,2013-06-24 23:35:00,
2013-06-24 18:36:00,86.9,68.3,28.61,South,180,2.5,2.5,54,0.00,,,0.21,0.00,VWS V14.01,2013-06-24 23:36:00,
2013-06-24 18:37:00,86.9,68.3,28.61,NE,45,2.5,2.5,54,0.00,,,0.21,0.00,VWS V14.01,2013-06-24 23:37:00,
2013-06-24 18:38:00,86.9,68.3,28.61,SE,135,4.0,4.0,54,0.00,,,0.21,0.00,VWS V14.01,2013-06-24 23:38:00,
2013-06-24 18:39:00,86.4,67.8,28.61,SSE,158,4.0,4.0,54,0.00,,,0.21,0.00,VWS V14.01,2013-06-24 23:39:00,
2013-06-24 18:40:00,86.7,68.1,28.61,South,180,2.9,2.9,54,0.00,,,0.21,0.00,VWS V14.01,2013-06-24 23:40:00,
2013-06-24 18:41:00,86.4,67.2,28.61,SSE,158,2.0,2.0,53,0.00,,,0.21,0.00,VWS V14.01,2013-06-24 23:41:00,
2013-06-24 18:42:00,86.4,67.8,28.61,SE,135,3.6,3.6,54,0.00,,,0.21,0.00,VWS V14.01,2013-06-24 23:42:00,
2013-06-24 18:43:00,86.2,67.6,28.61,South,180,2.5,2.5,54,0.00,,,0.21,0.00,VWS V14.01,2013-06-24 23:43:00,
2013-06-24 18:44:00,86.0,68.0,28.61,South,180,6.5,6.5,55,0.00,,,0.21,0.00,VWS V14.01,2013-06-24 23:44:00,
2013-06-24 18:45:00,86.4,68.3,28.61,SSE,158,5.4,5.4,55,0.00,,,0.21,0.00,VWS V14.01,2013-06-24 23:45:00,
2013-06-24 18:46:00,86.2,68.1,28.61,SSE,158,3.8,3.8,55,0.00,,,0.21,0.00,VWS V14.01,2013-06-24 23:46:00,
2013-06-24 18:47:00,85.8,67.8,28.61,ESE,112,3.4,3.4,55,0.00,,,0.21,0.00,VWS V14.01,2013-06-24 23:47:00,
2013-06-24 18:48:00,86.0,68.0,28.61,ESE,112,2.5,2.5,55,0.00,,,0.21,0.00,VWS V14.01,2013-06-24 23:48:00,
2013-06-24 18:49:00,85.8,68.8,28.61,SE,135,1.3,1.3,57,0.00,,,0.21,0.00,VWS V14.01,2013-06-24 23:49:00,
2013-06-24 18:50:00,85.8,68.8,28.61,SE,135,2.9,2.9,57,0.00,,,0.21,0.00,VWS V14.01,2013-06-24 23:50:00,
2013-06-24 18:51:00,85.8,68.3,28.61,South,180,2.7,2.7,56,0.00,,,0.21,0.00,VWS V14.01,2013-06-24 23:51:00,
2013-06-24 18:52:00,85.8,68.8,28.61,SSE,158,2.7,2.7,57,0.00,,,0.21,0.00,VWS V14.01,2013-06-24 23:52:00,
2013-06-24 18:53:00,85.8,68.8,28.61,SSE,158,4.0,4.0,57,0.00,,,0.21,0.00,VWS V14.01,2013-06-24 23:53:00,
2013-06-24 18:54:00,85.5,69.0,28.61,SE,135,4.3,4.3,58,0.00,,,0.21,0.00,VWS V14.01,2013-06-24 23:54:00,
2013-06-24 18:55:00,85.6,68.7,28.61,South,180,2.2,2.2,57,0.00,,,0.21,0.00,VWS V14.01,2013-06-24 23:55:00,
2013-06-24 18:56:00,85.6,69.2,28.61,ESE,112,6.3,6.3,58,0.00,,,0.21,0.00,VWS V14.01,2013-06-24 23:56:00,
2013-06-24 18:57:00,85.5,69.0,28.61,SE,135,4.3,4.3,58,0.00,,,0.21,0.00,VWS V14.01,2013-06-24 23:57:00,
2013-06-24 18:58:00,85.3,68.8,28.61,East,90,2.7,2.7,58,0.00,,,0.21,0.00,VWS V14.01,2013-06-24 23:58:00,
2013-06-24 18:59:00,85.5,70.0,28.61,SSW,202,3.6,3.6,60,0.00,,,0.21,0.00,VWS V14.01,2013-06-24 23:59:00,
2013-06-24 19:00:00,85.3,68.8,28.61,SSE,158,1.6,1.6,58,0.00,,,0.21,0.00,VWS V14.01,2013-06-25 00:00:00,
2013-06-24 19:01:00,85.5,69.5,28.61,West,270,2.5,2.5,59,0.00,,,0.21,0.00,VWS V14.01,2013-06-25 00:01:00,
2013-06-24 19:02:00,85.5,70.0,28.61,SSE,158,1.6,1.6,60,0.00,,,0.21,0.00,VWS V14.01,2013-06-25 00:02:00,
2013-06-24 19:03:00,85.3,68.8,28.61,East,90,2.7,2.7,58,0.00,,,0.21,0.00,VWS V14.01,2013-06-25 00:03:00,
2013-06-24 19:04:00,84.9,69.0,28.61,NE,45,2.7,2.7,59,0.00,,,0.21,0.00,VWS V14.01,2013-06-25 00:04:00,
2013-06-24 19:05:00,85.1,68.7,28.61,SE,135,2.9,2.9,58,0.00,,,0.21,0.00,VWS V14.01,2013-06-25 00:05:00,
2013-06-24 19:06:00,84.9,69.0,28.61,SE,135,2.9,2.9,59,0.00,,,0.21,0.00,VWS V14.01,2013-06-25 00:06:00,
2013-06-24 19:07:00,84.9,69.0,28.61,NE,45,2.7,2.7,59,0.00,,,0.21,0.00,VWS V14.01,2013-06-25 00:07:00,
2013-06-24 19:08:00,84.9,69.0,28.61,SE,135,5.8,5.8,59,0.00,,,0.21,0.00,VWS V14.01,2013-06-25 00:08:00,
2013-06-24 19:09:00,84.6,68.7,28.61,South,180,1.1,1.1,59,0.00,,,0.21,0.00,VWS V14.01,2013-06-25 00:09:00,
2013-06-24 19:10:00,84.6,68.7,28.61,SE,135,2.7,2.7,59,0.00,,,0.21,0.00,VWS V14.01,2013-06-25 00:10:00,
2013-06-24 19:11:00,84.6,68.7,28.61,East,90,1.3,1.3,59,0.00,,,0.21,0.00,VWS V14.01,2013-06-25 00:11:00,
2013-06-24 19:12:00,84.6,68.7,28.61,South,180,1.1,1.1,59,0.00,,,0.21,0.00,VWS V14.01,2013-06-25 00:12:00,
2013-06-24 19:13:00,84.6,69.2,28.61,SSW,202,2.0,2.0,60,0.00,,,0.21,0.00,VWS V14.01,2013-06-25 00:13:00,
2013-06-24 19:14:00,84.4,69.5,28.61,SE,135,2.5,2.5,61,0.00,,,0.21,0.00,VWS V14.01,2013-06-25 00:14:00,
2013-06-24 19:15:00,84.6,69.2,28.61,SSE,158,3.6,3.6,60,0.00,,,0.21,0.00,VWS V14.01,2013-06-25 00:15:00,
2013-06-24 19:16:00,84.4,69.0,28.61,SE,135,4.0,4.0,60,0.00,,,0.21,0.00,VWS V14.01,2013-06-25 00:16:00,
2013-06-24 19:17:00,84.4,69.5,28.61,SE,135,2.9,2.9,61,0.00,,,0.21,0.00,VWS V14.01,2013-06-25 00:17:00,
2013-06-24 19:18:00,84.4,69.5,28.61,SSE,158,2.0,2.0,61,0.00,,,0.21,0.00,VWS V14.01,2013-06-25 00:18:00,
2013-06-24 19:19:00,84.0,69.1,28.61,SSE,158,3.1,3.1,61,0.00,,,0.21,0.00,VWS V14.01,2013-06-25 00:19:00,
2013-06-24 19:20:00,84.2,69.3,28.61,SE,135,2.7,2.7,61,0.00,,,0.21,0.00,VWS V14.01,2013-06-25 00:20:00,
2013-06-24 19:21:00,84.2,69.3,28.61,SSE,158,2.2,2.2,61,0.00,,,0.21,0.00,VWS V14.01,2013-06-25 00:21:00,
2013-06-24 19:22:00,84.0,69.1,28.61,SSE,158,3.1,3.1,61,0.00,,,0.21,0.00,VWS V14.01,2013-06-25 00:22:00,
2013-06-24 19:23:00,84.0,69.1,28.61,WNW,292,1.3,1.3,61,0.00,,,0.21,0.00,VWS V14.01,2013-06-25 00:23:00,
2013-06-24 19:24:00,83.7,69.3,28.61,ESE,112,3.1,3.1,62,0.00,,,0.21,0.00,VWS V14.01,2013-06-25 00:24:00,
2013-06-24 19:25:00,83.8,69.9,28.61,SSE,158,1.3,1.3,63,0.00,,,0.21,0.00,VWS V14.01,2013-06-25 00:25:00,
2013-06-24 19:26:00,83.8,69.4,28.61,ESE,112,0.9,0.9,62,0.00,,,0.21,0.00,VWS V14.01,2013-06-25 00:26:00,
2013-06-24 19:27:00,83.7,69.3,28.61,East,90,2.0,2.0,62,0.00,,,0.21,0.00,VWS V14.01,2013-06-25 00:27:00,
2013-06-24 19:28:00,83.7,69.3,28.61,East,90,2.2,2.2,62,0.00,,,0.21,0.00,VWS V14.01,2013-06-25 00:28:00,
2013-06-24 19:29:00,83.1,69.2,28.61,SE,135,2.0,2.0,63,0.00,,,0.21,0.00,VWS V14.01,2013-06-25 00:29:00,
2013-06-24 19:30:00,83.5,69.1,28.61,ESE,112,3.6,3.6,62,0.00,,,0.21,0.00,VWS V14.01,2013-06-25 00:30:00,
2013-06-24 19:31:00,83.3,69.4,28.61,SE,135,1.1,1.1,63,0.00,,,0.21,0.00,VWS V14.01,2013-06-25 00:31:00,
2013-06-24 19:32:00,83.1,69.2,28.61,SE,135,2.0,2.0,63,0.00,,,0.21,0.00,VWS V14.01,2013-06-25 00:32:00,
2013-06-24 19:33:00,83.1,69.2,28.61,South,180,1.3,1.3,63,0.00,,,0.21,0.00,VWS V14.01,2013-06-25 00:33:00,
2013-06-24 19:34:00,82.6,69.2,28.61,SE,135,2.9,2.9,64,0.00,,,0.21,0.00,VWS V14.01,2013-06-25 00:34:00,
2013-06-24 19:35:00,82.8,69.3,28.61,ESE,112,2.9,2.9,64,0.00,,,0.21,0.00,VWS V14.01,2013-06-25 00:35:00,
2013-06-24 19:36:00,82.8,69.3,28.61,SSE,158,1.1,1.1,64,0.00,,,0.21,0.00,VWS V14.01,2013-06-25 00:36:00,
2013-06-24 19:37:00,82.6,69.2,28.61,SE,135,1.6,1.6,64,0.00,,,0.21,0.00,VWS V14.01,2013-06-25 00:37:00,
2013-06-24 19:38:00,82.6,69.2,28.61,SE,135,3.8,3.8,64,0.00,,,0.21,0.00,VWS V14.01,2013-06-25 00:38:00,
2013-06-24 19:39:00,82.0,69.6,28.61,South,180,3.6,3.6,66,0.00,,,0.21,0.00,VWS V14.01,2013-06-25 00:39:00,
2013-06-24 19:40:00,82.2,69.3,28.61,SE,135,2.0,2.0,65,0.00,,,0.21,0.00,VWS V14.01,2013-06-25 00:40:00,
2013-06-24 19:41:00,82.2,69.3,28.61,ESE,112,2.9,2.9,65,0.00,,,0.21,0.00,VWS V14.01,2013-06-25 00:41:00,
2013-06-24 19:42:00,82.0,69.6,28.61,SE,135,2.7,2.7,66,0.00,,,0.21,0.00,VWS V14.01,2013-06-25 00:42:00,
2013-06-24 19:43:00,82.0,69.6,28.61,SE,135,5.4,5.4,66,0.00,,,0.21,0.00,VWS V14.01,2013-06-25 00:43:00,
2013-06-24 19:44:00,81.7,69.2,28.61,SE,135,3.1,3.1,66,0.00,,,0.21,0.00,VWS V14.01,2013-06-25 00:44:00,
2013-06-24 19:45:00,81.9,69.4,28.61,SSE,158,4.0,4.0,66,0.00,,,0.21,0.00,VWS V14.01,2013-06-25 00:45:00,
2013-06-24 19:46:00,81.7,69.2,28.61,SE,135,2.9,2.9,66,0.00,,,0.21,0.00,VWS V14.01,2013-06-25 00:46:00,
2013-06-24 19:47:00,81.7,69.2,28.61,East,90,1.3,1.3,66,0.00,,,0.21,0.00,VWS V14.01,2013-06-25 00:47:00,
2013-06-24 19:48:00,81.5,69.1,28.61,SSE,158,2.0,2.0,66,0.00,,,0.21,0.00,VWS V14.01,2013-06-25 00:48:00,
2013-06-24 19:49:00,81.0,69.0,28.61,SE,135,0.0,0.0,67,0.00,,,0.21,0.00,VWS V14.01,2013-06-25 00:49:00,
2013-06-24 19:50:00,81.3,69.3,28.61,ESE,112,1.1,1.1,67,0.00,,,0.21,0.00,VWS V14.01,2013-06-25 00:50:00,
2013-06-24 19:51:00,81.3,69.3,28.61,SE,135,2.0,2.0,67,0.00,,,0.21,0.00,VWS V14.01,2013-06-25 00:51:00,
2013-06-24 19:52:00,81.1,69.2,28.61,SE,135,1.1,1.1,67,0.00,,,0.21,0.00,VWS V14.01,2013-06-25 00:52:00,
2013-06-24 19:53:00,81.0,69.0,28.61,SSE,158,2.9,2.9,67,0.00,,,0.21,0.00,VWS V14.01,2013-06-25 00:53:00,
2013-06-24 19:54:00,80.6,69.1,28.61,SE,135,1.3,1.3,68,0.00,,,0.21,0.00,VWS V14.01,2013-06-25 00:54:00,
2013-06-24 19:55:00,80.8,68.8,28.61,ESE,112,2.9,2.9,67,0.00,,,0.21,0.00,VWS V14.01,2013-06-25 00:55:00,
2013-06-24 19:56:00,80.8,68.8,28.61,SSE,158,3.1,3.1,67,0.00,,,0.21,0.00,VWS V14.01,2013-06-25 00:56:00,
2013-06-24 19:57:00,80.6,69.1,28.61,SE,135,3.8,3.8,68,0.00,,,0.21,0.00,VWS V14.01,2013-06-25 00:57:00,
2013-06-24 19:58:00,80.6,69.1,28.61,SSE,158,2.5,2.5,68,0.00,,,0.21,0.00,VWS V14.01,2013-06-25 00:58:00,
2013-06-24 19:59:00,80.6,69.1,28.61,SE,135,0.0,0.0,68,0.00,,,0.21,0.00,VWS V14.01,2013-06-25 00:59:00,
2013-06-24 20:00:00,80.4,69.3,28.61,SE,135,1.1,1.1,69,0.00,,,0.21,0.00,VWS V14.01,2013-06-25 01:00:00,
2013-06-24 20:01:00,80.6,69.1,28.61,SSE,158,2.9,2.9,68,0.00,,,0.21,0.00,VWS V14.01,2013-06-25 01:01:00,
2013-06-24 20:02:00,80.4,69.3,28.61,SSE,158,2.0,2.0,69,0.00,,,0.21,0.00,VWS V14.01,2013-06-25 01:02:00,
2013-06-24 20:03:00,80.4,69.3,28.61,SE,135,2.2,2.2,69,0.00,,,0.21,0.00,VWS V14.01,2013-06-25 01:03:00,
2013-06-24 20:04:00,80.4,69.3,28.61,SE,135,3.6,3.6,69,0.00,,,0.21,0.00,VWS V14.01,2013-06-25 01:04:00,
2013-06-24 20:05:00,80.2,69.2,28.61,East,90,0.9,0.9,69,0.00,,,0.21,0.00,VWS V14.01,2013-06-25 01:05:00,
2013-06-24 20:06:00,80.4,69.3,28.61,ENE,68,1.3,1.3,69,0.00,,,0.21,0.00,VWS V14.01,2013-06-25 01:06:00,
2013-06-24 20:07:00,80.4,69.3,28.61,ENE,68,0.0,0.0,69,0.00,,,0.21,0.00,VWS V14.01,2013-06-25 01:07:00,
2013-06-24 20:08:00,80.2,69.2,28.61,SSE,158,2.0,2.0,69,0.00,,,0.21,0.00,VWS V14.01,2013-06-25 01:08:00,
2013-06-24 20:09:00,80.2,69.2,28.61,SSE,158,1.6,1.6,69,0.00,,,0.21,0.00,VWS V14.01,2013-06-25 01:09:00,
2013-06-24 20:10:00,80.2,69.6,28.61,SE,135,0.0,0.0,70,0.00,,,0.21,0.00,VWS V14.01,2013-06-25 01:10:00,
2013-06-24 20:11:00,80.2,69.6,28.61,SE,135,2.7,2.7,70,0.00,,,0.21,0.00,VWS V14.01,2013-06-25 01:11:00,
2013-06-24 20:12:00,80.2,69.6,28.61,SE,135,0.0,0.0,70,0.00,,,0.21,0.00,VWS V14.01,2013-06-25 01:12:00,
2013-06-24 20:13:00,80.2,69.6,28.61,SE,135,0.0,0.0,70,0.00,,,0.21,0.00,VWS V14.01,2013-06-25 01:13:00,
2013-06-24 20:14:00,80.2,69.6,28.61,SE,135,2.7,2.7,70,0.00,,,0.21,0.00,VWS V14.01,2013-06-25 01:14:00,
2013-06-24 20:15:00,80.2,70.0,28.61,East,90,3.6,3.6,71,0.00,,,0.21,0.00,VWS V14.01,2013-06-25 01:15:00,
2013-06-24 20:16:00,80.2,70.0,28.61,South,180,1.6,1.6,71,0.00,,,0.21,0.00,VWS V14.01,2013-06-25 01:16:00,
2013-06-24 20:17:00,80.2,70.0,28.61,South,180,0.0,0.0,71,0.00,,,0.21,0.00,VWS V14.01,2013-06-25 01:17:00,
2013-06-24 20:18:00,80.2,70.0,28.61,East,90,3.6,3.6,71,0.00,,,0.21,0.00,VWS V14.01,2013-06-25 01:18:00,
2013-06-24 20:19:00,80.2,70.0,28.61,SSE,158,2.7,2.7,71,0.00,,,0.21,0.00,VWS V14.01,2013-06-25 01:19:00,
2013-06-24 20:20:00,80.1,69.8,28.58,East,90,0.0,0.0,71,0.00,,,0.21,0.00,VWS V14.01,2013-06-25 01:20:00,
2013-06-24 20:21:00,80.1,69.8,28.61,SSE,158,2.5,2.5,71,0.00,,,0.21,0.00,VWS V14.01,2013-06-25 01:21:00,
2013-06-24 20:22:00,80.1,70.2,28.58,SE,135,0.9,0.9,72,0.00,,,0.21,0.00,VWS V14.01,2013-06-25 01:22:00,
2013-06-24 20:23:00,80.1,69.8,28.58,East,90,0.0,0.0,71,0.00,,,0.21,0.00,VWS V14.01,2013-06-25 01:23:00,
2013-06-24 20:24:00,80.1,69.8,28.58,NE,45,0.0,0.0,71,0.00,,,0.21,0.00,VWS V14.01,2013-06-25 01:24:00,
2013-06-24 20:25:00,79.9,70.1,28.58,SSE,158,2.7,2.7,72,0.00,,,0.21,0.00,VWS V14.01,2013-06-25 01:25:00,
2013-06-24 20:26:00,80.1,69.8,28.58,NE,45,1.6,1.6,71,0.00,,,0.21,0.00,VWS V14.01,2013-06-25 01:26:00,
2013-06-24 20:27:00,79.9,69.6,28.58,East,90,1.1,1.1,71,0.00,,,0.21,0.00,VWS V14.01,2013-06-25 01:27:00,
2013-06-24 20:28:00,79.9,70.1,28.58,SE,135,1.3,1.3,72,0.00,,,0.21,0.00,VWS V14.01,2013-06-25 01:28:00,
2013-06-24 20:29:00,79.9,70.1,28.58,SE,135,2.5,2.5,72,0.00,,,0.21,0.00,VWS V14.01,2013-06-25 01:29:00,
2013-06-24 20:30:00,79.5,70.1,28.58,South,180,1.1,1.1,73,0.00,,,0.21,0.00,VWS V14.01,2013-06-25 01:30:00,
2013-06-24 20:31:00,79.7,69.9,28.58,NE,45,1.1,1.1,72,0.00,,,0.21,0.00,VWS V14.01,2013-06-25 01:31:00,
2013-06-24 20:32:00,79.7,69.9,28.58,ENE,68,2.0,2.0,72,0.00,,,0.21,0.00,VWS V14.01,2013-06-25 01:32:00,
2013-06-24 20:33:00,79.5,70.1,28.58,South,180,1.1,1.1,73,0.00,,,0.21,0.00,VWS V14.01,2013-06-25 01:33:00,
2013-06-24 20:34:00,79.5,70.1,28.58,NNW,338,2.9,2.9,73,0.00,,,0.21,0.00,VWS V14.01,2013-06-25 01:34:00,
2013-06-24 20:35:00,79.3,69.9,28.61,SE,135,3.1,3.1,73,0.00,,,0.21,0.00,VWS V14.01,2013-06-25 01:35:00,
2013-06-24 20:36:00,79.3,69.9,28.58,ENE,68,2.0,2.0,73,0.00,,,0.21,0.00,VWS V14.01,2013-06-25 01:36:00,
2013-06-24 20:37:00,79.3,69.9,28.61,South,180,0.9,0.9,73,0.00,,,0.21,0.00,VWS V14.01,2013-06-25 01:37:00,
2013-06-24 20:38:00,79.3,69.9,28.61,SSE,158,0.0,0.0,73,0.00,,,0.21,0.00,VWS V14.01,2013-06-25 01:38:00,
2013-06-24 20:39:00,79.3,69.9,28.61,ESE,112,1.6,1.6,73,0.00,,,0.21,0.00,VWS V14.01,2013-06-25 01:39:00,
2013-06-24 20:40:00,79.0,69.6,28.61,East,90,0.0,0.0,73,0.00,,,0.21,0.00,VWS V14.01,2013-06-25 01:40:00,
2013-06-24 20:41:00,79.2,69.8,28.61,NE,45,1.6,1.6,73,0.00,,,0.21,0.00,VWS V14.01,2013-06-25 01:41:00,
2013-06-24 20:42:00,79.0,69.6,28.61,East,90,1.3,1.3,73,0.00,,,0.21,0.00,VWS V14.01,2013-06-25 01:42:00,
2013-06-24 20:43:00,79.0,69.6,28.61,East,90,0.9,0.9,73,0.00,,,0.21,0.00,VWS V14.01,2013-06-25 01:43:00,
2013-06-24 20:44:00,79.0,69.6,28.61,East,90,2.0,2.0,73,0.00,,,0.21,0.00,VWS V14.01,2013-06-25 01:44:00,
2013-06-24 20:45:00,78.6,69.7,28.61,East,90,2.7,2.7,74,0.00,,,0.21,0.00,VWS V14.01,2013-06-25 01:45:00,
2013-06-24 20:46:00,78.8,69.8,28.61,SE,135,1.3,1.3,74,0.00,,,0.21,0.00,VWS V14.01,2013-06-25 01:46:00,
2013-06-24 20:47:00,78.8,69.8,28.61,SE,135,0.0,0.0,74,0.00,,,0.21,0.00,VWS V14.01,2013-06-25 01:47:00,
2013-06-24 20:48:00,78.6,69.6,28.61,SE,135,0.0,0.0,74,0.00,,,0.21,0.00,VWS V14.01,2013-06-25 01:48:00,
2013-06-24 20:49:00,78.6,69.6,28.61,East,90,2.2,2.2,74,0.00,,,0.21,0.00,VWS V14.01,2013-06-25 01:49:00,
2013-06-24 20:50:00,78.4,69.9,28.61,ESE,112,1.3,1.3,75,0.00,,,0.21,0.00,VWS V14.01,2013-06-25 01:50:00,
2013-06-24 20:51:00,78.6,69.6,28.61,SE,135,0.0,0.0,74,0.00,,,0.21,0.00,VWS V14.01,2013-06-25 01:51:00,
2013-06-24 20:52:00,78.4,69.9,28.61,ESE,112,2.0,2.0,75,0.00,,,0.21,0.00,VWS V14.01,2013-06-25 01:52:00,
2013-06-24 20:53:00,78.4,69.9,28.61,ESE,112,1.3,1.3,75,0.00,,,0.21,0.00,VWS V14.01,2013-06-25 01:53:00,
2013-06-24 20:54:00,78.4,69.9,28.61,ESE,112,0.9,0.9,75,0.00,,,0.21,0.00,VWS V14.01,2013-06-25 01:54:00,
2013-06-24 20:55:00,78.3,69.7,28.61,ESE,112,0.0,0.0,75,0.00,,,0.21,0.00,VWS V14.01,2013-06-25 01:55:00,
2013-06-24 20:56:00,78.1,69.5,28.61,ESE,112,2.5,2.5,75,0.00,,,0.21,0.00,VWS V14.01,2013-06-25 01:56:00,
2013-06-24 20:57:00,78.1,69.5,28.61,East,90,0.9,0.9,75,0.00,,,0.21,0.00,VWS V14.01,2013-06-25 01:57:00,
2013-06-24 20:58:00,78.1,69.5,28.61,SSW,202,1.3,1.3,75,0.00,,,0.21,0.00,VWS V14.01,2013-06-25 01:58:00,
2013-06-24 20:59:00,78.1,69.5,28.61,ESE,112,1.3,1.3,75,0.00,,,0.21,0.00,VWS V14.01,2013-06-25 01:59:00,
2013-06-24 21:00:00,77.9,69.3,28.61,SE,135,1.3,1.3,75,0.00,,,0.21,0.00,VWS V14.01,2013-06-25 02:00:00,
2013-06-24 21:01:00,77.9,70.1,28.61,SE,135,1.1,1.1,77,0.00,,,0.21,0.00,VWS V14.01,2013-06-25 02:01:00,
2013-06-24 21:02:00,77.9,69.7,28.61,ESE,112,0.0,0.0,76,0.00,,,0.21,0.00,VWS V14.01,2013-06-25 02:02:00,
2013-06-24 21:03:00,77.9,70.1,28.61,SE,135,2.2,2.2,77,0.00,,,0.21,0.00,VWS V14.01,2013-06-25 02:03:00,
2013-06-24 21:04:00,77.7,69.9,28.61,East,90,0.9,0.9,77,0.00,,,0.21,0.00,VWS V14.01,2013-06-25 02:04:00,
2013-06-24 21:05:00,77.7,69.9,28.61,East,90,2.0,2.0,77,0.00,,,0.21,0.00,VWS V14.01,2013-06-25 02:05:00,
2013-06-24 21:06:00,77.5,69.8,28.61,North,0,2.5,2.5,77,0.00,,,0.21,0.00,VWS V14.01,2013-06-25 02:06:00,
2013-06-24 21:07:00,77.7,69.9,28.61,SE,135,1.1,1.1,77,0.00,,,0.21,0.00,VWS V14.01,2013-06-25 02:07:00,
2013-06-24 21:08:00,77.7,69.9,28.61,NW,315,3.6,3.6,77,0.00,,,0.21,0.00,VWS V14.01,2013-06-25 02:08:00,
2013-06-24 21:09:00,77.5,69.8,28.61,SE,135,1.6,1.6,77,0.00,,,0.21,0.00,VWS V14.01,2013-06-25 02:09:00,
2013-06-24 21:10:00,77.5,70.1,28.61,ESE,112,2.7,2.7,78,0.00,,,0.21,0.00,VWS V14.01,2013-06-25 02:10:00,
2013-06-24 21:11:00,77.5,70.5,28.61,SE,135,3.8,3.8,79,0.00,,,0.21,0.00,VWS V14.01,2013-06-25 02:11:00,
2013-06-24 21:12:00,77.5,70.1,28.61,SSE,158,2.9,2.9,78,0.00,,,0.21,0.00,VWS V14.01,2013-06-25 02:12:00,
2013-06-24 21:13:00,77.5,70.1,28.61,SSE,158,0.0,0.0,78,0.00,,,0.21,0.00,VWS V14.01,2013-06-25 02:13:00,
2013-06-24 21:14:00,77.5,70.5,28.61,SE,135,3.6,3.6,79,0.00,,,0.21,0.00,VWS V14.01,2013-06-25 02:14:00,
2013-06-24 21:15:00,77.5,70.5,28.61,SE,135,1.1,1.1,79,0.00,,,0.21,0.00,VWS V14.01,2013-06-25 02:15:00,
2013-06-24 21:16:00,77.4,70.0,28.61,SE,135,1.1,1.1,78,0.00,,,0.21,0.00,VWS V14.01,2013-06-25 02:16:00,
2013-06-24 21:17:00,77.4,70.3,28.61,SSE,158,1.6,1.6,79,0.00,,,0.21,0.00,VWS V14.01,2013-06-25 02:17:00,
2013-06-24 21:18:00,77.4,70.3,28.61,East,90,2.0,2.0,79,0.00,,,0.21,0.00,VWS V14.01,2013-06-25 02:18:00,
2013-06-24 21:19:00,77.4,70.0,28.61,SE,135,1.3,1.3,78,0.00,,,0.21,0.00,VWS V14.01,2013-06-25 02:19:00,
2013-06-24 21:20:00,77.4,70.3,28.61,SE,135,2.0,2.0,79,0.00,,,0.21,0.00,VWS V14.01,2013-06-25 02:20:00,
2013-06-24 21:21:00,77.2,69.8,28.61,SSE,158,3.6,3.6,78,0.00,,,0.21,0.00,VWS V14.01,2013-06-25 02:21:00,
2013-06-24 21:22:00,77.2,70.2,28.61,SE,135,2.5,2.5,79,0.00,,,0.21,0.00,VWS V14.01,2013-06-25 02:22:00,
2013-06-24 21:23:00,77.2,70.2,28.61,SE,135,1.1,1.1,79,0.00,,,0.21,0.00,VWS V14.01,2013-06-25 02:23:00,
2013-06-24 21:24:00,77.2,69.8,28.61,East,90,3.1,3.1,78,0.00,,,0.21,0.00,VWS V14.01,2013-06-25 02:24:00,
2013-06-24 21:25:00,77.0,70.0,28.61,NW,315,1.3,1.3,79,0.00,,,0.21,0.00,VWS V14.01,2013-06-25 02:25:00,
2013-06-24 21:26:00,77.0,70.0,28.61,SSE,158,1.1,1.1,79,0.00,,,0.21,0.00,VWS V14.01,2013-06-25 02:26:00,
2013-06-24 21:27:00,77.0,70.0,28.61,East,90,3.1,3.1,79,0.00,,,0.21,0.00,VWS V14.01,2013-06-25 02:27:00,
2013-06-24 21:28:00,77.0,70.0,28.61,SE,135,1.3,1.3,79,0.00,,,0.21,0.00,VWS V14.01,2013-06-25 02:28:00,
2013-06-24 21:29:00,77.0,70.0,28.61,SSE,158,0.0,0.0,79,0.00,,,0.21,0.00,VWS V14.01,2013-06-25 02:29:00,
2013-06-24 21:30:00,77.0,70.0,28.61,SSE,158,0.9,0.9,79,0.00,,,0.21,0.00,VWS V14.01,2013-06-25 02:30:00,
2013-06-24 21:31:00,76.8,69.8,28.61,WNW,292,1.6,1.6,79,0.00,,,0.21,0.00,VWS V14.01,2013-06-25 02:31:00,
2013-06-24 21:32:00,76.8,69.8,28.61,SE,135,2.9,2.9,79,0.00,,,0.21,0.00,VWS V14.01,2013-06-25 02:32:00,
2013-06-24 21:33:00,76.8,69.8,28.61,SSW,202,1.1,1.1,79,0.00,,,0.21,0.00,VWS V14.01,2013-06-25 02:33:00,
2013-06-24 21:34:00,76.8,70.2,28.61,NW,315,0.9,0.9,80,0.00,,,0.21,0.00,VWS V14.01,2013-06-25 02:34:00,
2013-06-24 21:35:00,76.8,69.8,28.61,South,180,4.0,4.0,79,0.00,,,0.21,0.00,VWS V14.01,2013-06-25 02:35:00,
2013-06-24 21:36:00,76.8,70.6,28.61,SSE,158,1.6,1.6,81,0.00,,,0.21,0.00,VWS V14.01,2013-06-25 02:36:00,
2013-06-24 21:37:00,76.8,70.2,28.61,South,180,1.6,1.6,80,0.00,,,0.21,0.00,VWS V14.01,2013-06-25 02:37:00,
2013-06-24 21:38:00,76.8,70.2,28.61,SE,135,3.1,3.1,80,0.00,,,0.21,0.00,VWS V14.01,2013-06-25 02:38:00,
2013-06-24 21:39:00,76.8,70.6,28.61,SSE,158,1.6,1.6,81,0.00,,,0.21,0.00,VWS V14.01,2013-06-25 02:39:00,
2013-06-24 21:40:00,76.8,70.2,28.61,SSE,158,0.0,0.0,80,0.00,,,0.21,0.00,VWS V14.01,2013-06-25 02:40:00,
2013-06-24 21:41:00,76.6,70.0,28.61,ESE,112,3.4,3.4,80,0.00,,,0.21,0.00,VWS V14.01,2013-06-25 02:41:00,
2013-06-24 21:42:00,76.6,70.0,28.61,SSE,158,1.3,1.3,80,0.00,,,0.21,0.00,VWS V14.01,2013-06-25 02:42:00,
2013-06-24 21:43:00,76.6,70.0,28.61,SSE,158,1.6,1.6,80,0.00,,,0.21,0.00,VWS V14.01,2013-06-25 02:43:00,
2013-06-24 21:44:00,76.6,70.0,28.61,ESE,112,3.4,3.4,80,0.00,,,0.21,0.00,VWS V14.01,2013-06-25 02:44:00,
2013-06-24 21:45:00,76.6,70.0,28.61,East,90,2.5,2.5,80,0.00,,,0.21,0.00,VWS V14.01,2013-06-25 02:45:00,
2013-06-24 21:46:00,76.6,70.0,28.61,East,90,1.3,1.3,80,0.00,,,0.21,0.00,VWS V14.01,2013-06-25 02:46:00,
2013-06-24 21:47:00,76.6,70.0,28.61,SE,135,1.3,1.3,80,0.00,,,0.21,0.00,VWS V14.01,2013-06-25 02:47:00,
2013-06-24 21:48:00,76.6,70.0,28.61,SE,135,0.0,0.0,80,0.00,,,0.21,0.00,VWS V14.01,2013-06-25 02:48:00,
2013-06-24 21:49:00,76.6,70.0,28.61,ENE,68,2.0,2.0,80,0.00,,,0.21,0.00,VWS V14.01,2013-06-25 02:49:00,
2013-06-24 21:50:00,76.6,70.0,28.61,East,90,0.0,0.0,80,0.00,,,0.21,0.00,VWS V14.01,2013-06-25 02:50:00,
2013-06-24 21:51:00,76.5,69.8,28.61,South,180,0.0,0.0,80,0.00,,,0.21,0.00,VWS V14.01,2013-06-25 02:51:00,
2013-06-24 21:52:00,76.5,69.8,28.61,SE,135,1.3,1.3,80,0.00,,,0.21,0.00,VWS V14.01,2013-06-25 02:52:00,
2013-06-24 21:53:00,76.5,69.8,28.61,South,180,1.1,1.1,80,0.00,,,0.21,0.00,VWS V14.01,2013-06-25 02:53:00,
2013-06-24 21:54:00,76.5,69.8,28.61,South,180,0.0,0.0,80,0.00,,,0.21,0.00,VWS V14.01,2013-06-25 02:54:00,
2013-06-24 21:55:00,76.5,69.5,28.61,SSE,158,2.0,2.0,79,0.00,,,0.21,0.00,VWS V14.01,2013-06-25 02:55:00,
2013-06-24 21:56:00,76.5,69.5,28.61,SE,135,2.0,2.0,79,0.00,,,0.21,0.00,VWS V14.01,2013-06-25 02:56:00,
2013-06-24 21:57:00,76.5,69.5,28.61,South,180,0.9,0.9,79,0.00,,,0.21,0.00,VWS V14.01,2013-06-25 02:57:00,
2013-06-24 21:58:00,76.5,69.5,28.61,SE,135,2.5,2.5,79,0.00,,,0.21,0.00,VWS V14.01,2013-06-25 02:58:00,
2013-06-24 21:59:00,76.5,69.5,28.61,SE,135,3.4,3.4,79,0.00,,,0.21,0.00,VWS V14.01,2013-06-25 02:59:00,
2013-06-24 22:00:00,76.5,69.5,28.61,SE,135,1.6,1.6,79,0.00,,,0.21,0.00,VWS V14.01,2013-06-25 03:00:00,
2013-06-24 22:01:00,76.5,69.5,28.61,SE,135,2.0,2.0,79,0.00,,,0.21,0.00,VWS V14.01,2013-06-25 03:01:00,
2013-06-24 22:02:00,76.5,69.5,28.61,ENE,68,1.3,1.3,79,0.00,,,0.21,0.00,VWS V14.01,2013-06-25 03:02:00,
2013-06-24 22:03:00,76.5,69.5,28.61,NNE,22,0.0,0.0,79,0.00,,,0.21,0.00,VWS V14.01,2013-06-25 03:03:00,
2013-06-24 22:04:00,76.5,69.5,28.61,South,180,2.0,2.0,79,0.00,,,0.21,0.00,VWS V14.01,2013-06-25 03:04:00,
2013-06-24 22:05:00,76.5,69.5,28.61,SE,135,1.3,1.3,79,0.00,,,0.21,0.00,VWS V14.01,2013-06-25 03:05:00,
2013-06-24 22:06:00,76.5,69.5,28.61,NW,315,0.9,0.9,79,0.00,,,0.21,0.00,VWS V14.01,2013-06-25 03:06:00,
2013-06-24 22:07:00,76.3,69.3,28.61,NE,45,0.0,0.0,79,0.00,,,0.21,0.00,VWS V14.01,2013-06-25 03:07:00,
2013-06-24 22:08:00,76.3,69.3,28.61,NE,45,0.0,0.0,79,0.00,,,0.21,0.00,VWS V14.01,2013-06-25 03:08:00,
2013-06-24 22:09:00,76.3,69.3,28.61,NE,45,0.0,0.0,79,0.00,,,0.21,0.00,VWS V14.01,2013-06-25 03:09:00,
2013-06-24 22:10:00,76.3,69.3,28.61,NE,45,0.0,0.0,79,0.00,,,0.21,0.00,VWS V14.01,2013-06-25 03:10:00,
2013-06-24 22:11:00,76.3,69.3,28.61,NE,45,0.0,0.0,79,0.00,,,0.21,0.00,VWS V14.01,2013-06-25 03:11:00,
2013-06-24 22:12:00,76.1,69.1,28.61,NW,315,0.0,0.0,79,0.00,,,0.21,0.00,VWS V14.01,2013-06-25 03:12:00,
2013-06-24 22:13:00,76.1,69.1,28.61,ENE,68,0.0,0.0,79,0.00,,,0.21,0.00,VWS V14.01,2013-06-25 03:13:00,
2013-06-24 22:14:00,76.1,69.1,28.61,ENE,68,0.0,0.0,79,0.00,,,0.21,0.00,VWS V14.01,2013-06-25 03:14:00,
2013-06-24 22:15:00,76.1,69.1,28.61,North,0,0.0,0.0,79,0.00,,,0.21,0.00,VWS V14.01,2013-06-25 03:15:00,
2013-06-24 22:16:00,76.1,69.1,28.61,SSW,202,0.0,0.0,79,0.00,,,0.21,0.00,VWS V14.01,2013-06-25 03:16:00,
2013-06-24 22:17:00,75.9,68.9,28.61,ESE,112,4.3,4.3,79,0.00,,,0.21,0.00,VWS V14.01,2013-06-25 03:17:00,
2013-06-24 22:18:00,75.9,68.9,28.61,SSW,202,0.0,0.0,79,0.00,,,0.21,0.00,VWS V14.01,2013-06-25 03:18:00,
2013-06-24 22:19:00,75.9,68.9,28.61,SSW,202,0.0,0.0,79,0.00,,,0.21,0.00,VWS V14.01,2013-06-25 03:19:00,
2013-06-24 22:20:00,75.9,69.3,28.61,SE,135,2.2,2.2,80,0.00,,,0.21,0.00,VWS V14.01,2013-06-25 03:20:00,
2013-06-24 22:21:00,76.1,69.5,28.61,SSE,158,3.1,3.1,80,0.00,,,0.21,0.00,VWS V14.01,2013-06-25 03:21:00,
2013-06-24 22:22:00,75.9,69.3,28.61,NE,45,0.0,0.0,80,0.00,,,0.21,0.00,VWS V14.01,2013-06-25 03:22:00,
2013-06-24 22:23:00,76.1,69.5,28.61,NE,45,1.3,1.3,80,0.00,,,0.21,0.00,VWS V14.01,2013-06-25 03:23:00,
2013-06-24 22:24:00,75.9,69.3,28.61,NE,45,1.3,1.3,80,0.00,,,0.21,0.00,VWS V14.01,2013-06-25 03:24:00,
2013-06-24 22:25:00,75.9,69.3,28.61,NE,45,0.9,0.9,80,0.00,,,0.21,0.00,VWS V14.01,2013-06-25 03:25:00,
2013-06-24 22:26:00,75.9,69.3,28.61,NNE,22,1.6,1.6,80,0.00,,,0.21,0.00,VWS V14.01,2013-06-25 03:26:00,
2013-06-24 22:27:00,75.7,69.1,28.61,ENE,68,1.3,1.3,80,0.00,,,0.21,0.00,VWS V14.01,2013-06-25 03:27:00,
2013-06-24 22:28:00,75.7,69.1,28.61,NNE,22,0.9,0.9,80,0.00,,,0.21,0.00,VWS V14.01,2013-06-25 03:28:00,
2013-06-24 22:29:00,75.7,69.1,28.61,NE,45,0.9,0.9,80,0.00,,,0.21,0.00,VWS V14.01,2013-06-25 03:29:00,
2013-06-24 22:30:00,75.7,69.1,28.61,ENE,68,1.3,1.3,80,0.00,,,0.21,0.00,VWS V14.01,2013-06-25 03:30:00,
2013-06-24 22:31:00,75.7,69.1,28.61,ENE,68,0.0,0.0,80,0.00,,,0.21,0.00,VWS V14.01,2013-06-25 03:31:00,
2013-06-24 22:32:00,75.6,69.0,28.61,ENE,68,0.0,0.0,80,0.00,,,0.21,0.00,VWS V14.01,2013-06-25 03:32:00,
2013-06-24 22:33:00,75.6,69.0,28.61,ENE,68,0.0,0.0,80,0.00,,,0.21,0.00,VWS V14.01,2013-06-25 03:33:00,
2013-06-24 22:34:00,75.6,69.0,28.61,ENE,68,0.0,0.0,80,0.00,,,0.21,0.00,VWS V14.01,2013-06-25 03:34:00,
2013-06-24 22:35:00,75.6,69.0,28.61,ENE,68,0.0,0.0,80,0.00,,,0.21,0.00,VWS V14.01,2013-06-25 03:35:00,
2013-06-24 22:36:00,75.6,69.0,28.61,ENE,68,0.0,0.0,80,0.00,,,0.21,0.00,VWS V14.01,2013-06-25 03:36:00,
2013-06-24 22:37:00,75.4,69.2,28.61,South,180,1.3,1.3,81,0.00,,,0.21,0.00,VWS V14.01,2013-06-25 03:37:00,
2013-06-24 22:38:00,75.4,68.8,28.61,East,90,1.6,1.6,80,0.00,,,0.21,0.00,VWS V14.01,2013-06-25 03:38:00,
2013-06-24 22:39:00,75.4,68.8,28.61,SE,135,3.4,3.4,80,0.00,,,0.21,0.00,VWS V14.01,2013-06-25 03:39:00,
2013-06-24 22:40:00,75.4,69.2,28.61,South,180,1.3,1.3,81,0.00,,,0.21,0.00,VWS V14.01,2013-06-25 03:40:00,
2013-06-24 22:41:00,75.6,69.3,28.61,ESE,112,1.6,1.6,81,0.00,,,0.21,0.00,VWS V14.01,2013-06-25 03:41:00,
2013-06-24 22:42:00,75.6,69.3,28.61,SW,225,2.9,2.9,81,0.00,,,0.21,0.00,VWS V14.01,2013-06-25 03:42:00,
2013-06-24 22:43:00,75.6,69.3,28.61,SSE,158,1.1,1.1,81,0.00,,,0.21,0.00,VWS V14.01,2013-06-25 03:43:00,
2013-06-24 22:44:00,75.6,69.3,28.61,North,0,2.0,2.0,81,0.00,,,0.21,0.00,VWS V14.01,2013-06-25 03:44:00,
2013-06-24 22:45:00,75.6,69.3,28.61,SW,225,2.9,2.9,81,0.00,,,0.21,0.00,VWS V14.01,2013-06-25 03:45:00,
2013-06-24 22:46:00,75.6,69.3,28.61,SE,135,1.3,1.3,81,0.00,,,0.21,0.00,VWS V14.01,2013-06-25 03:46:00,
2013-06-24 22:47:00,75.7,69.1,28.61,SE,135,1.3,1.3,80,0.00,,,0.21,0.00,VWS V14.01,2013-06-25 03:47:00,
2013-06-24 22:48:00,75.7,69.1,28.61,SSE,158,4.7,4.7,80,0.00,,,0.21,0.00,VWS V14.01,2013-06-25 03:48:00,
2013-06-24 22:49:00,75.7,69.1,28.61,South,180,2.2,2.2,80,0.00,,,0.21,0.00,VWS V14.01,2013-06-25 03:49:00,
2013-06-24 22:50:00,75.7,69.1,28.61,SE,135,1.3,1.3,80,0.00,,,0.21,0.00,VWS V14.01,2013-06-25 03:50:00,
2013-06-24 22:51:00,75.7,69.1,28.61,SSE,158,0.0,0.0,80,0.00,,,0.21,0.00,VWS V14.01,2013-06-25 03:51:00,
2013-06-24 22:52:00,75.7,69.1,28.64,East,90,1.1,1.1,80,0.00,,,0.21,0.00,VWS V14.01,2013-06-25 03:52:00,
2013-06-24 22:53:00,75.7,69.1,28.64,SSE,158,3.1,3.1,80,0.00,,,0.21,0.00,VWS V14.01,2013-06-25 03:53:00,
2013-06-24 22:54:00,75.7,69.1,28.64,SE,135,1.6,1.6,80,0.00,,,0.21,0.00,VWS V14.01,2013-06-25 03:54:00,
2013-06-24 22:55:00,75.7,69.1,28.64,East,90,1.1,1.1,80,0.00,,,0.21,0.00,VWS V14.01,2013-06-25 03:55:00,
2013-06-24 22:56:00,75.7,68.8,28.64,NNE,22,2.0,2.0,79,0.00,,,0.21,0.00,VWS V14.01,2013-06-25 03:56:00,
2013-06-24 22:57:00,75.7,68.4,28.64,SSE,158,3.1,3.1,78,0.00,,,0.21,0.00,VWS V14.01,2013-06-25 03:57:00,
2013-06-24 22:58:00,75.7,68.8,28.64,East,90,2.0,2.0,79,0.00,,,0.21,0.00,VWS V14.01,2013-06-25 03:58:00,
2013-06-24 22:59:00,75.7,68.8,28.64,SE,135,3.1,3.1,79,0.00,,,0.21,0.00,VWS V14.01,2013-06-25 03:59:00,
2013-06-24 23:00:00,75.7,68.4,28.64,NW,315,1.1,1.1,78,0.00,,,0.21,0.00,VWS V14.01,2013-06-25 04:00:00,
2013-06-24 23:01:00,75.7,68.4,28.64,South,180,2.0,2.0,78,0.00,,,0.21,0.00,VWS V14.01,2013-06-25 04:01:00,
2013-06-24 23:02:00,75.7,68.4,28.64,ESE,112,0.9,0.9,78,0.00,,,0.21,0.00,VWS V14.01,2013-06-25 04:02:00,
2013-06-24 23:03:00,75.7,68.4,28.64,SE,135,3.8,3.8,78,0.00,,,0.21,0.00,VWS V14.01,2013-06-25 04:03:00,
2013-06-24 23:04:00,75.7,68.4,28.64,South,180,0.0,0.0,78,0.00,,,0.21,0.00,VWS V14.01,2013-06-25 04:04:00,
2013-06-24 23:05:00,75.7,68.0,28.64,NE,45,1.3,1.3,77,0.00,,,0.21,0.00,VWS V14.01,2013-06-25 04:05:00,
2013-06-24 23:06:00,75.7,68.0,28.61,SSE,158,1.6,1.6,77,0.00,,,0.21,0.00,VWS V14.01,2013-06-25 04:06:00,
2013-06-24 23:07:00,75.7,68.0,28.61,East,90,1.1,1.1,77,0.00,,,0.21,0.00,VWS V14.01,2013-06-25 04:07:00,
2013-06-24 23:08:00,75.7,68.0,28.61,NNE,22,3.4,3.4,77,0.00,,,0.21,0.00,VWS V14.01,2013-06-25 04:08:00,
2013-06-24 23:09:00,75.7,68.0,28.61,SSE,158,2.2,2.2,77,0.00,,,0.21,0.00,VWS V14.01,2013-06-25 04:09:00,
2013-06-24 23:10:00,75.7,68.0,28.61,NE,45,1.6,1.6,77,0.00,,,0.21,0.00,VWS V14.01,2013-06-25 04:10:00,
2013-06-24 23:11:00,75.6,67.5,28.61,SSW,202,1.6,1.6,76,0.00,,,0.21,0.00,VWS V14.01,2013-06-25 04:11:00,
2013-06-24 23:12:00,75.7,68.0,28.61,NE,45,0.0,0.0,77,0.00,,,0.21,0.00,VWS V14.01,2013-06-25 04:12:00,
2013-06-24 23:13:00,75.7,68.0,28.61,NNE,22,0.0,0.0,77,0.00,,,0.21,0.00,VWS V14.01,2013-06-25 04:13:00,
2013-06-24 23:14:00,75.6,67.5,28.61,SSW,202,1.6,1.6,76,0.00,,,0.21,0.00,VWS V14.01,2013-06-25 04:14:00,
2013-06-24 23:15:00,75.6,67.5,28.61,ESE,112,2.2,2.2,76,0.00,,,0.21,0.00,VWS V14.01,2013-06-25 04:15:00,
2013-06-24 23:16:00,75.6,67.5,28.61,NE,45,1.3,1.3,76,0.00,,,0.21,0.00,VWS V14.01,2013-06-25 04:16:00,
2013-06-24 23:17:00,75.6,67.5,28.61,NNW,338,1.6,1.6,76,0.00,,,0.21,0.00,VWS V14.01,2013-06-25 04:17:00,
2013-06-24 23:18:00,75.6,67.5,28.61,North,0,0.0,0.0,76,0.00,,,0.21,0.00,VWS V14.01,2013-06-25 04:18:00,
2013-06-24 23:19:00,75.6,67.5,28.61,NE,45,1.3,1.3,76,0.00,,,0.21,0.00,VWS V14.01,2013-06-25 04:19:00,
2013-06-24 23:20:00,75.4,67.3,28.61,NE,45,0.0,0.0,76,0.00,,,0.21,0.00,VWS V14.01,2013-06-25 04:20:00,
2013-06-24 23:21:00,75.4,67.3,28.61,NE,45,0.0,0.0,76,0.00,,,0.21,0.00,VWS V14.01,2013-06-25 04:21:00,
2013-06-24 23:22:00,75.4,67.3,28.61,NE,45,0.0,0.0,76,0.00,,,0.21,0.00,VWS V14.01,2013-06-25 04:22:00,
2013-06-24 23:23:00,75.4,67.3,28.61,North,0,2.0,2.0,76,0.00,,,0.21,0.00,VWS V14.01,2013-06-25 04:23:00,
2013-06-24 23:24:00,75.4,67.3,28.61,SSE,158,1.1,1.1,76,0.00,,,0.21,0.00,VWS V14.01,2013-06-25 04:24:00,
2013-06-24 23:25:00,75.2,67.1,28.61,ESE,112,1.1,1.1,76,0.00,,,0.21,0.00,VWS V14.01,2013-06-25 04:25:00,
2013-06-24 23:26:00,75.2,67.1,28.61,NE,45,1.1,1.1,76,0.00,,,0.21,0.00,VWS V14.01,2013-06-25 04:26:00,
2013-06-24 23:27:00,75.2,67.1,28.61,NNE,22,1.3,1.3,76,0.00,,,0.21,0.00,VWS V14.01,2013-06-25 04:27:00,
2013-06-24 23:28:00,75.2,67.1,28.61,NE,45,1.3,1.3,76,0.00,,,0.21,0.00,VWS V14.01,2013-06-25 04:28:00,
2013-06-24 23:29:00,75.2,67.1,28.61,NE,45,2.0,2.0,76,0.00,,,0.21,0.00,VWS V14.01,2013-06-25 04:29:00,
2013-06-24 23:30:00,75.2,67.1,28.61,NE,45,1.3,1.3,76,0.00,,,0.21,0.00,VWS V14.01,2013-06-25 04:30:00,
2013-06-24 23:31:00,75.2,67.1,28.61,NE,45,0.0,0.0,76,0.00,,,0.21,0.00,VWS V14.01,2013-06-25 04:31:00,
2013-06-24 23:32:00,75.2,67.1,28.61,NE,45,0.0,0.0,76,0.00,,,0.21,0.00,VWS V14.01,2013-06-25 04:32:00,
2013-06-24 23:33:00,75.0,66.9,28.61,NE,45,2.0,2.0,76,0.00,,,0.21,0.00,VWS V14.01,2013-06-25 04:33:00,
2013-06-24 23:34:00,75.0,66.9,28.61,SSE,158,2.2,2.2,76,0.00,,,0.21,0.00,VWS V14.01,2013-06-25 04:34:00,
2013-06-24 23:35:00,75.0,66.9,28.61,NE,45,0.9,0.9,76,0.00,,,0.21,0.00,VWS V14.01,2013-06-25 04:35:00,
2013-06-24 23:36:00,75.0,66.9,28.61,NE,45,1.3,1.3,76,0.00,,,0.21,0.00,VWS V14.01,2013-06-25 04:36:00,
2013-06-24 23:37:00,75.0,66.9,28.58,NE,45,1.1,1.1,76,0.00,,,0.21,0.00,VWS V14.01,2013-06-25 04:37:00,
2013-06-24 23:38:00,74.8,66.8,28.58,NE,45,0.9,0.9,76,0.00,,,0.21,0.00,VWS V14.01,2013-06-25 04:38:00,
2013-06-24 23:39:00,74.8,66.8,28.58,NE,45,0.0,0.0,76,0.00,,,0.21,0.00,VWS V14.01,2013-06-25 04:39:00,
2013-06-24 23:40:00,74.8,66.8,28.58,NE,45,0.0,0.0,76,0.00,,,0.21,0.00,VWS V14.01,2013-06-25 04:40:00,
2013-06-24 23:41:00,74.8,66.8,28.58,NE,45,0.0,0.0,76,0.00,,,0.21,0.00,VWS V14.01,2013-06-25 04:41:00,
2013-06-24 23:42:00,74.8,66.8,28.58,NE,45,0.0,0.0,76,0.00,,,0.21,0.00,VWS V14.01,2013-06-25 04:42:00,
2013-06-24 23:43:00,74.5,66.4,28.58,NNW,338,0.0,0.0,76,0.00,,,0.21,0.00,VWS V14.01,2013-06-25 04:43:00,
2013-06-24 23:44:00,74.7,66.6,28.58,NNE,22,0.0,0.0,76,0.00,,,0.21,0.00,VWS V14.01,2013-06-25 04:44:00,
2013-06-24 23:45:00,74.7,66.6,28.58,NNW,338,1.1,1.1,76,0.00,,,0.21,0.00,VWS V14.01,2013-06-25 04:45:00,
2013-06-24 23:46:00,74.5,66.4,28.58,NNW,338,0.0,0.0,76,0.00,,,0.21,0.00,VWS V14.01,2013-06-25 04:46:00,
2013-06-24 23:47:00,74.5,66.4,28.58,North,0,0.0,0.0,76,0.00,,,0.21,0.00,VWS V14.01,2013-06-25 04:47:00,
2013-06-24 23:48:00,74.3,66.2,28.58,NE,45,0.0,0.0,76,0.00,,,0.21,0.00,VWS V14.01,2013-06-25 04:48:00,
2013-06-24 23:49:00,74.5,66.4,28.58,NE,45,1.1,1.1,76,0.00,,,0.21,0.00,VWS V14.01,2013-06-25 04:49:00,
2013-06-24 23:50:00,74.3,66.2,28.58,NE,45,0.0,0.0,76,0.00,,,0.21,0.00,VWS V14.01,2013-06-25 04:50:00,
2013-06-24 23:51:00,74.3,66.2,28.58,NNE,22,0.0,0.0,76,0.00,,,0.21,0.00,VWS V14.01,2013-06-25 04:51:00,
2013-06-24 23:52:00,74.3,66.2,28.58,NNE,22,0.0,0.0,76,0.00,,,0.21,0.00,VWS V14.01,2013-06-25 04:52:00,
2013-06-24 23:53:00,74.3,66.2,28.58,North,0,1.1,1.1,76,0.00,,,0.21,0.00,VWS V14.01,2013-06-25 04:53:00,
2013-06-24 23:54:00,74.3,66.2,28.58,NNE,22,1.1,1.1,76,0.00,,,0.21,0.00,VWS V14.01,2013-06-25 04:54:00,
2013-06-24 23:55:00,74.3,66.2,28.58,ENE,68,2.9,2.9,76,0.00,,,0.21,0.00,VWS V14.01,2013-06-25 04:55:00,
2013-06-24 23:56:00,74.3,66.2,28.58,North,0,1.3,1.3,76,0.00,,,0.21,0.00,VWS V14.01,2013-06-25 04:56:00,
2013-06-24 23:57:00,74.1,66.1,28.58,North,0,0.0,0.0,76,0.00,,,0.21,0.00,VWS V14.01,2013-06-25 04:57:00,
2013-06-24 23:58:00,74.1,66.1,28.58,NNE,22,0.9,0.9,76,0.00,,,0.00,0.00,VWS V14.01,2013-06-25 04:58:00,
2013-06-24 23:59:00,74.1,66.1,28.58,ENE,68,1.6,1.6,76,0.00,,,0.21,0.00,VWS V14.01,2013-06-25 04:59:00,